<?xml version="1.0" encoding="UTF-8" standalone="no" ?>
<gpx xmlns="http://www.topografix.com/GPX/1/1" xmlns:xsi="http://www.w3.org/2001/XMLSchema-instance" xsi:schemaLocation="http://www.topografix.com/GPX/1/1 http://www.topografix.com/GPX/1/1/gpx.xsd" version="1.1" creator="VisuGPX - https://www.visugpx.com">
  <metadata>
    <name>9345510-peyrelade  point  sublime</name>
  </metadata>
  <trk>
    <name><![CDATA[9345510-peyrelade  point  sublime]]></name>
    <trkseg>
      <trkpt lat="44.19134" lon="3.15649">
        <ele>399</ele>
        <time>2019-05-22T20:08:04Z</time>
      </trkpt>
      <trkpt lat="44.19203" lon="3.15638">
        <ele>404</ele>
        <time>2019-05-22T20:08:16Z</time>
      </trkpt>
      <trkpt lat="44.19239" lon="3.15628">
        <ele>406</ele>
        <time>2019-05-22T20:08:23Z</time>
      </trkpt>
      <trkpt lat="44.19289" lon="3.15607">
        <ele>405</ele>
        <time>2019-05-22T20:08:32Z</time>
      </trkpt>
      <trkpt lat="44.19314" lon="3.15598">
        <ele>403</ele>
        <time>2019-05-22T20:08:37Z</time>
      </trkpt>
      <trkpt lat="44.19326" lon="3.15588">
        <ele>403</ele>
        <time>2019-05-22T20:08:39Z</time>
      </trkpt>
      <trkpt lat="44.19467" lon="3.15431">
        <ele>409</ele>
        <time>2019-05-22T20:09:11Z</time>
      </trkpt>
      <trkpt lat="44.19484" lon="3.15416">
        <ele>407</ele>
        <time>2019-05-22T20:09:15Z</time>
      </trkpt>
      <trkpt lat="44.19507" lon="3.15401">
        <ele>405</ele>
        <time>2019-05-22T20:09:19Z</time>
      </trkpt>
      <trkpt lat="44.19528" lon="3.1539">
        <ele>405</ele>
        <time>2019-05-22T20:09:23Z</time>
      </trkpt>
      <trkpt lat="44.19588" lon="3.15371">
        <ele>400</ele>
        <time>2019-05-22T20:09:34Z</time>
      </trkpt>
      <trkpt lat="44.19627" lon="3.15366">
        <ele>401</ele>
        <time>2019-05-22T20:09:41Z</time>
      </trkpt>
      <trkpt lat="44.19722" lon="3.15379">
        <ele>397</ele>
        <time>2019-05-22T20:09:58Z</time>
      </trkpt>
      <trkpt lat="44.19771" lon="3.15378">
        <ele>395</ele>
        <time>2019-05-22T20:10:07Z</time>
      </trkpt>
      <trkpt lat="44.19847" lon="3.15367">
        <ele>393</ele>
        <time>2019-05-22T20:10:21Z</time>
      </trkpt>
      <trkpt lat="44.19877" lon="3.15364">
        <ele>395</ele>
        <time>2019-05-22T20:10:26Z</time>
      </trkpt>
      <trkpt lat="44.19903" lon="3.15366">
        <ele>395</ele>
        <time>2019-05-22T20:10:31Z</time>
      </trkpt>
      <trkpt lat="44.19933" lon="3.15372">
        <ele>397</ele>
        <time>2019-05-22T20:10:36Z</time>
      </trkpt>
      <trkpt lat="44.19965" lon="3.15385">
        <ele>399</ele>
        <time>2019-05-22T20:10:42Z</time>
      </trkpt>
      <trkpt lat="44.20003" lon="3.15415">
        <ele>400</ele>
        <time>2019-05-22T20:10:50Z</time>
      </trkpt>
      <trkpt lat="44.20029" lon="3.15448">
        <ele>400</ele>
        <time>2019-05-22T20:10:56Z</time>
      </trkpt>
      <trkpt lat="44.20052" lon="3.15486">
        <ele>400</ele>
        <time>2019-05-22T20:11:02Z</time>
      </trkpt>
      <trkpt lat="44.20066" lon="3.15516">
        <ele>399</ele>
        <time>2019-05-22T20:11:07Z</time>
      </trkpt>
      <trkpt lat="44.20075" lon="3.15542">
        <ele>398</ele>
        <time>2019-05-22T20:11:11Z</time>
      </trkpt>
      <trkpt lat="44.20098" lon="3.15619">
        <ele>394</ele>
        <time>2019-05-22T20:11:21Z</time>
      </trkpt>
      <trkpt lat="44.20109" lon="3.15648">
        <ele>393</ele>
        <time>2019-05-22T20:11:25Z</time>
      </trkpt>
      <trkpt lat="44.20119" lon="3.15667">
        <ele>392</ele>
        <time>2019-05-22T20:11:28Z</time>
      </trkpt>
      <trkpt lat="44.2013" lon="3.15681">
        <ele>392</ele>
        <time>2019-05-22T20:11:31Z</time>
      </trkpt>
      <trkpt lat="44.2014" lon="3.15689">
        <ele>392</ele>
        <time>2019-05-22T20:11:33Z</time>
      </trkpt>
      <trkpt lat="44.20154" lon="3.15698">
        <ele>392</ele>
        <time>2019-05-22T20:11:36Z</time>
      </trkpt>
      <trkpt lat="44.20173" lon="3.15703">
        <ele>393</ele>
        <time>2019-05-22T20:11:39Z</time>
      </trkpt>
      <trkpt lat="44.20271" lon="3.15705">
        <ele>392</ele>
        <time>2019-05-22T20:11:57Z</time>
      </trkpt>
      <trkpt lat="44.2029" lon="3.15707">
        <ele>392</ele>
        <time>2019-05-22T20:12:00Z</time>
      </trkpt>
      <trkpt lat="44.20302" lon="3.15711">
        <ele>391</ele>
        <time>2019-05-22T20:12:02Z</time>
      </trkpt>
      <trkpt lat="44.20316" lon="3.1572">
        <ele>391</ele>
        <time>2019-05-22T20:12:05Z</time>
      </trkpt>
      <trkpt lat="44.20328" lon="3.15732">
        <ele>390</ele>
        <time>2019-05-22T20:12:08Z</time>
      </trkpt>
      <trkpt lat="44.20336" lon="3.15744">
        <ele>389</ele>
        <time>2019-05-22T20:12:10Z</time>
      </trkpt>
      <trkpt lat="44.20344" lon="3.15769">
        <ele>388</ele>
        <time>2019-05-22T20:12:13Z</time>
      </trkpt>
      <trkpt lat="44.20363" lon="3.15874">
        <ele>389</ele>
        <time>2019-05-22T20:12:27Z</time>
      </trkpt>
      <trkpt lat="44.20363" lon="3.15885">
        <ele>390</ele>
        <time>2019-05-22T20:12:28Z</time>
      </trkpt>
      <trkpt lat="44.20361" lon="3.15894">
        <ele>390</ele>
        <time>2019-05-22T20:12:30Z</time>
      </trkpt>
      <trkpt lat="44.20355" lon="3.15904">
        <ele>390</ele>
        <time>2019-05-22T20:12:31Z</time>
      </trkpt>
      <trkpt lat="44.20349" lon="3.15912">
        <ele>390</ele>
        <time>2019-05-22T20:12:33Z</time>
      </trkpt>
      <trkpt lat="44.20145" lon="3.16001">
        <ele>389</ele>
        <time>2019-05-22T20:13:11Z</time>
      </trkpt>
      <trkpt lat="44.20127" lon="3.16014">
        <ele>389</ele>
        <time>2019-05-22T20:13:14Z</time>
      </trkpt>
      <trkpt lat="44.20111" lon="3.16042">
        <ele>391</ele>
        <time>2019-05-22T20:13:19Z</time>
      </trkpt>
      <trkpt lat="44.201" lon="3.16086">
        <ele>393</ele>
        <time>2019-05-22T20:13:25Z</time>
      </trkpt>
      <trkpt lat="44.20096" lon="3.16117">
        <ele>396</ele>
        <time>2019-05-22T20:13:29Z</time>
      </trkpt>
      <trkpt lat="44.20098" lon="3.16168">
        <ele>403</ele>
        <time>2019-05-22T20:13:36Z</time>
      </trkpt>
      <trkpt lat="44.20098" lon="3.16168">
        <ele>403</ele>
        <time>2019-05-22T20:13:36Z</time>
      </trkpt>
      <trkpt lat="44.20102" lon="3.16228">
        <ele>404</ele>
        <time>2019-05-22T20:13:43Z</time>
      </trkpt>
      <trkpt lat="44.20105" lon="3.16359">
        <ele>397</ele>
        <time>2019-05-22T20:14:00Z</time>
      </trkpt>
      <trkpt lat="44.20109" lon="3.1645">
        <ele>397</ele>
        <time>2019-05-22T20:14:12Z</time>
      </trkpt>
      <trkpt lat="44.20124" lon="3.16576">
        <ele>401</ele>
        <time>2019-05-22T20:14:28Z</time>
      </trkpt>
      <trkpt lat="44.20124" lon="3.16627">
        <ele>400</ele>
        <time>2019-05-22T20:14:34Z</time>
      </trkpt>
      <trkpt lat="44.20121" lon="3.16727">
        <ele>396</ele>
        <time>2019-05-22T20:14:47Z</time>
      </trkpt>
      <trkpt lat="44.20124" lon="3.16791">
        <ele>395</ele>
        <time>2019-05-22T20:14:55Z</time>
      </trkpt>
      <trkpt lat="44.2014" lon="3.16934">
        <ele>398</ele>
        <time>2019-05-22T20:15:14Z</time>
      </trkpt>
      <trkpt lat="44.20156" lon="3.17032">
        <ele>395</ele>
        <time>2019-05-22T20:15:27Z</time>
      </trkpt>
      <trkpt lat="44.20161" lon="3.17098">
        <ele>392</ele>
        <time>2019-05-22T20:15:35Z</time>
      </trkpt>
      <trkpt lat="44.20179" lon="3.17203">
        <ele>392</ele>
        <time>2019-05-22T20:15:49Z</time>
      </trkpt>
      <trkpt lat="44.20181" lon="3.17246">
        <ele>389</ele>
        <time>2019-05-22T20:15:54Z</time>
      </trkpt>
      <trkpt lat="44.20178" lon="3.17327">
        <ele>388</ele>
        <time>2019-05-22T20:16:05Z</time>
      </trkpt>
      <trkpt lat="44.20173" lon="3.1735">
        <ele>390</ele>
        <time>2019-05-22T20:16:08Z</time>
      </trkpt>
      <trkpt lat="44.20167" lon="3.17365">
        <ele>390</ele>
        <time>2019-05-22T20:16:10Z</time>
      </trkpt>
      <trkpt lat="44.2015" lon="3.17392">
        <ele>391</ele>
        <time>2019-05-22T20:16:15Z</time>
      </trkpt>
      <trkpt lat="44.20135" lon="3.17426">
        <ele>392</ele>
        <time>2019-05-22T20:16:20Z</time>
      </trkpt>
      <trkpt lat="44.20123" lon="3.17462">
        <ele>392</ele>
        <time>2019-05-22T20:16:25Z</time>
      </trkpt>
      <trkpt lat="44.20112" lon="3.17506">
        <ele>392</ele>
        <time>2019-05-22T20:16:31Z</time>
      </trkpt>
      <trkpt lat="44.20108" lon="3.17527">
        <ele>392</ele>
        <time>2019-05-22T20:16:33Z</time>
      </trkpt>
      <trkpt lat="44.20105" lon="3.17559">
        <ele>393</ele>
        <time>2019-05-22T20:16:38Z</time>
      </trkpt>
      <trkpt lat="44.20104" lon="3.17611">
        <ele>395</ele>
        <time>2019-05-22T20:16:44Z</time>
      </trkpt>
      <trkpt lat="44.20098" lon="3.1766">
        <ele>395</ele>
        <time>2019-05-22T20:16:50Z</time>
      </trkpt>
      <trkpt lat="44.20081" lon="3.17766">
        <ele>395</ele>
        <time>2019-05-22T20:17:04Z</time>
      </trkpt>
      <trkpt lat="44.20068" lon="3.17807">
        <ele>397</ele>
        <time>2019-05-22T20:17:10Z</time>
      </trkpt>
      <trkpt lat="44.20029" lon="3.17897">
        <ele>397</ele>
        <time>2019-05-22T20:17:23Z</time>
      </trkpt>
      <trkpt lat="44.19995" lon="3.17993">
        <ele>397</ele>
        <time>2019-05-22T20:17:37Z</time>
      </trkpt>
      <trkpt lat="44.19982" lon="3.18037">
        <ele>397</ele>
        <time>2019-05-22T20:17:43Z</time>
      </trkpt>
      <trkpt lat="44.19975" lon="3.18077">
        <ele>398</ele>
        <time>2019-05-22T20:17:48Z</time>
      </trkpt>
      <trkpt lat="44.19973" lon="3.18109">
        <ele>398</ele>
        <time>2019-05-22T20:17:53Z</time>
      </trkpt>
      <trkpt lat="44.19973" lon="3.18146">
        <ele>399</ele>
        <time>2019-05-22T20:17:57Z</time>
      </trkpt>
      <trkpt lat="44.19978" lon="3.1821">
        <ele>402</ele>
        <time>2019-05-22T20:18:05Z</time>
      </trkpt>
      <trkpt lat="44.19977" lon="3.18241">
        <ele>403</ele>
        <time>2019-05-22T20:18:09Z</time>
      </trkpt>
      <trkpt lat="44.19972" lon="3.18274">
        <ele>403</ele>
        <time>2019-05-22T20:18:14Z</time>
      </trkpt>
      <trkpt lat="44.19963" lon="3.18309">
        <ele>403</ele>
        <time>2019-05-22T20:18:18Z</time>
      </trkpt>
      <trkpt lat="44.19947" lon="3.18348">
        <ele>402</ele>
        <time>2019-05-22T20:18:24Z</time>
      </trkpt>
      <trkpt lat="44.1993" lon="3.18387">
        <ele>403</ele>
        <time>2019-05-22T20:18:30Z</time>
      </trkpt>
      <trkpt lat="44.19908" lon="3.18424">
        <ele>403</ele>
        <time>2019-05-22T20:18:36Z</time>
      </trkpt>
      <trkpt lat="44.19873" lon="3.18464">
        <ele>403</ele>
        <time>2019-05-22T20:18:44Z</time>
      </trkpt>
      <trkpt lat="44.19697" lon="3.18584">
        <ele>397</ele>
        <time>2019-05-22T20:19:19Z</time>
      </trkpt>
      <trkpt lat="44.19679" lon="3.18603">
        <ele>397</ele>
        <time>2019-05-22T20:19:23Z</time>
      </trkpt>
      <trkpt lat="44.19669" lon="3.18618">
        <ele>398</ele>
        <time>2019-05-22T20:19:26Z</time>
      </trkpt>
      <trkpt lat="44.1965" lon="3.18657">
        <ele>399</ele>
        <time>2019-05-22T20:19:32Z</time>
      </trkpt>
      <trkpt lat="44.19642" lon="3.18686">
        <ele>399</ele>
        <time>2019-05-22T20:19:36Z</time>
      </trkpt>
      <trkpt lat="44.19638" lon="3.18706">
        <ele>398</ele>
        <time>2019-05-22T20:19:38Z</time>
      </trkpt>
      <trkpt lat="44.19637" lon="3.18735">
        <ele>399</ele>
        <time>2019-05-22T20:19:42Z</time>
      </trkpt>
      <trkpt lat="44.19639" lon="3.18769">
        <ele>398</ele>
        <time>2019-05-22T20:19:46Z</time>
      </trkpt>
      <trkpt lat="44.19644" lon="3.18792">
        <ele>397</ele>
        <time>2019-05-22T20:19:49Z</time>
      </trkpt>
      <trkpt lat="44.19656" lon="3.18822">
        <ele>396</ele>
        <time>2019-05-22T20:19:54Z</time>
      </trkpt>
      <trkpt lat="44.1967" lon="3.18843">
        <ele>395</ele>
        <time>2019-05-22T20:19:57Z</time>
      </trkpt>
      <trkpt lat="44.19686" lon="3.18857">
        <ele>395</ele>
        <time>2019-05-22T20:20:01Z</time>
      </trkpt>
      <trkpt lat="44.1974" lon="3.18882">
        <ele>396</ele>
        <time>2019-05-22T20:20:11Z</time>
      </trkpt>
      <trkpt lat="44.19763" lon="3.18897">
        <ele>395</ele>
        <time>2019-05-22T20:20:15Z</time>
      </trkpt>
      <trkpt lat="44.19774" lon="3.18907">
        <ele>395</ele>
        <time>2019-05-22T20:20:18Z</time>
      </trkpt>
      <trkpt lat="44.19792" lon="3.18933">
        <ele>394</ele>
        <time>2019-05-22T20:20:22Z</time>
      </trkpt>
      <trkpt lat="44.19866" lon="3.19079">
        <ele>397</ele>
        <time>2019-05-22T20:20:45Z</time>
      </trkpt>
      <trkpt lat="44.19877" lon="3.19115">
        <ele>397</ele>
        <time>2019-05-22T20:20:50Z</time>
      </trkpt>
      <trkpt lat="44.19879" lon="3.19155">
        <ele>396</ele>
        <time>2019-05-22T20:20:55Z</time>
      </trkpt>
      <trkpt lat="44.19875" lon="3.19228">
        <ele>397</ele>
        <time>2019-05-22T20:21:05Z</time>
      </trkpt>
      <trkpt lat="44.1987" lon="3.19261">
        <ele>397</ele>
        <time>2019-05-22T20:21:09Z</time>
      </trkpt>
      <trkpt lat="44.19859" lon="3.19315">
        <ele>399</ele>
        <time>2019-05-22T20:21:16Z</time>
      </trkpt>
      <trkpt lat="44.19769" lon="3.19545">
        <ele>400</ele>
        <time>2019-05-22T20:21:50Z</time>
      </trkpt>
      <trkpt lat="44.19759" lon="3.19577">
        <ele>399</ele>
        <time>2019-05-22T20:21:54Z</time>
      </trkpt>
      <trkpt lat="44.1972" lon="3.19732">
        <ele>397</ele>
        <time>2019-05-22T20:22:15Z</time>
      </trkpt>
      <trkpt lat="44.19707" lon="3.19773">
        <ele>398</ele>
        <time>2019-05-22T20:22:21Z</time>
      </trkpt>
      <trkpt lat="44.1969" lon="3.19808">
        <ele>399</ele>
        <time>2019-05-22T20:22:26Z</time>
      </trkpt>
      <trkpt lat="44.19559" lon="3.20029">
        <ele>396</ele>
        <time>2019-05-22T20:23:03Z</time>
      </trkpt>
      <trkpt lat="44.19547" lon="3.20065">
        <ele>398</ele>
        <time>2019-05-22T20:23:08Z</time>
      </trkpt>
      <trkpt lat="44.19531" lon="3.20146">
        <ele>400</ele>
        <time>2019-05-22T20:23:18Z</time>
      </trkpt>
      <trkpt lat="44.19508" lon="3.20229">
        <ele>399</ele>
        <time>2019-05-22T20:23:30Z</time>
      </trkpt>
      <trkpt lat="44.19485" lon="3.20368">
        <ele>399</ele>
        <time>2019-05-22T20:23:48Z</time>
      </trkpt>
      <trkpt lat="44.19469" lon="3.20426">
        <ele>398</ele>
        <time>2019-05-22T20:23:56Z</time>
      </trkpt>
      <trkpt lat="44.19451" lon="3.20468">
        <ele>396</ele>
        <time>2019-05-22T20:24:02Z</time>
      </trkpt>
      <trkpt lat="44.19446" lon="3.2049">
        <ele>395</ele>
        <time>2019-05-22T20:24:05Z</time>
      </trkpt>
      <trkpt lat="44.19457" lon="3.20594">
        <ele>397</ele>
        <time>2019-05-22T20:24:19Z</time>
      </trkpt>
      <trkpt lat="44.19456" lon="3.20636">
        <ele>398</ele>
        <time>2019-05-22T20:24:24Z</time>
      </trkpt>
      <trkpt lat="44.19451" lon="3.20673">
        <ele>398</ele>
        <time>2019-05-22T20:24:29Z</time>
      </trkpt>
      <trkpt lat="44.19449" lon="3.20704">
        <ele>399</ele>
        <time>2019-05-22T20:24:33Z</time>
      </trkpt>
      <trkpt lat="44.19459" lon="3.20788">
        <ele>401</ele>
        <time>2019-05-22T20:24:44Z</time>
      </trkpt>
      <trkpt lat="44.19472" lon="3.20877">
        <ele>399</ele>
        <time>2019-05-22T20:24:55Z</time>
      </trkpt>
      <trkpt lat="44.19482" lon="3.20929">
        <ele>398</ele>
        <time>2019-05-22T20:25:02Z</time>
      </trkpt>
      <trkpt lat="44.19533" lon="3.21076">
        <ele>399</ele>
        <time>2019-05-22T20:25:23Z</time>
      </trkpt>
      <trkpt lat="44.19558" lon="3.21111">
        <ele>402</ele>
        <time>2019-05-22T20:25:29Z</time>
      </trkpt>
      <trkpt lat="44.19599" lon="3.21162">
        <ele>402</ele>
        <time>2019-05-22T20:25:39Z</time>
      </trkpt>
      <trkpt lat="44.19615" lon="3.21172">
        <ele>404</ele>
        <time>2019-05-22T20:25:42Z</time>
      </trkpt>
      <trkpt lat="44.19656" lon="3.21185">
        <ele>409</ele>
        <time>2019-05-22T20:25:50Z</time>
      </trkpt>
      <trkpt lat="44.19685" lon="3.21204">
        <ele>411</ele>
        <time>2019-05-22T20:25:55Z</time>
      </trkpt>
      <trkpt lat="44.19723" lon="3.21237">
        <ele>412</ele>
        <time>2019-05-22T20:26:03Z</time>
      </trkpt>
      <trkpt lat="44.19771" lon="3.21284">
        <ele>413</ele>
        <time>2019-05-22T20:26:14Z</time>
      </trkpt>
      <trkpt lat="44.19804" lon="3.21309">
        <ele>413</ele>
        <time>2019-05-22T20:26:20Z</time>
      </trkpt>
      <trkpt lat="44.19916" lon="3.21381">
        <ele>414</ele>
        <time>2019-05-22T20:26:42Z</time>
      </trkpt>
      <trkpt lat="44.19942" lon="3.21391">
        <ele>413</ele>
        <time>2019-05-22T20:26:47Z</time>
      </trkpt>
      <trkpt lat="44.20014" lon="3.21408">
        <ele>413</ele>
        <time>2019-05-22T20:27:00Z</time>
      </trkpt>
      <trkpt lat="44.20044" lon="3.21411">
        <ele>415</ele>
        <time>2019-05-22T20:27:05Z</time>
      </trkpt>
      <trkpt lat="44.20077" lon="3.21411">
        <ele>420</ele>
        <time>2019-05-22T20:27:11Z</time>
      </trkpt>
      <trkpt lat="44.201" lon="3.21415">
        <ele>422</ele>
        <time>2019-05-22T20:27:15Z</time>
      </trkpt>
      <trkpt lat="44.20125" lon="3.21426">
        <ele>423</ele>
        <time>2019-05-22T20:27:20Z</time>
      </trkpt>
      <trkpt lat="44.20144" lon="3.21437">
        <ele>422</ele>
        <time>2019-05-22T20:27:24Z</time>
      </trkpt>
      <trkpt lat="44.20166" lon="3.21444">
        <ele>422</ele>
        <time>2019-05-22T20:27:28Z</time>
      </trkpt>
      <trkpt lat="44.20207" lon="3.21475">
        <ele>421</ele>
        <time>2019-05-22T20:27:36Z</time>
      </trkpt>
      <trkpt lat="44.20248" lon="3.21514">
        <ele>417</ele>
        <time>2019-05-22T20:27:45Z</time>
      </trkpt>
      <trkpt lat="44.20296" lon="3.21569">
        <ele>416</ele>
        <time>2019-05-22T20:27:56Z</time>
      </trkpt>
      <trkpt lat="44.20318" lon="3.21597">
        <ele>414</ele>
        <time>2019-05-22T20:28:01Z</time>
      </trkpt>
      <trkpt lat="44.20335" lon="3.21632">
        <ele>410</ele>
        <time>2019-05-22T20:28:07Z</time>
      </trkpt>
      <trkpt lat="44.2035" lon="3.21668">
        <ele>406</ele>
        <time>2019-05-22T20:28:12Z</time>
      </trkpt>
      <trkpt lat="44.20406" lon="3.21755">
        <ele>403</ele>
        <time>2019-05-22T20:28:27Z</time>
      </trkpt>
      <trkpt lat="44.2043" lon="3.21783">
        <ele>401</ele>
        <time>2019-05-22T20:28:32Z</time>
      </trkpt>
      <trkpt lat="44.20494" lon="3.21845">
        <ele>403</ele>
        <time>2019-05-22T20:28:46Z</time>
      </trkpt>
      <trkpt lat="44.20514" lon="3.21879">
        <ele>402</ele>
        <time>2019-05-22T20:28:52Z</time>
      </trkpt>
      <trkpt lat="44.20523" lon="3.21888">
        <ele>402</ele>
        <time>2019-05-22T20:28:54Z</time>
      </trkpt>
      <trkpt lat="44.20561" lon="3.21911">
        <ele>403</ele>
        <time>2019-05-22T20:29:01Z</time>
      </trkpt>
      <trkpt lat="44.20576" lon="3.21914">
        <ele>404</ele>
        <time>2019-05-22T20:29:04Z</time>
      </trkpt>
      <trkpt lat="44.20594" lon="3.2191">
        <ele>407</ele>
        <time>2019-05-22T20:29:07Z</time>
      </trkpt>
      <trkpt lat="44.20605" lon="3.21911">
        <ele>409</ele>
        <time>2019-05-22T20:29:09Z</time>
      </trkpt>
      <trkpt lat="44.20618" lon="3.21916">
        <ele>410</ele>
        <time>2019-05-22T20:29:11Z</time>
      </trkpt>
      <trkpt lat="44.2063" lon="3.21924">
        <ele>410</ele>
        <time>2019-05-22T20:29:14Z</time>
      </trkpt>
      <trkpt lat="44.20646" lon="3.21944">
        <ele>409</ele>
        <time>2019-05-22T20:29:18Z</time>
      </trkpt>
      <trkpt lat="44.20663" lon="3.21959">
        <ele>408</ele>
        <time>2019-05-22T20:29:21Z</time>
      </trkpt>
      <trkpt lat="44.20681" lon="3.21968">
        <ele>410</ele>
        <time>2019-05-22T20:29:25Z</time>
      </trkpt>
      <trkpt lat="44.207" lon="3.21972">
        <ele>413</ele>
        <time>2019-05-22T20:29:28Z</time>
      </trkpt>
      <trkpt lat="44.20716" lon="3.21979">
        <ele>415</ele>
        <time>2019-05-22T20:29:31Z</time>
      </trkpt>
      <trkpt lat="44.20768" lon="3.22009">
        <ele>421</ele>
        <time>2019-05-22T20:29:41Z</time>
      </trkpt>
      <trkpt lat="44.20783" lon="3.22025">
        <ele>422</ele>
        <time>2019-05-22T20:29:44Z</time>
      </trkpt>
      <trkpt lat="44.20795" lon="3.22051">
        <ele>418</ele>
        <time>2019-05-22T20:29:48Z</time>
      </trkpt>
      <trkpt lat="44.20813" lon="3.22067">
        <ele>418</ele>
        <time>2019-05-22T20:29:52Z</time>
      </trkpt>
      <trkpt lat="44.20858" lon="3.22085">
        <ele>424</ele>
        <time>2019-05-22T20:30:01Z</time>
      </trkpt>
      <trkpt lat="44.20879" lon="3.221">
        <ele>426</ele>
        <time>2019-05-22T20:30:05Z</time>
      </trkpt>
      <trkpt lat="44.20901" lon="3.22126">
        <ele>423</ele>
        <time>2019-05-22T20:30:10Z</time>
      </trkpt>
      <trkpt lat="44.20932" lon="3.22151">
        <ele>422</ele>
        <time>2019-05-22T20:30:16Z</time>
      </trkpt>
      <trkpt lat="44.20968" lon="3.22188">
        <ele>422</ele>
        <time>2019-05-22T20:30:24Z</time>
      </trkpt>
      <trkpt lat="44.21018" lon="3.22219">
        <ele>424</ele>
        <time>2019-05-22T20:30:34Z</time>
      </trkpt>
      <trkpt lat="44.2104" lon="3.2224">
        <ele>422</ele>
        <time>2019-05-22T20:30:39Z</time>
      </trkpt>
      <trkpt lat="44.21087" lon="3.22268">
        <ele>426</ele>
        <time>2019-05-22T20:30:48Z</time>
      </trkpt>
      <trkpt lat="44.21119" lon="3.22291">
        <ele>425</ele>
        <time>2019-05-22T20:30:54Z</time>
      </trkpt>
      <trkpt lat="44.21119" lon="3.22291">
        <ele>425</ele>
        <time>2019-05-22T20:30:54Z</time>
      </trkpt>
      <trkpt lat="44.21153" lon="3.22316">
        <ele>422</ele>
        <time>2019-05-22T20:31:01Z</time>
      </trkpt>
      <trkpt lat="44.2119" lon="3.22335">
        <ele>422</ele>
        <time>2019-05-22T20:31:08Z</time>
      </trkpt>
      <trkpt lat="44.21206" lon="3.22347">
        <ele>422</ele>
        <time>2019-05-22T20:31:11Z</time>
      </trkpt>
      <trkpt lat="44.21237" lon="3.22379">
        <ele>420</ele>
        <time>2019-05-22T20:31:18Z</time>
      </trkpt>
      <trkpt lat="44.21267" lon="3.22394">
        <ele>419</ele>
        <time>2019-05-22T20:31:24Z</time>
      </trkpt>
      <trkpt lat="44.21292" lon="3.22415">
        <ele>416</ele>
        <time>2019-05-22T20:31:29Z</time>
      </trkpt>
      <trkpt lat="44.2131" lon="3.22421">
        <ele>417</ele>
        <time>2019-05-22T20:31:32Z</time>
      </trkpt>
      <trkpt lat="44.21365" lon="3.22422">
        <ele>418</ele>
        <time>2019-05-22T20:31:42Z</time>
      </trkpt>
      <trkpt lat="44.21396" lon="3.22428">
        <ele>415</ele>
        <time>2019-05-22T20:31:48Z</time>
      </trkpt>
      <trkpt lat="44.21429" lon="3.22429">
        <ele>415</ele>
        <time>2019-05-22T20:31:53Z</time>
      </trkpt>
      <trkpt lat="44.21469" lon="3.22422">
        <ele>417</ele>
        <time>2019-05-22T20:32:01Z</time>
      </trkpt>
      <trkpt lat="44.21631" lon="3.22344">
        <ele>431</ele>
        <time>2019-05-22T20:32:31Z</time>
      </trkpt>
      <trkpt lat="44.21661" lon="3.22336">
        <ele>430</ele>
        <time>2019-05-22T20:32:37Z</time>
      </trkpt>
      <trkpt lat="44.21685" lon="3.22335">
        <ele>426</ele>
        <time>2019-05-22T20:32:41Z</time>
      </trkpt>
      <trkpt lat="44.21738" lon="3.2231">
        <ele>427</ele>
        <time>2019-05-22T20:32:51Z</time>
      </trkpt>
      <trkpt lat="44.21757" lon="3.2229">
        <ele>431</ele>
        <time>2019-05-22T20:32:55Z</time>
      </trkpt>
      <trkpt lat="44.21776" lon="3.2228">
        <ele>430</ele>
        <time>2019-05-22T20:32:59Z</time>
      </trkpt>
      <trkpt lat="44.2183" lon="3.22257">
        <ele>421</ele>
        <time>2019-05-22T20:33:09Z</time>
      </trkpt>
      <trkpt lat="44.21879" lon="3.22251">
        <ele>415</ele>
        <time>2019-05-22T20:33:17Z</time>
      </trkpt>
      <trkpt lat="44.21932" lon="3.22232">
        <ele>414</ele>
        <time>2019-05-22T20:33:27Z</time>
      </trkpt>
      <trkpt lat="44.21983" lon="3.22208">
        <ele>420</ele>
        <time>2019-05-22T20:33:37Z</time>
      </trkpt>
      <trkpt lat="44.22004" lon="3.222">
        <ele>422</ele>
        <time>2019-05-22T20:33:41Z</time>
      </trkpt>
      <trkpt lat="44.22022" lon="3.22206">
        <ele>420</ele>
        <time>2019-05-22T20:33:44Z</time>
      </trkpt>
      <trkpt lat="44.22037" lon="3.2222">
        <ele>417</ele>
        <time>2019-05-22T20:33:47Z</time>
      </trkpt>
      <trkpt lat="44.22081" lon="3.22248">
        <ele>410</ele>
        <time>2019-05-22T20:33:56Z</time>
      </trkpt>
      <trkpt lat="44.22149" lon="3.22279">
        <ele>409</ele>
        <time>2019-05-22T20:34:08Z</time>
      </trkpt>
      <trkpt lat="44.22177" lon="3.22297">
        <ele>410</ele>
        <time>2019-05-22T20:34:14Z</time>
      </trkpt>
      <trkpt lat="44.22221" lon="3.2233">
        <ele>418</ele>
        <time>2019-05-22T20:34:23Z</time>
      </trkpt>
      <trkpt lat="44.22235" lon="3.22351">
        <ele>419</ele>
        <time>2019-05-22T20:34:26Z</time>
      </trkpt>
      <trkpt lat="44.22256" lon="3.22396">
        <ele>419</ele>
        <time>2019-05-22T20:34:33Z</time>
      </trkpt>
      <trkpt lat="44.2229" lon="3.2245">
        <ele>424</ele>
        <time>2019-05-22T20:34:43Z</time>
      </trkpt>
      <trkpt lat="44.22343" lon="3.22545">
        <ele>424</ele>
        <time>2019-05-22T20:34:58Z</time>
      </trkpt>
      <trkpt lat="44.22361" lon="3.22582">
        <ele>425</ele>
        <time>2019-05-22T20:35:04Z</time>
      </trkpt>
      <trkpt lat="44.22376" lon="3.22623">
        <ele>424</ele>
        <time>2019-05-22T20:35:09Z</time>
      </trkpt>
      <trkpt lat="44.22402" lon="3.22717">
        <ele>421</ele>
        <time>2019-05-22T20:35:22Z</time>
      </trkpt>
      <trkpt lat="44.22416" lon="3.22747">
        <ele>418</ele>
        <time>2019-05-22T20:35:27Z</time>
      </trkpt>
      <trkpt lat="44.2243" lon="3.2277">
        <ele>421</ele>
        <time>2019-05-22T20:35:31Z</time>
      </trkpt>
      <trkpt lat="44.22446" lon="3.22788">
        <ele>424</ele>
        <time>2019-05-22T20:35:34Z</time>
      </trkpt>
      <trkpt lat="44.22483" lon="3.22817">
        <ele>428</ele>
        <time>2019-05-22T20:35:42Z</time>
      </trkpt>
      <trkpt lat="44.22526" lon="3.22871">
        <ele>423</ele>
        <time>2019-05-22T20:35:52Z</time>
      </trkpt>
      <trkpt lat="44.22547" lon="3.22885">
        <ele>423</ele>
        <time>2019-05-22T20:35:56Z</time>
      </trkpt>
      <trkpt lat="44.22583" lon="3.22903">
        <ele>425</ele>
        <time>2019-05-22T20:36:03Z</time>
      </trkpt>
      <trkpt lat="44.22638" lon="3.2292">
        <ele>422</ele>
        <time>2019-05-22T20:36:13Z</time>
      </trkpt>
      <trkpt lat="44.22672" lon="3.22923">
        <ele>423</ele>
        <time>2019-05-22T20:36:19Z</time>
      </trkpt>
      <trkpt lat="44.22709" lon="3.22922">
        <ele>423</ele>
        <time>2019-05-22T20:36:26Z</time>
      </trkpt>
      <trkpt lat="44.2277" lon="3.22924">
        <ele>425</ele>
        <time>2019-05-22T20:36:37Z</time>
      </trkpt>
      <trkpt lat="44.22795" lon="3.22935">
        <ele>425</ele>
        <time>2019-05-22T20:36:41Z</time>
      </trkpt>
      <trkpt lat="44.22862" lon="3.22972">
        <ele>421</ele>
        <time>2019-05-22T20:36:54Z</time>
      </trkpt>
      <trkpt lat="44.22884" lon="3.22983">
        <ele>419</ele>
        <time>2019-05-22T20:36:58Z</time>
      </trkpt>
      <trkpt lat="44.22904" lon="3.22987">
        <ele>420</ele>
        <time>2019-05-22T20:37:02Z</time>
      </trkpt>
      <trkpt lat="44.22982" lon="3.22995">
        <ele>416</ele>
        <time>2019-05-22T20:37:16Z</time>
      </trkpt>
      <trkpt lat="44.23008" lon="3.22996">
        <ele>415</ele>
        <time>2019-05-22T20:37:20Z</time>
      </trkpt>
      <trkpt lat="44.23034" lon="3.22991">
        <ele>417</ele>
        <time>2019-05-22T20:37:25Z</time>
      </trkpt>
      <trkpt lat="44.23076" lon="3.22988">
        <ele>417</ele>
        <time>2019-05-22T20:37:33Z</time>
      </trkpt>
      <trkpt lat="44.23131" lon="3.22992">
        <ele>418</ele>
        <time>2019-05-22T20:37:42Z</time>
      </trkpt>
      <trkpt lat="44.23265" lon="3.23013">
        <ele>421</ele>
        <time>2019-05-22T20:38:06Z</time>
      </trkpt>
      <trkpt lat="44.23317" lon="3.23014">
        <ele>424</ele>
        <time>2019-05-22T20:38:16Z</time>
      </trkpt>
      <trkpt lat="44.2334" lon="3.23025">
        <ele>423</ele>
        <time>2019-05-22T20:38:20Z</time>
      </trkpt>
      <trkpt lat="44.23363" lon="3.2304">
        <ele>422</ele>
        <time>2019-05-22T20:38:24Z</time>
      </trkpt>
      <trkpt lat="44.23383" lon="3.23049">
        <ele>421</ele>
        <time>2019-05-22T20:38:28Z</time>
      </trkpt>
      <trkpt lat="44.23406" lon="3.23052">
        <ele>422</ele>
        <time>2019-05-22T20:38:32Z</time>
      </trkpt>
      <trkpt lat="44.23432" lon="3.23051">
        <ele>423</ele>
        <time>2019-05-22T20:38:37Z</time>
      </trkpt>
      <trkpt lat="44.23452" lon="3.23044">
        <ele>425</ele>
        <time>2019-05-22T20:38:41Z</time>
      </trkpt>
      <trkpt lat="44.23469" lon="3.23032">
        <ele>428</ele>
        <time>2019-05-22T20:38:44Z</time>
      </trkpt>
      <trkpt lat="44.23489" lon="3.23026">
        <ele>429</ele>
        <time>2019-05-22T20:38:48Z</time>
      </trkpt>
      <trkpt lat="44.23519" lon="3.23019">
        <ele>431</ele>
        <time>2019-05-22T20:38:53Z</time>
      </trkpt>
      <trkpt lat="44.23575" lon="3.23015">
        <ele>432</ele>
        <time>2019-05-22T20:39:03Z</time>
      </trkpt>
      <trkpt lat="44.23594" lon="3.2302">
        <ele>431</ele>
        <time>2019-05-22T20:39:06Z</time>
      </trkpt>
      <trkpt lat="44.23615" lon="3.23033">
        <ele>426</ele>
        <time>2019-05-22T20:39:11Z</time>
      </trkpt>
      <trkpt lat="44.23638" lon="3.23038">
        <ele>425</ele>
        <time>2019-05-22T20:39:15Z</time>
      </trkpt>
      <trkpt lat="44.23672" lon="3.23039">
        <ele>425</ele>
        <time>2019-05-22T20:39:21Z</time>
      </trkpt>
      <trkpt lat="44.23705" lon="3.23047">
        <ele>426</ele>
        <time>2019-05-22T20:39:27Z</time>
      </trkpt>
      <trkpt lat="44.23732" lon="3.23044">
        <ele>430</ele>
        <time>2019-05-22T20:39:32Z</time>
      </trkpt>
      <trkpt lat="44.23761" lon="3.23036">
        <ele>436</ele>
        <time>2019-05-22T20:39:37Z</time>
      </trkpt>
      <trkpt lat="44.23776" lon="3.23039">
        <ele>436</ele>
        <time>2019-05-22T20:39:40Z</time>
      </trkpt>
      <trkpt lat="44.23798" lon="3.23057">
        <ele>430</ele>
        <time>2019-05-22T20:39:44Z</time>
      </trkpt>
      <trkpt lat="44.23816" lon="3.23063">
        <ele>429</ele>
        <time>2019-05-22T20:39:47Z</time>
      </trkpt>
      <trkpt lat="44.23838" lon="3.23062">
        <ele>430</ele>
        <time>2019-05-22T20:39:51Z</time>
      </trkpt>
      <trkpt lat="44.23857" lon="3.23069">
        <ele>427</ele>
        <time>2019-05-22T20:39:55Z</time>
      </trkpt>
      <trkpt lat="44.23871" lon="3.2307">
        <ele>427</ele>
        <time>2019-05-22T20:39:57Z</time>
      </trkpt>
      <trkpt lat="44.23912" lon="3.23064">
        <ele>429</ele>
        <time>2019-05-22T20:40:05Z</time>
      </trkpt>
      <trkpt lat="44.2393" lon="3.23064">
        <ele>429</ele>
        <time>2019-05-22T20:40:08Z</time>
      </trkpt>
      <trkpt lat="44.23954" lon="3.23071">
        <ele>426</ele>
        <time>2019-05-22T20:40:12Z</time>
      </trkpt>
      <trkpt lat="44.23982" lon="3.23072">
        <ele>426</ele>
        <time>2019-05-22T20:40:17Z</time>
      </trkpt>
      <trkpt lat="44.24004" lon="3.23068">
        <ele>428</ele>
        <time>2019-05-22T20:40:21Z</time>
      </trkpt>
      <trkpt lat="44.24037" lon="3.23077">
        <ele>425</ele>
        <time>2019-05-22T20:40:27Z</time>
      </trkpt>
      <trkpt lat="44.24055" lon="3.23076">
        <ele>426</ele>
        <time>2019-05-22T20:40:30Z</time>
      </trkpt>
      <trkpt lat="44.24073" lon="3.23078">
        <ele>426</ele>
        <time>2019-05-22T20:40:33Z</time>
      </trkpt>
      <trkpt lat="44.24172" lon="3.23109">
        <ele>433</ele>
        <time>2019-05-22T20:40:52Z</time>
      </trkpt>
      <trkpt lat="44.242" lon="3.23113">
        <ele>435</ele>
        <time>2019-05-22T20:40:57Z</time>
      </trkpt>
      <trkpt lat="44.24243" lon="3.2313">
        <ele>432</ele>
        <time>2019-05-22T20:41:04Z</time>
      </trkpt>
      <trkpt lat="44.24296" lon="3.23134">
        <ele>434</ele>
        <time>2019-05-22T20:41:14Z</time>
      </trkpt>
      <trkpt lat="44.24318" lon="3.23143">
        <ele>432</ele>
        <time>2019-05-22T20:41:18Z</time>
      </trkpt>
      <trkpt lat="44.24337" lon="3.23154">
        <ele>430</ele>
        <time>2019-05-22T20:41:22Z</time>
      </trkpt>
      <trkpt lat="44.24397" lon="3.23201">
        <ele>432</ele>
        <time>2019-05-22T20:41:34Z</time>
      </trkpt>
      <trkpt lat="44.24417" lon="3.23214">
        <ele>430</ele>
        <time>2019-05-22T20:41:38Z</time>
      </trkpt>
      <trkpt lat="44.24438" lon="3.23225">
        <ele>428</ele>
        <time>2019-05-22T20:41:42Z</time>
      </trkpt>
      <trkpt lat="44.24481" lon="3.23238">
        <ele>425</ele>
        <time>2019-05-22T20:41:50Z</time>
      </trkpt>
      <trkpt lat="44.24508" lon="3.23238">
        <ele>426</ele>
        <time>2019-05-22T20:41:54Z</time>
      </trkpt>
      <trkpt lat="44.24561" lon="3.23227">
        <ele>430</ele>
        <time>2019-05-22T20:42:04Z</time>
      </trkpt>
      <trkpt lat="44.24729" lon="3.23185">
        <ele>433</ele>
        <time>2019-05-22T20:42:34Z</time>
      </trkpt>
      <trkpt lat="44.24779" lon="3.23186">
        <ele>433</ele>
        <time>2019-05-22T20:42:43Z</time>
      </trkpt>
      <trkpt lat="44.24808" lon="3.23183">
        <ele>435</ele>
        <time>2019-05-22T20:42:48Z</time>
      </trkpt>
      <trkpt lat="44.24842" lon="3.23197">
        <ele>432</ele>
        <time>2019-05-22T20:42:55Z</time>
      </trkpt>
      <trkpt lat="44.24893" lon="3.23204">
        <ele>433</ele>
        <time>2019-05-22T20:43:04Z</time>
      </trkpt>
      <trkpt lat="44.24925" lon="3.23202">
        <ele>434</ele>
        <time>2019-05-22T20:43:10Z</time>
      </trkpt>
      <trkpt lat="44.2496" lon="3.23211">
        <ele>433</ele>
        <time>2019-05-22T20:43:16Z</time>
      </trkpt>
      <trkpt lat="44.25175" lon="3.23227">
        <ele>428</ele>
        <time>2019-05-22T20:43:54Z</time>
      </trkpt>
      <trkpt lat="44.25216" lon="3.23221">
        <ele>426</ele>
        <time>2019-05-22T20:44:02Z</time>
      </trkpt>
      <trkpt lat="44.25261" lon="3.23191">
        <ele>432</ele>
        <time>2019-05-22T20:44:10Z</time>
      </trkpt>
      <trkpt lat="44.25278" lon="3.23187">
        <ele>434</ele>
        <time>2019-05-22T20:44:13Z</time>
      </trkpt>
      <trkpt lat="44.25314" lon="3.23186">
        <ele>433</ele>
        <time>2019-05-22T20:44:20Z</time>
      </trkpt>
      <trkpt lat="44.25367" lon="3.23172">
        <ele>432</ele>
        <time>2019-05-22T20:44:29Z</time>
      </trkpt>
      <trkpt lat="44.25398" lon="3.23151">
        <ele>435</ele>
        <time>2019-05-22T20:44:36Z</time>
      </trkpt>
      <trkpt lat="44.25526" lon="3.23086">
        <ele>426</ele>
        <time>2019-05-22T20:45:00Z</time>
      </trkpt>
      <trkpt lat="44.25632" lon="3.23047">
        <ele>426</ele>
        <time>2019-05-22T20:45:19Z</time>
      </trkpt>
      <trkpt lat="44.25658" lon="3.2303">
        <ele>426</ele>
        <time>2019-05-22T20:45:24Z</time>
      </trkpt>
      <trkpt lat="44.25698" lon="3.22996">
        <ele>428</ele>
        <time>2019-05-22T20:45:33Z</time>
      </trkpt>
      <trkpt lat="44.2585" lon="3.22884">
        <ele>431</ele>
        <time>2019-05-22T20:46:03Z</time>
      </trkpt>
      <trkpt lat="44.25949" lon="3.22817">
        <ele>427</ele>
        <time>2019-05-22T20:46:23Z</time>
      </trkpt>
      <trkpt lat="44.25988" lon="3.22796">
        <ele>425</ele>
        <time>2019-05-22T20:46:30Z</time>
      </trkpt>
      <trkpt lat="44.26027" lon="3.22766">
        <ele>428</ele>
        <time>2019-05-22T20:46:38Z</time>
      </trkpt>
      <trkpt lat="44.26049" lon="3.22754">
        <ele>428</ele>
        <time>2019-05-22T20:46:43Z</time>
      </trkpt>
      <trkpt lat="44.26088" lon="3.22743">
        <ele>425</ele>
        <time>2019-05-22T20:46:50Z</time>
      </trkpt>
      <trkpt lat="44.26134" lon="3.22712">
        <ele>431</ele>
        <time>2019-05-22T20:46:59Z</time>
      </trkpt>
      <trkpt lat="44.26166" lon="3.22698">
        <ele>430</ele>
        <time>2019-05-22T20:47:05Z</time>
      </trkpt>
      <trkpt lat="44.26206" lon="3.22689">
        <ele>428</ele>
        <time>2019-05-22T20:47:12Z</time>
      </trkpt>
      <trkpt lat="44.26232" lon="3.22679">
        <ele>426</ele>
        <time>2019-05-22T20:47:17Z</time>
      </trkpt>
      <trkpt lat="44.26335" lon="3.22613">
        <ele>431</ele>
        <time>2019-05-22T20:47:37Z</time>
      </trkpt>
      <trkpt lat="44.2637" lon="3.22598">
        <ele>431</ele>
        <time>2019-05-22T20:47:43Z</time>
      </trkpt>
      <trkpt lat="44.26406" lon="3.22587">
        <ele>430</ele>
        <time>2019-05-22T20:47:50Z</time>
      </trkpt>
      <trkpt lat="44.26481" lon="3.22571">
        <ele>432</ele>
        <time>2019-05-22T20:48:03Z</time>
      </trkpt>
      <trkpt lat="44.26575" lon="3.22563">
        <ele>431</ele>
        <time>2019-05-22T20:48:20Z</time>
      </trkpt>
      <trkpt lat="44.267" lon="3.22593">
        <ele>426</ele>
        <time>2019-05-22T20:48:43Z</time>
      </trkpt>
      <trkpt lat="44.26927" lon="3.22612">
        <ele>429</ele>
        <time>2019-05-22T20:49:23Z</time>
      </trkpt>
      <trkpt lat="44.26969" lon="3.22613">
        <ele>428</ele>
        <time>2019-05-22T20:49:31Z</time>
      </trkpt>
      <trkpt lat="44.2705" lon="3.22597">
        <ele>429</ele>
        <time>2019-05-22T20:49:45Z</time>
      </trkpt>
      <trkpt lat="44.27105" lon="3.2259">
        <ele>429</ele>
        <time>2019-05-22T20:49:55Z</time>
      </trkpt>
      <trkpt lat="44.27164" lon="3.22586">
        <ele>428</ele>
        <time>2019-05-22T20:50:06Z</time>
      </trkpt>
      <trkpt lat="44.27164" lon="3.22586">
        <ele>428</ele>
        <time>2019-05-22T20:50:06Z</time>
      </trkpt>
      <trkpt lat="44.27168" lon="3.22586">
        <ele>428</ele>
        <time>2019-05-22T20:50:06Z</time>
      </trkpt>
      <trkpt lat="44.27183" lon="3.22577">
        <ele>430</ele>
        <time>2019-05-22T20:50:09Z</time>
      </trkpt>
      <trkpt lat="44.27207" lon="3.22552">
        <ele>437</ele>
        <time>2019-05-22T20:50:14Z</time>
      </trkpt>
      <trkpt lat="44.27221" lon="3.22548">
        <ele>437</ele>
        <time>2019-05-22T20:50:17Z</time>
      </trkpt>
      <trkpt lat="44.27235" lon="3.22555">
        <ele>434</ele>
        <time>2019-05-22T20:50:20Z</time>
      </trkpt>
      <trkpt lat="44.27245" lon="3.22567">
        <ele>429</ele>
        <time>2019-05-22T20:50:22Z</time>
      </trkpt>
      <trkpt lat="44.27254" lon="3.22573">
        <ele>427</ele>
        <time>2019-05-22T20:50:24Z</time>
      </trkpt>
      <trkpt lat="44.27265" lon="3.22576">
        <ele>426</ele>
        <time>2019-05-22T20:50:26Z</time>
      </trkpt>
      <trkpt lat="44.27291" lon="3.22578">
        <ele>426</ele>
        <time>2019-05-22T20:50:30Z</time>
      </trkpt>
      <trkpt lat="44.27418" lon="3.22571">
        <ele>427</ele>
        <time>2019-05-22T20:50:53Z</time>
      </trkpt>
      <trkpt lat="44.27454" lon="3.22573">
        <ele>426</ele>
        <time>2019-05-22T20:50:59Z</time>
      </trkpt>
      <trkpt lat="44.2748" lon="3.22577">
        <ele>424</ele>
        <time>2019-05-22T20:51:04Z</time>
      </trkpt>
      <trkpt lat="44.27503" lon="3.22568">
        <ele>427</ele>
        <time>2019-05-22T20:51:08Z</time>
      </trkpt>
      <trkpt lat="44.27521" lon="3.22573">
        <ele>426</ele>
        <time>2019-05-22T20:51:12Z</time>
      </trkpt>
      <trkpt lat="44.27542" lon="3.22588">
        <ele>423</ele>
        <time>2019-05-22T20:51:16Z</time>
      </trkpt>
      <trkpt lat="44.27552" lon="3.22593">
        <ele>423</ele>
        <time>2019-05-22T20:51:18Z</time>
      </trkpt>
      <trkpt lat="44.27574" lon="3.22595">
        <ele>423</ele>
        <time>2019-05-22T20:51:22Z</time>
      </trkpt>
      <trkpt lat="44.27632" lon="3.22615">
        <ele>423</ele>
        <time>2019-05-22T20:51:32Z</time>
      </trkpt>
      <trkpt lat="44.27637" lon="3.22614">
        <ele>424</ele>
        <time>2019-05-22T20:51:33Z</time>
      </trkpt>
      <trkpt lat="44.27645" lon="3.22608">
        <ele>426</ele>
        <time>2019-05-22T20:51:35Z</time>
      </trkpt>
      <trkpt lat="44.2765" lon="3.22599">
        <ele>429</ele>
        <time>2019-05-22T20:51:36Z</time>
      </trkpt>
      <trkpt lat="44.27659" lon="3.22591">
        <ele>431</ele>
        <time>2019-05-22T20:51:38Z</time>
      </trkpt>
      <trkpt lat="44.27666" lon="3.2259">
        <ele>432</ele>
        <time>2019-05-22T20:51:39Z</time>
      </trkpt>
      <trkpt lat="44.27676" lon="3.22593">
        <ele>435</ele>
        <time>2019-05-22T20:51:41Z</time>
      </trkpt>
      <trkpt lat="44.2768" lon="3.22599">
        <ele>434</ele>
        <time>2019-05-22T20:51:42Z</time>
      </trkpt>
      <trkpt lat="44.27683" lon="3.22606">
        <ele>433</ele>
        <time>2019-05-22T20:51:43Z</time>
      </trkpt>
      <trkpt lat="44.2769" lon="3.22638">
        <ele>426</ele>
        <time>2019-05-22T20:51:48Z</time>
      </trkpt>
      <trkpt lat="44.27696" lon="3.22655">
        <ele>423</ele>
        <time>2019-05-22T20:51:50Z</time>
      </trkpt>
      <trkpt lat="44.27716" lon="3.22679">
        <ele>422</ele>
        <time>2019-05-22T20:51:55Z</time>
      </trkpt>
      <trkpt lat="44.27745" lon="3.22721">
        <ele>420</ele>
        <time>2019-05-22T20:52:02Z</time>
      </trkpt>
      <trkpt lat="44.27754" lon="3.22728">
        <ele>420</ele>
        <time>2019-05-22T20:52:04Z</time>
      </trkpt>
      <trkpt lat="44.2775" lon="3.22714">
        <ele>422</ele>
        <time>2019-05-22T20:52:06Z</time>
      </trkpt>
      <trkpt lat="44.27701" lon="3.22646">
        <ele>426</ele>
        <time>2019-05-22T20:52:18Z</time>
      </trkpt>
      <trkpt lat="44.27697" lon="3.22631">
        <ele>430</ele>
        <time>2019-05-22T20:52:20Z</time>
      </trkpt>
      <trkpt lat="44.27694" lon="3.22614">
        <ele>434</ele>
        <time>2019-05-22T20:52:22Z</time>
      </trkpt>
      <trkpt lat="44.27699" lon="3.22608">
        <ele>437</ele>
        <time>2019-05-22T20:52:24Z</time>
      </trkpt>
      <trkpt lat="44.27705" lon="3.22606">
        <ele>440</ele>
        <time>2019-05-22T20:52:25Z</time>
      </trkpt>
      <trkpt lat="44.27712" lon="3.2261">
        <ele>441</ele>
        <time>2019-05-22T20:52:26Z</time>
      </trkpt>
      <trkpt lat="44.27721" lon="3.22641">
        <ele>433</ele>
        <time>2019-05-22T20:52:30Z</time>
      </trkpt>
      <trkpt lat="44.27727" lon="3.22653">
        <ele>430</ele>
        <time>2019-05-22T20:52:32Z</time>
      </trkpt>
      <trkpt lat="44.27733" lon="3.22658">
        <ele>429</ele>
        <time>2019-05-22T20:52:33Z</time>
      </trkpt>
      <trkpt lat="44.27815" lon="3.22703">
        <ele>440</ele>
        <time>2019-05-22T20:52:49Z</time>
      </trkpt>
      <trkpt lat="44.27852" lon="3.22712">
        <ele>448</ele>
        <time>2019-05-22T20:52:56Z</time>
      </trkpt>
      <trkpt lat="44.27921" lon="3.22769">
        <ele>451</ele>
        <time>2019-05-22T20:53:10Z</time>
      </trkpt>
      <trkpt lat="44.27941" lon="3.22783">
        <ele>452</ele>
        <time>2019-05-22T20:53:14Z</time>
      </trkpt>
      <trkpt lat="44.27975" lon="3.22795">
        <ele>456</ele>
        <time>2019-05-22T20:53:20Z</time>
      </trkpt>
      <trkpt lat="44.28018" lon="3.22805">
        <ele>459</ele>
        <time>2019-05-22T20:53:28Z</time>
      </trkpt>
      <trkpt lat="44.28048" lon="3.22807">
        <ele>459</ele>
        <time>2019-05-22T20:53:33Z</time>
      </trkpt>
      <trkpt lat="44.28073" lon="3.22806">
        <ele>460</ele>
        <time>2019-05-22T20:53:38Z</time>
      </trkpt>
      <trkpt lat="44.28081" lon="3.22804">
        <ele>461</ele>
        <time>2019-05-22T20:53:39Z</time>
      </trkpt>
      <trkpt lat="44.281" lon="3.22793">
        <ele>464</ele>
        <time>2019-05-22T20:53:43Z</time>
      </trkpt>
      <trkpt lat="44.28132" lon="3.22752">
        <ele>477</ele>
        <time>2019-05-22T20:53:51Z</time>
      </trkpt>
      <trkpt lat="44.28146" lon="3.22744">
        <ele>479</ele>
        <time>2019-05-22T20:53:53Z</time>
      </trkpt>
      <trkpt lat="44.28176" lon="3.22734">
        <ele>480</ele>
        <time>2019-05-22T20:53:59Z</time>
      </trkpt>
      <trkpt lat="44.28189" lon="3.22723">
        <ele>484</ele>
        <time>2019-05-22T20:54:01Z</time>
      </trkpt>
      <trkpt lat="44.28212" lon="3.22699">
        <ele>493</ele>
        <time>2019-05-22T20:54:07Z</time>
      </trkpt>
      <trkpt lat="44.2822" lon="3.22693">
        <ele>495</ele>
        <time>2019-05-22T20:54:08Z</time>
      </trkpt>
      <trkpt lat="44.28245" lon="3.22682">
        <ele>497</ele>
        <time>2019-05-22T20:54:13Z</time>
      </trkpt>
      <trkpt lat="44.28294" lon="3.22672">
        <ele>510</ele>
        <time>2019-05-22T20:54:22Z</time>
      </trkpt>
      <trkpt lat="44.28308" lon="3.22671">
        <ele>513</ele>
        <time>2019-05-22T20:54:24Z</time>
      </trkpt>
      <trkpt lat="44.28327" lon="3.22673">
        <ele>517</ele>
        <time>2019-05-22T20:54:28Z</time>
      </trkpt>
      <trkpt lat="44.28332" lon="3.22669">
        <ele>518</ele>
        <time>2019-05-22T20:54:29Z</time>
      </trkpt>
      <trkpt lat="44.28334" lon="3.2266">
        <ele>521</ele>
        <time>2019-05-22T20:54:30Z</time>
      </trkpt>
      <trkpt lat="44.28331" lon="3.2265">
        <ele>523</ele>
        <time>2019-05-22T20:54:31Z</time>
      </trkpt>
      <trkpt lat="44.28322" lon="3.22647">
        <ele>522</ele>
        <time>2019-05-22T20:54:33Z</time>
      </trkpt>
      <trkpt lat="44.28292" lon="3.22656">
        <ele>515</ele>
        <time>2019-05-22T20:54:38Z</time>
      </trkpt>
      <trkpt lat="44.28256" lon="3.22654">
        <ele>509</ele>
        <time>2019-05-22T20:54:45Z</time>
      </trkpt>
      <trkpt lat="44.28237" lon="3.22656">
        <ele>509</ele>
        <time>2019-05-22T20:54:48Z</time>
      </trkpt>
      <trkpt lat="44.28219" lon="3.22664">
        <ele>507</ele>
        <time>2019-05-22T20:54:51Z</time>
      </trkpt>
      <trkpt lat="44.28207" lon="3.22672">
        <ele>504</ele>
        <time>2019-05-22T20:54:54Z</time>
      </trkpt>
      <trkpt lat="44.28189" lon="3.22682">
        <ele>502</ele>
        <time>2019-05-22T20:54:57Z</time>
      </trkpt>
      <trkpt lat="44.28173" lon="3.22682">
        <ele>503</ele>
        <time>2019-05-22T20:55:00Z</time>
      </trkpt>
      <trkpt lat="44.28152" lon="3.22678">
        <ele>507</ele>
        <time>2019-05-22T20:55:04Z</time>
      </trkpt>
      <trkpt lat="44.28138" lon="3.22677">
        <ele>508</ele>
        <time>2019-05-22T20:55:06Z</time>
      </trkpt>
      <trkpt lat="44.28092" lon="3.2268">
        <ele>510</ele>
        <time>2019-05-22T20:55:15Z</time>
      </trkpt>
      <trkpt lat="44.28072" lon="3.22678">
        <ele>511</ele>
        <time>2019-05-22T20:55:18Z</time>
      </trkpt>
      <trkpt lat="44.28054" lon="3.22672">
        <ele>512</ele>
        <time>2019-05-22T20:55:21Z</time>
      </trkpt>
      <trkpt lat="44.28041" lon="3.22664">
        <ele>513</ele>
        <time>2019-05-22T20:55:24Z</time>
      </trkpt>
      <trkpt lat="44.27921" lon="3.22559">
        <ele>532</ele>
        <time>2019-05-22T20:55:49Z</time>
      </trkpt>
      <trkpt lat="44.27917" lon="3.22551">
        <ele>535</ele>
        <time>2019-05-22T20:55:50Z</time>
      </trkpt>
      <trkpt lat="44.27916" lon="3.22543">
        <ele>538</ele>
        <time>2019-05-22T20:55:51Z</time>
      </trkpt>
      <trkpt lat="44.2792" lon="3.22535">
        <ele>542</ele>
        <time>2019-05-22T20:55:53Z</time>
      </trkpt>
      <trkpt lat="44.27929" lon="3.22533">
        <ele>545</ele>
        <time>2019-05-22T20:55:54Z</time>
      </trkpt>
      <trkpt lat="44.27933" lon="3.22536">
        <ele>544</ele>
        <time>2019-05-22T20:55:55Z</time>
      </trkpt>
      <trkpt lat="44.27953" lon="3.22567">
        <ele>535</ele>
        <time>2019-05-22T20:56:00Z</time>
      </trkpt>
      <trkpt lat="44.27957" lon="3.22571">
        <ele>534</ele>
        <time>2019-05-22T20:56:01Z</time>
      </trkpt>
      <trkpt lat="44.27967" lon="3.22576">
        <ele>534</ele>
        <time>2019-05-22T20:56:03Z</time>
      </trkpt>
      <trkpt lat="44.2801" lon="3.22583">
        <ele>539</ele>
        <time>2019-05-22T20:56:11Z</time>
      </trkpt>
      <trkpt lat="44.2804" lon="3.22595">
        <ele>539</ele>
        <time>2019-05-22T20:56:16Z</time>
      </trkpt>
      <trkpt lat="44.2806" lon="3.22599">
        <ele>540</ele>
        <time>2019-05-22T20:56:20Z</time>
      </trkpt>
      <trkpt lat="44.28092" lon="3.22596">
        <ele>545</ele>
        <time>2019-05-22T20:56:26Z</time>
      </trkpt>
      <trkpt lat="44.28129" lon="3.22584">
        <ele>550</ele>
        <time>2019-05-22T20:56:32Z</time>
      </trkpt>
      <trkpt lat="44.28206" lon="3.22551">
        <ele>561</ele>
        <time>2019-05-22T20:56:47Z</time>
      </trkpt>
      <trkpt lat="44.28264" lon="3.22537">
        <ele>563</ele>
        <time>2019-05-22T20:56:57Z</time>
      </trkpt>
      <trkpt lat="44.28311" lon="3.22529">
        <ele>564</ele>
        <time>2019-05-22T20:57:06Z</time>
      </trkpt>
      <trkpt lat="44.28332" lon="3.22518">
        <ele>568</ele>
        <time>2019-05-22T20:57:10Z</time>
      </trkpt>
      <trkpt lat="44.28411" lon="3.22459">
        <ele>582</ele>
        <time>2019-05-22T20:57:26Z</time>
      </trkpt>
      <trkpt lat="44.28441" lon="3.22431">
        <ele>593</ele>
        <time>2019-05-22T20:57:32Z</time>
      </trkpt>
      <trkpt lat="44.28459" lon="3.22406">
        <ele>602</ele>
        <time>2019-05-22T20:57:37Z</time>
      </trkpt>
      <trkpt lat="44.28462" lon="3.22399">
        <ele>604</ele>
        <time>2019-05-22T20:57:38Z</time>
      </trkpt>
      <trkpt lat="44.28463" lon="3.22387">
        <ele>608</ele>
        <time>2019-05-22T20:57:39Z</time>
      </trkpt>
      <trkpt lat="44.28459" lon="3.2238">
        <ele>610</ele>
        <time>2019-05-22T20:57:40Z</time>
      </trkpt>
      <trkpt lat="44.28454" lon="3.22379">
        <ele>611</ele>
        <time>2019-05-22T20:57:41Z</time>
      </trkpt>
      <trkpt lat="44.2845" lon="3.22379">
        <ele>611</ele>
        <time>2019-05-22T20:57:42Z</time>
      </trkpt>
      <trkpt lat="44.28445" lon="3.22387">
        <ele>608</ele>
        <time>2019-05-22T20:57:43Z</time>
      </trkpt>
      <trkpt lat="44.28434" lon="3.22416">
        <ele>598</ele>
        <time>2019-05-22T20:57:47Z</time>
      </trkpt>
      <trkpt lat="44.28421" lon="3.22431">
        <ele>593</ele>
        <time>2019-05-22T20:57:50Z</time>
      </trkpt>
      <trkpt lat="44.28395" lon="3.22449">
        <ele>590</ele>
        <time>2019-05-22T20:57:56Z</time>
      </trkpt>
      <trkpt lat="44.28378" lon="3.22457">
        <ele>590</ele>
        <time>2019-05-22T20:57:59Z</time>
      </trkpt>
      <trkpt lat="44.28349" lon="3.22465">
        <ele>592</ele>
        <time>2019-05-22T20:58:04Z</time>
      </trkpt>
      <trkpt lat="44.2834" lon="3.22466">
        <ele>593</ele>
        <time>2019-05-22T20:58:06Z</time>
      </trkpt>
      <trkpt lat="44.28317" lon="3.22466">
        <ele>595</ele>
        <time>2019-05-22T20:58:10Z</time>
      </trkpt>
      <trkpt lat="44.28279" lon="3.22455">
        <ele>602</ele>
        <time>2019-05-22T20:58:17Z</time>
      </trkpt>
      <trkpt lat="44.28226" lon="3.22446">
        <ele>608</ele>
        <time>2019-05-22T20:58:26Z</time>
      </trkpt>
      <trkpt lat="44.28164" lon="3.22444">
        <ele>610</ele>
        <time>2019-05-22T20:58:37Z</time>
      </trkpt>
      <trkpt lat="44.28142" lon="3.22442">
        <ele>609</ele>
        <time>2019-05-22T20:58:41Z</time>
      </trkpt>
      <trkpt lat="44.28119" lon="3.22435">
        <ele>611</ele>
        <time>2019-05-22T20:58:45Z</time>
      </trkpt>
      <trkpt lat="44.28065" lon="3.22409">
        <ele>615</ele>
        <time>2019-05-22T20:58:55Z</time>
      </trkpt>
      <trkpt lat="44.28016" lon="3.22372">
        <ele>623</ele>
        <time>2019-05-22T20:59:05Z</time>
      </trkpt>
      <trkpt lat="44.27967" lon="3.22341">
        <ele>629</ele>
        <time>2019-05-22T20:59:15Z</time>
      </trkpt>
      <trkpt lat="44.27923" lon="3.22303">
        <ele>637</ele>
        <time>2019-05-22T20:59:24Z</time>
      </trkpt>
      <trkpt lat="44.27907" lon="3.22292">
        <ele>640</ele>
        <time>2019-05-22T20:59:27Z</time>
      </trkpt>
      <trkpt lat="44.27899" lon="3.22289">
        <ele>640</ele>
        <time>2019-05-22T20:59:29Z</time>
      </trkpt>
      <trkpt lat="44.27842" lon="3.22281">
        <ele>637</ele>
        <time>2019-05-22T20:59:39Z</time>
      </trkpt>
      <trkpt lat="44.27814" lon="3.22275">
        <ele>633</ele>
        <time>2019-05-22T20:59:44Z</time>
      </trkpt>
      <trkpt lat="44.27805" lon="3.22267">
        <ele>633</ele>
        <time>2019-05-22T20:59:46Z</time>
      </trkpt>
      <trkpt lat="44.27802" lon="3.22256">
        <ele>637</ele>
        <time>2019-05-22T20:59:47Z</time>
      </trkpt>
      <trkpt lat="44.27804" lon="3.22249">
        <ele>640</ele>
        <time>2019-05-22T20:59:48Z</time>
      </trkpt>
      <trkpt lat="44.27809" lon="3.22241">
        <ele>645</ele>
        <time>2019-05-22T20:59:50Z</time>
      </trkpt>
      <trkpt lat="44.27813" lon="3.22239">
        <ele>647</ele>
        <time>2019-05-22T20:59:50Z</time>
      </trkpt>
      <trkpt lat="44.27826" lon="3.22236">
        <ele>652</ele>
        <time>2019-05-22T20:59:53Z</time>
      </trkpt>
      <trkpt lat="44.27875" lon="3.22229">
        <ele>661</ele>
        <time>2019-05-22T21:00:02Z</time>
      </trkpt>
      <trkpt lat="44.27891" lon="3.22231">
        <ele>662</ele>
        <time>2019-05-22T21:00:04Z</time>
      </trkpt>
      <trkpt lat="44.27923" lon="3.22243">
        <ele>661</ele>
        <time>2019-05-22T21:00:10Z</time>
      </trkpt>
      <trkpt lat="44.27945" lon="3.22247">
        <ele>663</ele>
        <time>2019-05-22T21:00:14Z</time>
      </trkpt>
      <trkpt lat="44.28002" lon="3.22242">
        <ele>671</ele>
        <time>2019-05-22T21:00:24Z</time>
      </trkpt>
      <trkpt lat="44.28021" lon="3.22244">
        <ele>674</ele>
        <time>2019-05-22T21:00:28Z</time>
      </trkpt>
      <trkpt lat="44.28057" lon="3.22257">
        <ele>674</ele>
        <time>2019-05-22T21:00:34Z</time>
      </trkpt>
      <trkpt lat="44.28114" lon="3.22271">
        <ele>675</ele>
        <time>2019-05-22T21:00:45Z</time>
      </trkpt>
      <trkpt lat="44.28139" lon="3.22271">
        <ele>676</ele>
        <time>2019-05-22T21:00:49Z</time>
      </trkpt>
      <trkpt lat="44.28153" lon="3.22267">
        <ele>679</ele>
        <time>2019-05-22T21:00:52Z</time>
      </trkpt>
      <trkpt lat="44.28235" lon="3.22223">
        <ele>691</ele>
        <time>2019-05-22T21:01:07Z</time>
      </trkpt>
      <trkpt lat="44.28255" lon="3.22209">
        <ele>694</ele>
        <time>2019-05-22T21:01:11Z</time>
      </trkpt>
      <trkpt lat="44.28269" lon="3.22196">
        <ele>694</ele>
        <time>2019-05-22T21:01:14Z</time>
      </trkpt>
      <trkpt lat="44.2828" lon="3.22179">
        <ele>696</ele>
        <time>2019-05-22T21:01:17Z</time>
      </trkpt>
      <trkpt lat="44.2832" lon="3.22104">
        <ele>703</ele>
        <time>2019-05-22T21:01:29Z</time>
      </trkpt>
      <trkpt lat="44.28336" lon="3.22078">
        <ele>703</ele>
        <time>2019-05-22T21:01:34Z</time>
      </trkpt>
      <trkpt lat="44.2834" lon="3.22065">
        <ele>705</ele>
        <time>2019-05-22T21:01:35Z</time>
      </trkpt>
      <trkpt lat="44.28339" lon="3.22056">
        <ele>708</ele>
        <time>2019-05-22T21:01:37Z</time>
      </trkpt>
      <trkpt lat="44.28336" lon="3.22051">
        <ele>710</ele>
        <time>2019-05-22T21:01:37Z</time>
      </trkpt>
      <trkpt lat="44.28333" lon="3.22049">
        <ele>712</ele>
        <time>2019-05-22T21:01:38Z</time>
      </trkpt>
      <trkpt lat="44.28327" lon="3.22051">
        <ele>713</ele>
        <time>2019-05-22T21:01:39Z</time>
      </trkpt>
      <trkpt lat="44.28321" lon="3.22061">
        <ele>712</ele>
        <time>2019-05-22T21:01:41Z</time>
      </trkpt>
      <trkpt lat="44.28308" lon="3.22092">
        <ele>709</ele>
        <time>2019-05-22T21:01:45Z</time>
      </trkpt>
      <trkpt lat="44.28301" lon="3.221">
        <ele>709</ele>
        <time>2019-05-22T21:01:47Z</time>
      </trkpt>
      <trkpt lat="44.28285" lon="3.2211">
        <ele>712</ele>
        <time>2019-05-22T21:01:50Z</time>
      </trkpt>
      <trkpt lat="44.28254" lon="3.22121">
        <ele>717</ele>
        <time>2019-05-22T21:01:56Z</time>
      </trkpt>
      <trkpt lat="44.28219" lon="3.22129">
        <ele>717</ele>
        <time>2019-05-22T21:02:02Z</time>
      </trkpt>
      <trkpt lat="44.28189" lon="3.22131">
        <ele>718</ele>
        <time>2019-05-22T21:02:07Z</time>
      </trkpt>
      <trkpt lat="44.28168" lon="3.2213">
        <ele>720</ele>
        <time>2019-05-22T21:02:11Z</time>
      </trkpt>
      <trkpt lat="44.28124" lon="3.22121">
        <ele>724</ele>
        <time>2019-05-22T21:02:19Z</time>
      </trkpt>
      <trkpt lat="44.28098" lon="3.22113">
        <ele>727</ele>
        <time>2019-05-22T21:02:24Z</time>
      </trkpt>
      <trkpt lat="44.2807" lon="3.221">
        <ele>730</ele>
        <time>2019-05-22T21:02:29Z</time>
      </trkpt>
      <trkpt lat="44.28017" lon="3.22069">
        <ele>738</ele>
        <time>2019-05-22T21:02:39Z</time>
      </trkpt>
      <trkpt lat="44.27992" lon="3.22057">
        <ele>742</ele>
        <time>2019-05-22T21:02:44Z</time>
      </trkpt>
      <trkpt lat="44.27867" lon="3.22016">
        <ele>751</ele>
        <time>2019-05-22T21:03:07Z</time>
      </trkpt>
      <trkpt lat="44.27804" lon="3.22001">
        <ele>752</ele>
        <time>2019-05-22T21:03:18Z</time>
      </trkpt>
      <trkpt lat="44.2779" lon="3.21999">
        <ele>751</ele>
        <time>2019-05-22T21:03:21Z</time>
      </trkpt>
      <trkpt lat="44.27765" lon="3.22003">
        <ele>747</ele>
        <time>2019-05-22T21:03:25Z</time>
      </trkpt>
      <trkpt lat="44.27757" lon="3.22001">
        <ele>747</ele>
        <time>2019-05-22T21:03:27Z</time>
      </trkpt>
      <trkpt lat="44.2775" lon="3.21993">
        <ele>751</ele>
        <time>2019-05-22T21:03:28Z</time>
      </trkpt>
      <trkpt lat="44.27749" lon="3.21988">
        <ele>754</ele>
        <time>2019-05-22T21:03:29Z</time>
      </trkpt>
      <trkpt lat="44.27752" lon="3.21978">
        <ele>761</ele>
        <time>2019-05-22T21:03:30Z</time>
      </trkpt>
      <trkpt lat="44.27759" lon="3.21975">
        <ele>763</ele>
        <time>2019-05-22T21:03:32Z</time>
      </trkpt>
      <trkpt lat="44.27786" lon="3.21984">
        <ele>760</ele>
        <time>2019-05-22T21:03:36Z</time>
      </trkpt>
      <trkpt lat="44.27805" lon="3.21987">
        <ele>760</ele>
        <time>2019-05-22T21:03:40Z</time>
      </trkpt>
      <trkpt lat="44.27871" lon="3.21978">
        <ele>769</ele>
        <time>2019-05-22T21:03:52Z</time>
      </trkpt>
      <trkpt lat="44.28036" lon="3.21981">
        <ele>778</ele>
        <time>2019-05-22T21:04:21Z</time>
      </trkpt>
      <trkpt lat="44.28078" lon="3.21973">
        <ele>782</ele>
        <time>2019-05-22T21:04:29Z</time>
      </trkpt>
      <trkpt lat="44.28137" lon="3.21955">
        <ele>787</ele>
        <time>2019-05-22T21:04:39Z</time>
      </trkpt>
      <trkpt lat="44.28161" lon="3.2195">
        <ele>788</ele>
        <time>2019-05-22T21:04:44Z</time>
      </trkpt>
      <trkpt lat="44.28196" lon="3.21947">
        <ele>784</ele>
        <time>2019-05-22T21:04:50Z</time>
      </trkpt>
      <trkpt lat="44.28216" lon="3.21942">
        <ele>783</ele>
        <time>2019-05-22T21:04:53Z</time>
      </trkpt>
      <trkpt lat="44.28235" lon="3.21932">
        <ele>784</ele>
        <time>2019-05-22T21:04:57Z</time>
      </trkpt>
      <trkpt lat="44.28249" lon="3.21919">
        <ele>786</ele>
        <time>2019-05-22T21:05:00Z</time>
      </trkpt>
      <trkpt lat="44.28278" lon="3.21868">
        <ele>788</ele>
        <time>2019-05-22T21:05:08Z</time>
      </trkpt>
      <trkpt lat="44.28279" lon="3.21857">
        <ele>790</ele>
        <time>2019-05-22T21:05:10Z</time>
      </trkpt>
      <trkpt lat="44.28276" lon="3.21847">
        <ele>795</ele>
        <time>2019-05-22T21:05:11Z</time>
      </trkpt>
      <trkpt lat="44.28286" lon="3.21818">
        <ele>796</ele>
        <time>2019-05-22T21:05:15Z</time>
      </trkpt>
      <trkpt lat="44.28297" lon="3.21751">
        <ele>800</ele>
        <time>2019-05-22T21:05:24Z</time>
      </trkpt>
      <trkpt lat="44.28307" lon="3.21708">
        <ele>802</ele>
        <time>2019-05-22T21:05:30Z</time>
      </trkpt>
      <trkpt lat="44.28316" lon="3.21687">
        <ele>802</ele>
        <time>2019-05-22T21:05:33Z</time>
      </trkpt>
      <trkpt lat="44.28379" lon="3.21559">
        <ele>810</ele>
        <time>2019-05-22T21:05:53Z</time>
      </trkpt>
      <trkpt lat="44.28387" lon="3.21537">
        <ele>811</ele>
        <time>2019-05-22T21:05:56Z</time>
      </trkpt>
      <trkpt lat="44.28395" lon="3.21507">
        <ele>813</ele>
        <time>2019-05-22T21:06:00Z</time>
      </trkpt>
      <trkpt lat="44.28403" lon="3.2146">
        <ele>816</ele>
        <time>2019-05-22T21:06:06Z</time>
      </trkpt>
      <trkpt lat="44.2841" lon="3.21335">
        <ele>826</ele>
        <time>2019-05-22T21:06:22Z</time>
      </trkpt>
      <trkpt lat="44.28416" lon="3.21257">
        <ele>833</ele>
        <time>2019-05-22T21:06:32Z</time>
      </trkpt>
      <trkpt lat="44.2842" lon="3.21235">
        <ele>836</ele>
        <time>2019-05-22T21:06:35Z</time>
      </trkpt>
      <trkpt lat="44.2843" lon="3.21212">
        <ele>840</ele>
        <time>2019-05-22T21:06:38Z</time>
      </trkpt>
      <trkpt lat="44.28435" lon="3.21206">
        <ele>841</ele>
        <time>2019-05-22T21:06:40Z</time>
      </trkpt>
      <trkpt lat="44.28447" lon="3.21193">
        <ele>843</ele>
        <time>2019-05-22T21:06:42Z</time>
      </trkpt>
      <trkpt lat="44.28459" lon="3.21187">
        <ele>845</ele>
        <time>2019-05-22T21:06:44Z</time>
      </trkpt>
      <trkpt lat="44.2847" lon="3.21189">
        <ele>844</ele>
        <time>2019-05-22T21:06:46Z</time>
      </trkpt>
      <trkpt lat="44.28496" lon="3.21214">
        <ele>839</ele>
        <time>2019-05-22T21:06:52Z</time>
      </trkpt>
      <trkpt lat="44.28503" lon="3.21218">
        <ele>838</ele>
        <time>2019-05-22T21:06:53Z</time>
      </trkpt>
      <trkpt lat="44.28534" lon="3.21233">
        <ele>840</ele>
        <time>2019-05-22T21:06:59Z</time>
      </trkpt>
      <trkpt lat="44.28583" lon="3.21248">
        <ele>845</ele>
        <time>2019-05-22T21:07:08Z</time>
      </trkpt>
      <trkpt lat="44.28602" lon="3.21256">
        <ele>847</ele>
        <time>2019-05-22T21:07:12Z</time>
      </trkpt>
      <trkpt lat="44.28619" lon="3.21269">
        <ele>847</ele>
        <time>2019-05-22T21:07:15Z</time>
      </trkpt>
      <trkpt lat="44.28641" lon="3.2128">
        <ele>848</ele>
        <time>2019-05-22T21:07:19Z</time>
      </trkpt>
      <trkpt lat="44.2866" lon="3.21282">
        <ele>850</ele>
        <time>2019-05-22T21:07:23Z</time>
      </trkpt>
      <trkpt lat="44.28702" lon="3.21282">
        <ele>855</ele>
        <time>2019-05-22T21:07:30Z</time>
      </trkpt>
      <trkpt lat="44.28723" lon="3.21285">
        <ele>857</ele>
        <time>2019-05-22T21:07:34Z</time>
      </trkpt>
      <trkpt lat="44.28736" lon="3.21291">
        <ele>858</ele>
        <time>2019-05-22T21:07:36Z</time>
      </trkpt>
      <trkpt lat="44.28748" lon="3.21303">
        <ele>858</ele>
        <time>2019-05-22T21:07:39Z</time>
      </trkpt>
      <trkpt lat="44.28786" lon="3.21358">
        <ele>858</ele>
        <time>2019-05-22T21:07:49Z</time>
      </trkpt>
      <trkpt lat="44.28802" lon="3.21377">
        <ele>858</ele>
        <time>2019-05-22T21:07:52Z</time>
      </trkpt>
      <trkpt lat="44.28815" lon="3.21384">
        <ele>859</ele>
        <time>2019-05-22T21:07:55Z</time>
      </trkpt>
      <trkpt lat="44.28839" lon="3.2139">
        <ele>863</ele>
        <time>2019-05-22T21:07:59Z</time>
      </trkpt>
      <trkpt lat="44.28861" lon="3.21399">
        <ele>866</ele>
        <time>2019-05-22T21:08:03Z</time>
      </trkpt>
      <trkpt lat="44.28911" lon="3.21433">
        <ele>870</ele>
        <time>2019-05-22T21:08:13Z</time>
      </trkpt>
      <trkpt lat="44.28934" lon="3.21453">
        <ele>871</ele>
        <time>2019-05-22T21:08:18Z</time>
      </trkpt>
      <trkpt lat="44.28957" lon="3.21483">
        <ele>872</ele>
        <time>2019-05-22T21:08:24Z</time>
      </trkpt>
      <trkpt lat="44.29004" lon="3.21553">
        <ele>877</ele>
        <time>2019-05-22T21:08:36Z</time>
      </trkpt>
      <trkpt lat="44.29011" lon="3.2157">
        <ele>878</ele>
        <time>2019-05-22T21:08:38Z</time>
      </trkpt>
      <trkpt lat="44.29016" lon="3.21597">
        <ele>878</ele>
        <time>2019-05-22T21:08:42Z</time>
      </trkpt>
      <trkpt lat="44.29012" lon="3.21651">
        <ele>877</ele>
        <time>2019-05-22T21:08:49Z</time>
      </trkpt>
      <trkpt lat="44.29013" lon="3.21672">
        <ele>877</ele>
        <time>2019-05-22T21:08:52Z</time>
      </trkpt>
      <trkpt lat="44.29019" lon="3.2169">
        <ele>878</ele>
        <time>2019-05-22T21:08:54Z</time>
      </trkpt>
      <trkpt lat="44.29036" lon="3.21713">
        <ele>881</ele>
        <time>2019-05-22T21:08:58Z</time>
      </trkpt>
      <trkpt lat="44.29044" lon="3.21729">
        <ele>882</ele>
        <time>2019-05-22T21:09:01Z</time>
      </trkpt>
      <trkpt lat="44.29053" lon="3.21804">
        <ele>881</ele>
        <time>2019-05-22T21:09:10Z</time>
      </trkpt>
      <trkpt lat="44.2906" lon="3.21829">
        <ele>880</ele>
        <time>2019-05-22T21:09:14Z</time>
      </trkpt>
      <trkpt lat="44.29071" lon="3.21853">
        <ele>881</ele>
        <time>2019-05-22T21:09:18Z</time>
      </trkpt>
      <trkpt lat="44.29085" lon="3.21875">
        <ele>883</ele>
        <time>2019-05-22T21:09:21Z</time>
      </trkpt>
      <trkpt lat="44.29092" lon="3.21883">
        <ele>883</ele>
        <time>2019-05-22T21:09:23Z</time>
      </trkpt>
      <trkpt lat="44.2924" lon="3.22012">
        <ele>887</ele>
        <time>2019-05-22T21:09:54Z</time>
      </trkpt>
      <trkpt lat="44.29255" lon="3.22028">
        <ele>887</ele>
        <time>2019-05-22T21:09:57Z</time>
      </trkpt>
      <trkpt lat="44.2926" lon="3.22041">
        <ele>887</ele>
        <time>2019-05-22T21:09:59Z</time>
      </trkpt>
      <trkpt lat="44.29263" lon="3.22057">
        <ele>886</ele>
        <time>2019-05-22T21:10:01Z</time>
      </trkpt>
      <trkpt lat="44.29263" lon="3.22071">
        <ele>886</ele>
        <time>2019-05-22T21:10:03Z</time>
      </trkpt>
      <trkpt lat="44.29253" lon="3.22184">
        <ele>892</ele>
        <time>2019-05-22T21:10:18Z</time>
      </trkpt>
      <trkpt lat="44.29247" lon="3.22204">
        <ele>893</ele>
        <time>2019-05-22T21:10:20Z</time>
      </trkpt>
      <trkpt lat="44.29233" lon="3.22225">
        <ele>893</ele>
        <time>2019-05-22T21:10:24Z</time>
      </trkpt>
      <trkpt lat="44.29227" lon="3.22237">
        <ele>894</ele>
        <time>2019-05-22T21:10:26Z</time>
      </trkpt>
      <trkpt lat="44.29225" lon="3.22245">
        <ele>894</ele>
        <time>2019-05-22T21:10:27Z</time>
      </trkpt>
      <trkpt lat="44.29226" lon="3.22261">
        <ele>895</ele>
        <time>2019-05-22T21:10:29Z</time>
      </trkpt>
      <trkpt lat="44.29232" lon="3.2227">
        <ele>896</ele>
        <time>2019-05-22T21:10:31Z</time>
      </trkpt>
      <trkpt lat="44.29238" lon="3.22275">
        <ele>897</ele>
        <time>2019-05-22T21:10:32Z</time>
      </trkpt>
      <trkpt lat="44.29242" lon="3.22275">
        <ele>897</ele>
        <time>2019-05-22T21:10:32Z</time>
      </trkpt>
      <trkpt lat="44.29253" lon="3.22269">
        <ele>897</ele>
        <time>2019-05-22T21:10:35Z</time>
      </trkpt>
      <trkpt lat="44.29271" lon="3.22238">
        <ele>899</ele>
        <time>2019-05-22T21:10:40Z</time>
      </trkpt>
      <trkpt lat="44.2929" lon="3.22214">
        <ele>900</ele>
        <time>2019-05-22T21:10:44Z</time>
      </trkpt>
      <trkpt lat="44.29338" lon="3.22165">
        <ele>904</ele>
        <time>2019-05-22T21:10:55Z</time>
      </trkpt>
      <trkpt lat="44.29408" lon="3.22056">
        <ele>910</ele>
        <time>2019-05-22T21:11:13Z</time>
      </trkpt>
      <trkpt lat="44.29435" lon="3.2202">
        <ele>911</ele>
        <time>2019-05-22T21:11:20Z</time>
      </trkpt>
      <trkpt lat="44.29473" lon="3.21992">
        <ele>916</ele>
        <time>2019-05-22T21:11:28Z</time>
      </trkpt>
      <trkpt lat="44.29494" lon="3.2198">
        <ele>918</ele>
        <time>2019-05-22T21:11:32Z</time>
      </trkpt>
      <trkpt lat="44.29507" lon="3.21975">
        <ele>919</ele>
        <time>2019-05-22T21:11:34Z</time>
      </trkpt>
      <trkpt lat="44.29526" lon="3.21972">
        <ele>920</ele>
        <time>2019-05-22T21:11:38Z</time>
      </trkpt>
      <trkpt lat="44.29547" lon="3.21973">
        <ele>921</ele>
        <time>2019-05-22T21:11:41Z</time>
      </trkpt>
      <trkpt lat="44.29585" lon="3.21978">
        <ele>923</ele>
        <time>2019-05-22T21:11:48Z</time>
      </trkpt>
      <trkpt lat="44.29601" lon="3.21986">
        <ele>924</ele>
        <time>2019-05-22T21:11:51Z</time>
      </trkpt>
      <trkpt lat="44.29631" lon="3.22012">
        <ele>927</ele>
        <time>2019-05-22T21:11:57Z</time>
      </trkpt>
      <trkpt lat="44.29644" lon="3.22029">
        <ele>928</ele>
        <time>2019-05-22T21:12:01Z</time>
      </trkpt>
      <trkpt lat="44.29675" lon="3.2209">
        <ele>934</ele>
        <time>2019-05-22T21:12:10Z</time>
      </trkpt>
      <trkpt lat="44.29686" lon="3.221">
        <ele>934</ele>
        <time>2019-05-22T21:12:12Z</time>
      </trkpt>
      <trkpt lat="44.297" lon="3.22104">
        <ele>935</ele>
        <time>2019-05-22T21:12:15Z</time>
      </trkpt>
      <trkpt lat="44.29708" lon="3.22105">
        <ele>935</ele>
        <time>2019-05-22T21:12:16Z</time>
      </trkpt>
      <trkpt lat="44.29807" lon="3.221">
        <ele>939</ele>
        <time>2019-05-22T21:12:34Z</time>
      </trkpt>
      <trkpt lat="44.29844" lon="3.22101">
        <ele>941</ele>
        <time>2019-05-22T21:12:41Z</time>
      </trkpt>
      <trkpt lat="44.29954" lon="3.2212">
        <ele>942</ele>
        <time>2019-05-22T21:13:00Z</time>
      </trkpt>
      <trkpt lat="44.2997" lon="3.22124">
        <ele>941</ele>
        <time>2019-05-22T21:13:03Z</time>
      </trkpt>
      <trkpt lat="44.29995" lon="3.22137">
        <ele>941</ele>
        <time>2019-05-22T21:13:08Z</time>
      </trkpt>
      <trkpt lat="44.30111" lon="3.22223">
        <ele>936</ele>
        <time>2019-05-22T21:13:31Z</time>
      </trkpt>
      <trkpt lat="44.30165" lon="3.22258">
        <ele>932</ele>
        <time>2019-05-22T21:13:42Z</time>
      </trkpt>
      <trkpt lat="44.30173" lon="3.22265">
        <ele>932</ele>
        <time>2019-05-22T21:13:44Z</time>
      </trkpt>
      <trkpt lat="44.30184" lon="3.22279">
        <ele>931</ele>
        <time>2019-05-22T21:13:46Z</time>
      </trkpt>
      <trkpt lat="44.30191" lon="3.2229">
        <ele>930</ele>
        <time>2019-05-22T21:13:48Z</time>
      </trkpt>
      <trkpt lat="44.30201" lon="3.22327">
        <ele>929</ele>
        <time>2019-05-22T21:13:53Z</time>
      </trkpt>
      <trkpt lat="44.30202" lon="3.22351">
        <ele>928</ele>
        <time>2019-05-22T21:13:56Z</time>
      </trkpt>
      <trkpt lat="44.302" lon="3.22388">
        <ele>927</ele>
        <time>2019-05-22T21:14:01Z</time>
      </trkpt>
      <trkpt lat="44.30194" lon="3.22437">
        <ele>926</ele>
        <time>2019-05-22T21:14:07Z</time>
      </trkpt>
      <trkpt lat="44.30176" lon="3.22495">
        <ele>927</ele>
        <time>2019-05-22T21:14:15Z</time>
      </trkpt>
      <trkpt lat="44.30175" lon="3.22505">
        <ele>927</ele>
        <time>2019-05-22T21:14:17Z</time>
      </trkpt>
      <trkpt lat="44.30175" lon="3.22525">
        <ele>927</ele>
        <time>2019-05-22T21:14:19Z</time>
      </trkpt>
      <trkpt lat="44.30188" lon="3.22574">
        <ele>921</ele>
        <time>2019-05-22T21:14:26Z</time>
      </trkpt>
      <trkpt lat="44.30193" lon="3.22594">
        <ele>919</ele>
        <time>2019-05-22T21:14:29Z</time>
      </trkpt>
      <trkpt lat="44.30196" lon="3.22615">
        <ele>918</ele>
        <time>2019-05-22T21:14:31Z</time>
      </trkpt>
      <trkpt lat="44.30209" lon="3.22739">
        <ele>913</ele>
        <time>2019-05-22T21:14:47Z</time>
      </trkpt>
      <trkpt lat="44.30215" lon="3.22846">
        <ele>911</ele>
        <time>2019-05-22T21:15:01Z</time>
      </trkpt>
      <trkpt lat="44.30236" lon="3.22936">
        <ele>907</ele>
        <time>2019-05-22T21:15:13Z</time>
      </trkpt>
      <trkpt lat="44.30243" lon="3.22959">
        <ele>907</ele>
        <time>2019-05-22T21:15:16Z</time>
      </trkpt>
      <trkpt lat="44.30254" lon="3.22975">
        <ele>906</ele>
        <time>2019-05-22T21:15:19Z</time>
      </trkpt>
      <trkpt lat="44.30269" lon="3.22987">
        <ele>905</ele>
        <time>2019-05-22T21:15:22Z</time>
      </trkpt>
      <trkpt lat="44.30279" lon="3.22993">
        <ele>904</ele>
        <time>2019-05-22T21:15:24Z</time>
      </trkpt>
      <trkpt lat="44.30297" lon="3.22997">
        <ele>903</ele>
        <time>2019-05-22T21:15:27Z</time>
      </trkpt>
      <trkpt lat="44.30396" lon="3.22988">
        <ele>893</ele>
        <time>2019-05-22T21:15:45Z</time>
      </trkpt>
      <trkpt lat="44.3045" lon="3.22993">
        <ele>890</ele>
        <time>2019-05-22T21:15:54Z</time>
      </trkpt>
      <trkpt lat="44.30468" lon="3.22993">
        <ele>889</ele>
        <time>2019-05-22T21:15:58Z</time>
      </trkpt>
      <trkpt lat="44.30484" lon="3.22986">
        <ele>888</ele>
        <time>2019-05-22T21:16:01Z</time>
      </trkpt>
      <trkpt lat="44.30514" lon="3.22966">
        <ele>887</ele>
        <time>2019-05-22T21:16:07Z</time>
      </trkpt>
      <trkpt lat="44.30529" lon="3.22963">
        <ele>887</ele>
        <time>2019-05-22T21:16:09Z</time>
      </trkpt>
      <trkpt lat="44.30542" lon="3.22963">
        <ele>887</ele>
        <time>2019-05-22T21:16:12Z</time>
      </trkpt>
      <trkpt lat="44.3056" lon="3.2297">
        <ele>887</ele>
        <time>2019-05-22T21:16:15Z</time>
      </trkpt>
      <trkpt lat="44.30633" lon="3.23012">
        <ele>887</ele>
        <time>2019-05-22T21:16:29Z</time>
      </trkpt>
      <trkpt lat="44.30704" lon="3.23062">
        <ele>886</ele>
        <time>2019-05-22T21:16:43Z</time>
      </trkpt>
      <trkpt lat="44.30738" lon="3.23077">
        <ele>886</ele>
        <time>2019-05-22T21:16:49Z</time>
      </trkpt>
      <trkpt lat="44.30738" lon="3.23077">
        <ele>886</ele>
        <time>2019-05-22T21:16:49Z</time>
      </trkpt>
      <trkpt lat="44.30754" lon="3.23084">
        <ele>886</ele>
        <time>2019-05-22T21:16:52Z</time>
      </trkpt>
      <trkpt lat="44.30765" lon="3.23091">
        <ele>887</ele>
        <time>2019-05-22T21:16:55Z</time>
      </trkpt>
      <trkpt lat="44.30776" lon="3.23104">
        <ele>887</ele>
        <time>2019-05-22T21:16:57Z</time>
      </trkpt>
      <trkpt lat="44.3079" lon="3.23129">
        <ele>886</ele>
        <time>2019-05-22T21:17:01Z</time>
      </trkpt>
      <trkpt lat="44.30815" lon="3.2318">
        <ele>884</ele>
        <time>2019-05-22T21:17:09Z</time>
      </trkpt>
      <trkpt lat="44.30826" lon="3.23198">
        <ele>884</ele>
        <time>2019-05-22T21:17:12Z</time>
      </trkpt>
      <trkpt lat="44.30843" lon="3.23217">
        <ele>885</ele>
        <time>2019-05-22T21:17:16Z</time>
      </trkpt>
      <trkpt lat="44.30888" lon="3.23256">
        <ele>885</ele>
        <time>2019-05-22T21:17:25Z</time>
      </trkpt>
      <trkpt lat="44.30925" lon="3.23281">
        <ele>884</ele>
        <time>2019-05-22T21:17:33Z</time>
      </trkpt>
      <trkpt lat="44.3094" lon="3.23294">
        <ele>883</ele>
        <time>2019-05-22T21:17:36Z</time>
      </trkpt>
      <trkpt lat="44.30956" lon="3.23312">
        <ele>882</ele>
        <time>2019-05-22T21:17:39Z</time>
      </trkpt>
      <trkpt lat="44.30998" lon="3.2338">
        <ele>878</ele>
        <time>2019-05-22T21:17:51Z</time>
      </trkpt>
      <trkpt lat="44.31011" lon="3.23398">
        <ele>876</ele>
        <time>2019-05-22T21:17:54Z</time>
      </trkpt>
      <trkpt lat="44.31029" lon="3.23417">
        <ele>875</ele>
        <time>2019-05-22T21:17:58Z</time>
      </trkpt>
      <trkpt lat="44.31054" lon="3.23439">
        <ele>871</ele>
        <time>2019-05-22T21:18:03Z</time>
      </trkpt>
      <trkpt lat="44.31072" lon="3.23448">
        <ele>874</ele>
        <time>2019-05-22T21:18:07Z</time>
      </trkpt>
      <trkpt lat="44.31103" lon="3.23454">
        <ele>876</ele>
        <time>2019-05-22T21:18:12Z</time>
      </trkpt>
      <trkpt lat="44.31118" lon="3.23476">
        <ele>872</ele>
        <time>2019-05-22T21:18:16Z</time>
      </trkpt>
      <trkpt lat="44.31125" lon="3.23479">
        <ele>872</ele>
        <time>2019-05-22T21:18:18Z</time>
      </trkpt>
      <trkpt lat="44.31146" lon="3.23479">
        <ele>873</ele>
        <time>2019-05-22T21:18:21Z</time>
      </trkpt>
      <trkpt lat="44.31182" lon="3.23474">
        <ele>874</ele>
        <time>2019-05-22T21:18:28Z</time>
      </trkpt>
      <trkpt lat="44.3119" lon="3.23475">
        <ele>873</ele>
        <time>2019-05-22T21:18:29Z</time>
      </trkpt>
      <trkpt lat="44.31195" lon="3.2348">
        <ele>872</ele>
        <time>2019-05-22T21:18:30Z</time>
      </trkpt>
      <trkpt lat="44.31198" lon="3.23487">
        <ele>871</ele>
        <time>2019-05-22T21:18:31Z</time>
      </trkpt>
      <trkpt lat="44.31195" lon="3.23504">
        <ele>869</ele>
        <time>2019-05-22T21:18:34Z</time>
      </trkpt>
      <trkpt lat="44.31195" lon="3.23518">
        <ele>867</ele>
        <time>2019-05-22T21:18:35Z</time>
      </trkpt>
      <trkpt lat="44.31192" lon="3.23529">
        <ele>865</ele>
        <time>2019-05-22T21:18:37Z</time>
      </trkpt>
      <trkpt lat="44.31173" lon="3.23564">
        <ele>860</ele>
        <time>2019-05-22T21:18:42Z</time>
      </trkpt>
      <trkpt lat="44.31167" lon="3.23577">
        <ele>857</ele>
        <time>2019-05-22T21:18:44Z</time>
      </trkpt>
      <trkpt lat="44.31166" lon="3.23594">
        <ele>854</ele>
        <time>2019-05-22T21:18:47Z</time>
      </trkpt>
      <trkpt lat="44.31164" lon="3.23707">
        <ele>837</ele>
        <time>2019-05-22T21:19:01Z</time>
      </trkpt>
      <trkpt lat="44.31162" lon="3.23731">
        <ele>833</ele>
        <time>2019-05-22T21:19:04Z</time>
      </trkpt>
      <trkpt lat="44.31168" lon="3.23743">
        <ele>835</ele>
        <time>2019-05-22T21:19:06Z</time>
      </trkpt>
      <trkpt lat="44.31167" lon="3.23766">
        <ele>832</ele>
        <time>2019-05-22T21:19:09Z</time>
      </trkpt>
      <trkpt lat="44.31172" lon="3.23823">
        <ele>825</ele>
        <time>2019-05-22T21:19:16Z</time>
      </trkpt>
      <trkpt lat="44.31192" lon="3.23973">
        <ele>818</ele>
        <time>2019-05-22T21:19:36Z</time>
      </trkpt>
      <trkpt lat="44.31191" lon="3.23996">
        <ele>816</ele>
        <time>2019-05-22T21:19:38Z</time>
      </trkpt>
      <trkpt lat="44.31179" lon="3.24075">
        <ele>817</ele>
        <time>2019-05-22T21:19:49Z</time>
      </trkpt>
      <trkpt lat="44.31162" lon="3.24164">
        <ele>825</ele>
        <time>2019-05-22T21:20:00Z</time>
      </trkpt>
      <trkpt lat="44.31162" lon="3.24175">
        <ele>824</ele>
        <time>2019-05-22T21:20:02Z</time>
      </trkpt>
      <trkpt lat="44.31166" lon="3.24185">
        <ele>826</ele>
        <time>2019-05-22T21:20:03Z</time>
      </trkpt>
      <trkpt lat="44.31214" lon="3.2423">
        <ele>836</ele>
        <time>2019-05-22T21:20:14Z</time>
      </trkpt>
      <trkpt lat="44.31214" lon="3.2423">
        <ele>836</ele>
        <time>2019-05-22T21:20:14Z</time>
      </trkpt>
      <trkpt lat="44.31166" lon="3.24185">
        <ele>826</ele>
        <time>2019-05-22T21:20:24Z</time>
      </trkpt>
      <trkpt lat="44.31162" lon="3.24175">
        <ele>824</ele>
        <time>2019-05-22T21:20:25Z</time>
      </trkpt>
      <trkpt lat="44.31162" lon="3.24164">
        <ele>825</ele>
        <time>2019-05-22T21:20:27Z</time>
      </trkpt>
      <trkpt lat="44.31179" lon="3.24075">
        <ele>817</ele>
        <time>2019-05-22T21:20:39Z</time>
      </trkpt>
      <trkpt lat="44.31191" lon="3.23996">
        <ele>816</ele>
        <time>2019-05-22T21:20:49Z</time>
      </trkpt>
      <trkpt lat="44.31192" lon="3.23973">
        <ele>818</ele>
        <time>2019-05-22T21:20:52Z</time>
      </trkpt>
      <trkpt lat="44.31172" lon="3.23823">
        <ele>825</ele>
        <time>2019-05-22T21:21:11Z</time>
      </trkpt>
      <trkpt lat="44.31167" lon="3.23766">
        <ele>832</ele>
        <time>2019-05-22T21:21:18Z</time>
      </trkpt>
      <trkpt lat="44.31168" lon="3.23743">
        <ele>835</ele>
        <time>2019-05-22T21:21:21Z</time>
      </trkpt>
      <trkpt lat="44.31173" lon="3.23731">
        <ele>837</ele>
        <time>2019-05-22T21:21:23Z</time>
      </trkpt>
      <trkpt lat="44.31252" lon="3.23648">
        <ele>848</ele>
        <time>2019-05-22T21:21:41Z</time>
      </trkpt>
      <trkpt lat="44.31309" lon="3.23574">
        <ele>846</ele>
        <time>2019-05-22T21:21:55Z</time>
      </trkpt>
      <trkpt lat="44.31373" lon="3.23506">
        <ele>845</ele>
        <time>2019-05-22T21:22:09Z</time>
      </trkpt>
      <trkpt lat="44.31394" lon="3.23478">
        <ele>846</ele>
        <time>2019-05-22T21:22:14Z</time>
      </trkpt>
      <trkpt lat="44.31407" lon="3.23459">
        <ele>848</ele>
        <time>2019-05-22T21:22:17Z</time>
      </trkpt>
      <trkpt lat="44.31418" lon="3.23448">
        <ele>848</ele>
        <time>2019-05-22T21:22:20Z</time>
      </trkpt>
      <trkpt lat="44.31451" lon="3.23439">
        <ele>848</ele>
        <time>2019-05-22T21:22:26Z</time>
      </trkpt>
      <trkpt lat="44.31495" lon="3.23435">
        <ele>847</ele>
        <time>2019-05-22T21:22:34Z</time>
      </trkpt>
      <trkpt lat="44.31507" lon="3.23433">
        <ele>847</ele>
        <time>2019-05-22T21:22:36Z</time>
      </trkpt>
      <trkpt lat="44.31547" lon="3.23419">
        <ele>849</ele>
        <time>2019-05-22T21:22:43Z</time>
      </trkpt>
      <trkpt lat="44.3157" lon="3.23419">
        <ele>850</ele>
        <time>2019-05-22T21:22:47Z</time>
      </trkpt>
      <trkpt lat="44.31601" lon="3.23424">
        <ele>850</ele>
        <time>2019-05-22T21:22:53Z</time>
      </trkpt>
      <trkpt lat="44.31623" lon="3.23422">
        <ele>851</ele>
        <time>2019-05-22T21:22:57Z</time>
      </trkpt>
      <trkpt lat="44.31637" lon="3.23412">
        <ele>852</ele>
        <time>2019-05-22T21:22:59Z</time>
      </trkpt>
      <trkpt lat="44.31668" lon="3.2338">
        <ele>856</ele>
        <time>2019-05-22T21:23:06Z</time>
      </trkpt>
      <trkpt lat="44.31738" lon="3.2332">
        <ele>857</ele>
        <time>2019-05-22T21:23:21Z</time>
      </trkpt>
      <trkpt lat="44.3179" lon="3.23267">
        <ele>861</ele>
        <time>2019-05-22T21:23:32Z</time>
      </trkpt>
      <trkpt lat="44.31801" lon="3.23259">
        <ele>862</ele>
        <time>2019-05-22T21:23:35Z</time>
      </trkpt>
      <trkpt lat="44.31814" lon="3.23259">
        <ele>862</ele>
        <time>2019-05-22T21:23:37Z</time>
      </trkpt>
      <trkpt lat="44.31822" lon="3.23261">
        <ele>861</ele>
        <time>2019-05-22T21:23:38Z</time>
      </trkpt>
      <trkpt lat="44.31841" lon="3.23271">
        <ele>861</ele>
        <time>2019-05-22T21:23:42Z</time>
      </trkpt>
      <trkpt lat="44.31863" lon="3.23288">
        <ele>862</ele>
        <time>2019-05-22T21:23:46Z</time>
      </trkpt>
      <trkpt lat="44.31875" lon="3.23293">
        <ele>863</ele>
        <time>2019-05-22T21:23:49Z</time>
      </trkpt>
      <trkpt lat="44.31889" lon="3.23292">
        <ele>864</ele>
        <time>2019-05-22T21:23:51Z</time>
      </trkpt>
      <trkpt lat="44.31898" lon="3.23288">
        <ele>865</ele>
        <time>2019-05-22T21:23:53Z</time>
      </trkpt>
      <trkpt lat="44.31912" lon="3.23271">
        <ele>867</ele>
        <time>2019-05-22T21:23:56Z</time>
      </trkpt>
      <trkpt lat="44.31844" lon="3.23218">
        <ele>867</ele>
        <time>2019-05-22T21:24:10Z</time>
      </trkpt>
      <trkpt lat="44.31837" lon="3.2321">
        <ele>867</ele>
        <time>2019-05-22T21:24:12Z</time>
      </trkpt>
      <trkpt lat="44.31817" lon="3.23175">
        <ele>871</ele>
        <time>2019-05-22T21:24:17Z</time>
      </trkpt>
      <trkpt lat="44.31808" lon="3.23157">
        <ele>873</ele>
        <time>2019-05-22T21:24:20Z</time>
      </trkpt>
      <trkpt lat="44.31808" lon="3.23157">
        <ele>873</ele>
        <time>2019-05-22T21:24:20Z</time>
      </trkpt>
      <trkpt lat="44.31817" lon="3.23175">
        <ele>871</ele>
        <time>2019-05-22T21:24:23Z</time>
      </trkpt>
      <trkpt lat="44.31837" lon="3.2321">
        <ele>867</ele>
        <time>2019-05-22T21:24:29Z</time>
      </trkpt>
      <trkpt lat="44.31844" lon="3.23218">
        <ele>867</ele>
        <time>2019-05-22T21:24:30Z</time>
      </trkpt>
      <trkpt lat="44.31912" lon="3.23271">
        <ele>867</ele>
        <time>2019-05-22T21:24:44Z</time>
      </trkpt>
      <trkpt lat="44.31913" lon="3.23253">
        <ele>869</ele>
        <time>2019-05-22T21:24:46Z</time>
      </trkpt>
      <trkpt lat="44.31908" lon="3.23239">
        <ele>869</ele>
        <time>2019-05-22T21:24:48Z</time>
      </trkpt>
      <trkpt lat="44.3188" lon="3.23112">
        <ele>879</ele>
        <time>2019-05-22T21:25:05Z</time>
      </trkpt>
      <trkpt lat="44.31884" lon="3.23098">
        <ele>880</ele>
        <time>2019-05-22T21:25:07Z</time>
      </trkpt>
      <trkpt lat="44.31888" lon="3.23088">
        <ele>881</ele>
        <time>2019-05-22T21:25:09Z</time>
      </trkpt>
      <trkpt lat="44.31899" lon="3.2308">
        <ele>882</ele>
        <time>2019-05-22T21:25:11Z</time>
      </trkpt>
      <trkpt lat="44.31901" lon="3.23075">
        <ele>883</ele>
        <time>2019-05-22T21:25:12Z</time>
      </trkpt>
      <trkpt lat="44.31897" lon="3.23057">
        <ele>885</ele>
        <time>2019-05-22T21:25:14Z</time>
      </trkpt>
      <trkpt lat="44.31888" lon="3.23034">
        <ele>887</ele>
        <time>2019-05-22T21:25:17Z</time>
      </trkpt>
      <trkpt lat="44.3188" lon="3.23027">
        <ele>887</ele>
        <time>2019-05-22T21:25:19Z</time>
      </trkpt>
      <trkpt lat="44.31811" lon="3.22996">
        <ele>887</ele>
        <time>2019-05-22T21:25:32Z</time>
      </trkpt>
      <trkpt lat="44.31804" lon="3.22989">
        <ele>888</ele>
        <time>2019-05-22T21:25:33Z</time>
      </trkpt>
      <trkpt lat="44.31777" lon="3.22944">
        <ele>891</ele>
        <time>2019-05-22T21:25:41Z</time>
      </trkpt>
      <trkpt lat="44.31767" lon="3.22931">
        <ele>892</ele>
        <time>2019-05-22T21:25:43Z</time>
      </trkpt>
      <trkpt lat="44.31707" lon="3.22874">
        <ele>902</ele>
        <time>2019-05-22T21:25:56Z</time>
      </trkpt>
      <trkpt lat="44.31684" lon="3.22843">
        <ele>905</ele>
        <time>2019-05-22T21:26:02Z</time>
      </trkpt>
      <trkpt lat="44.3168" lon="3.2284">
        <ele>905</ele>
        <time>2019-05-22T21:26:03Z</time>
      </trkpt>
      <trkpt lat="44.31674" lon="3.2284">
        <ele>906</ele>
        <time>2019-05-22T21:26:04Z</time>
      </trkpt>
      <trkpt lat="44.31668" lon="3.22843">
        <ele>906</ele>
        <time>2019-05-22T21:26:05Z</time>
      </trkpt>
      <trkpt lat="44.31663" lon="3.22852">
        <ele>906</ele>
        <time>2019-05-22T21:26:06Z</time>
      </trkpt>
      <trkpt lat="44.31658" lon="3.22882">
        <ele>907</ele>
        <time>2019-05-22T21:26:10Z</time>
      </trkpt>
      <trkpt lat="44.31654" lon="3.22889">
        <ele>907</ele>
        <time>2019-05-22T21:26:11Z</time>
      </trkpt>
      <trkpt lat="44.3165" lon="3.22891">
        <ele>908</ele>
        <time>2019-05-22T21:26:12Z</time>
      </trkpt>
      <trkpt lat="44.31647" lon="3.22888">
        <ele>908</ele>
        <time>2019-05-22T21:26:13Z</time>
      </trkpt>
      <trkpt lat="44.31639" lon="3.2286">
        <ele>909</ele>
        <time>2019-05-22T21:26:17Z</time>
      </trkpt>
      <trkpt lat="44.31615" lon="3.22826">
        <ele>911</ele>
        <time>2019-05-22T21:26:23Z</time>
      </trkpt>
      <trkpt lat="44.31596" lon="3.22804">
        <ele>912</ele>
        <time>2019-05-22T21:26:27Z</time>
      </trkpt>
      <trkpt lat="44.31574" lon="3.22788">
        <ele>914</ele>
        <time>2019-05-22T21:26:32Z</time>
      </trkpt>
      <trkpt lat="44.31525" lon="3.22762">
        <ele>921</ele>
        <time>2019-05-22T21:26:41Z</time>
      </trkpt>
      <trkpt lat="44.31495" lon="3.22751">
        <ele>925</ele>
        <time>2019-05-22T21:26:46Z</time>
      </trkpt>
      <trkpt lat="44.31446" lon="3.22746">
        <ele>931</ele>
        <time>2019-05-22T21:26:55Z</time>
      </trkpt>
      <trkpt lat="44.31431" lon="3.22745">
        <ele>933</ele>
        <time>2019-05-22T21:26:58Z</time>
      </trkpt>
      <trkpt lat="44.31424" lon="3.22747">
        <ele>934</ele>
        <time>2019-05-22T21:26:59Z</time>
      </trkpt>
      <trkpt lat="44.31415" lon="3.22746">
        <ele>935</ele>
        <time>2019-05-22T21:27:01Z</time>
      </trkpt>
      <trkpt lat="44.31408" lon="3.2274">
        <ele>936</ele>
        <time>2019-05-22T21:27:02Z</time>
      </trkpt>
      <trkpt lat="44.31398" lon="3.22726">
        <ele>937</ele>
        <time>2019-05-22T21:27:05Z</time>
      </trkpt>
      <trkpt lat="44.31382" lon="3.22699">
        <ele>939</ele>
        <time>2019-05-22T21:27:09Z</time>
      </trkpt>
      <trkpt lat="44.31357" lon="3.22626">
        <ele>942</ele>
        <time>2019-05-22T21:27:19Z</time>
      </trkpt>
      <trkpt lat="44.31338" lon="3.22564">
        <ele>948</ele>
        <time>2019-05-22T21:27:28Z</time>
      </trkpt>
      <trkpt lat="44.31332" lon="3.22492">
        <ele>953</ele>
        <time>2019-05-22T21:27:37Z</time>
      </trkpt>
      <trkpt lat="44.31326" lon="3.22446">
        <ele>955</ele>
        <time>2019-05-22T21:27:43Z</time>
      </trkpt>
      <trkpt lat="44.31327" lon="3.22418">
        <ele>955</ele>
        <time>2019-05-22T21:27:47Z</time>
      </trkpt>
      <trkpt lat="44.31321" lon="3.22372">
        <ele>956</ele>
        <time>2019-05-22T21:27:53Z</time>
      </trkpt>
      <trkpt lat="44.31262" lon="3.22209">
        <ele>958</ele>
        <time>2019-05-22T21:28:16Z</time>
      </trkpt>
      <trkpt lat="44.3126" lon="3.22172">
        <ele>960</ele>
        <time>2019-05-22T21:28:21Z</time>
      </trkpt>
      <trkpt lat="44.31256" lon="3.22142">
        <ele>961</ele>
        <time>2019-05-22T21:28:25Z</time>
      </trkpt>
      <trkpt lat="44.31206" lon="3.22042">
        <ele>964</ele>
        <time>2019-05-22T21:28:40Z</time>
      </trkpt>
      <trkpt lat="44.31191" lon="3.21994">
        <ele>967</ele>
        <time>2019-05-22T21:28:47Z</time>
      </trkpt>
      <trkpt lat="44.31166" lon="3.2189">
        <ele>971</ele>
        <time>2019-05-22T21:29:01Z</time>
      </trkpt>
      <trkpt lat="44.31155" lon="3.21854">
        <ele>972</ele>
        <time>2019-05-22T21:29:06Z</time>
      </trkpt>
      <trkpt lat="44.31137" lon="3.21818">
        <ele>974</ele>
        <time>2019-05-22T21:29:11Z</time>
      </trkpt>
      <trkpt lat="44.31112" lon="3.21773">
        <ele>975</ele>
        <time>2019-05-22T21:29:19Z</time>
      </trkpt>
      <trkpt lat="44.3107" lon="3.21729">
        <ele>978</ele>
        <time>2019-05-22T21:29:28Z</time>
      </trkpt>
      <trkpt lat="44.31045" lon="3.21705">
        <ele>979</ele>
        <time>2019-05-22T21:29:33Z</time>
      </trkpt>
      <trkpt lat="44.30966" lon="3.21593">
        <ele>979</ele>
        <time>2019-05-22T21:29:53Z</time>
      </trkpt>
      <trkpt lat="44.30943" lon="3.21543">
        <ele>979</ele>
        <time>2019-05-22T21:30:01Z</time>
      </trkpt>
      <trkpt lat="44.30923" lon="3.21487">
        <ele>980</ele>
        <time>2019-05-22T21:30:09Z</time>
      </trkpt>
      <trkpt lat="44.30891" lon="3.21388">
        <ele>981</ele>
        <time>2019-05-22T21:30:23Z</time>
      </trkpt>
      <trkpt lat="44.30882" lon="3.21344">
        <ele>981</ele>
        <time>2019-05-22T21:30:29Z</time>
      </trkpt>
      <trkpt lat="44.30866" lon="3.21253">
        <ele>979</ele>
        <time>2019-05-22T21:30:41Z</time>
      </trkpt>
      <trkpt lat="44.30858" lon="3.2115">
        <ele>978</ele>
        <time>2019-05-22T21:30:54Z</time>
      </trkpt>
      <trkpt lat="44.30848" lon="3.2109">
        <ele>977</ele>
        <time>2019-05-22T21:31:02Z</time>
      </trkpt>
      <trkpt lat="44.30844" lon="3.2108">
        <ele>977</ele>
        <time>2019-05-22T21:31:03Z</time>
      </trkpt>
      <trkpt lat="44.30795" lon="3.21008">
        <ele>977</ele>
        <time>2019-05-22T21:31:16Z</time>
      </trkpt>
      <trkpt lat="44.30781" lon="3.20981">
        <ele>978</ele>
        <time>2019-05-22T21:31:20Z</time>
      </trkpt>
      <trkpt lat="44.30775" lon="3.20944">
        <ele>979</ele>
        <time>2019-05-22T21:31:25Z</time>
      </trkpt>
      <trkpt lat="44.30778" lon="3.20905">
        <ele>979</ele>
        <time>2019-05-22T21:31:30Z</time>
      </trkpt>
      <trkpt lat="44.30794" lon="3.20857">
        <ele>983</ele>
        <time>2019-05-22T21:31:36Z</time>
      </trkpt>
      <trkpt lat="44.3083" lon="3.20784">
        <ele>989</ele>
        <time>2019-05-22T21:31:48Z</time>
      </trkpt>
      <trkpt lat="44.30835" lon="3.20759">
        <ele>991</ele>
        <time>2019-05-22T21:31:51Z</time>
      </trkpt>
      <trkpt lat="44.30837" lon="3.20735">
        <ele>991</ele>
        <time>2019-05-22T21:31:54Z</time>
      </trkpt>
      <trkpt lat="44.30836" lon="3.20708">
        <ele>990</ele>
        <time>2019-05-22T21:31:58Z</time>
      </trkpt>
      <trkpt lat="44.30822" lon="3.20638">
        <ele>989</ele>
        <time>2019-05-22T21:32:07Z</time>
      </trkpt>
      <trkpt lat="44.30822" lon="3.20618">
        <ele>988</ele>
        <time>2019-05-22T21:32:09Z</time>
      </trkpt>
      <trkpt lat="44.3084" lon="3.20577">
        <ele>988</ele>
        <time>2019-05-22T21:32:16Z</time>
      </trkpt>
      <trkpt lat="44.30849" lon="3.20546">
        <ele>986</ele>
        <time>2019-05-22T21:32:20Z</time>
      </trkpt>
      <trkpt lat="44.30856" lon="3.20516">
        <ele>984</ele>
        <time>2019-05-22T21:32:24Z</time>
      </trkpt>
      <trkpt lat="44.30862" lon="3.20466">
        <ele>981</ele>
        <time>2019-05-22T21:32:30Z</time>
      </trkpt>
      <trkpt lat="44.30861" lon="3.20446">
        <ele>979</ele>
        <time>2019-05-22T21:32:33Z</time>
      </trkpt>
      <trkpt lat="44.30846" lon="3.20407">
        <ele>975</ele>
        <time>2019-05-22T21:32:38Z</time>
      </trkpt>
      <trkpt lat="44.30845" lon="3.20397">
        <ele>974</ele>
        <time>2019-05-22T21:32:40Z</time>
      </trkpt>
      <trkpt lat="44.30845" lon="3.20306">
        <ele>967</ele>
        <time>2019-05-22T21:32:51Z</time>
      </trkpt>
      <trkpt lat="44.30847" lon="3.2029">
        <ele>965</ele>
        <time>2019-05-22T21:32:53Z</time>
      </trkpt>
      <trkpt lat="44.30847" lon="3.2029">
        <ele>965</ele>
        <time>2019-05-22T21:32:53Z</time>
      </trkpt>
      <trkpt lat="44.3085" lon="3.20264">
        <ele>963</ele>
        <time>2019-05-22T21:32:57Z</time>
      </trkpt>
      <trkpt lat="44.30804" lon="3.20184">
        <ele>956</ele>
        <time>2019-05-22T21:33:10Z</time>
      </trkpt>
      <trkpt lat="44.30795" lon="3.20158">
        <ele>953</ele>
        <time>2019-05-22T21:33:13Z</time>
      </trkpt>
      <trkpt lat="44.30792" lon="3.20088">
        <ele>948</ele>
        <time>2019-05-22T21:33:22Z</time>
      </trkpt>
      <trkpt lat="44.30821" lon="3.20008">
        <ele>946</ele>
        <time>2019-05-22T21:33:34Z</time>
      </trkpt>
      <trkpt lat="44.3085" lon="3.19919">
        <ele>942</ele>
        <time>2019-05-22T21:33:46Z</time>
      </trkpt>
      <trkpt lat="44.30854" lon="3.19887">
        <ele>940</ele>
        <time>2019-05-22T21:33:50Z</time>
      </trkpt>
      <trkpt lat="44.30844" lon="3.19761">
        <ele>937</ele>
        <time>2019-05-22T21:34:07Z</time>
      </trkpt>
      <trkpt lat="44.30836" lon="3.19717">
        <ele>935</ele>
        <time>2019-05-22T21:34:12Z</time>
      </trkpt>
      <trkpt lat="44.30807" lon="3.19603">
        <ele>930</ele>
        <time>2019-05-22T21:34:28Z</time>
      </trkpt>
      <trkpt lat="44.30785" lon="3.19476">
        <ele>921</ele>
        <time>2019-05-22T21:34:44Z</time>
      </trkpt>
      <trkpt lat="44.30788" lon="3.19414">
        <ele>917</ele>
        <time>2019-05-22T21:34:52Z</time>
      </trkpt>
      <trkpt lat="44.30784" lon="3.19394">
        <ele>916</ele>
        <time>2019-05-22T21:34:55Z</time>
      </trkpt>
      <trkpt lat="44.3074" lon="3.19304">
        <ele>911</ele>
        <time>2019-05-22T21:35:09Z</time>
      </trkpt>
      <trkpt lat="44.30732" lon="3.19245">
        <ele>909</ele>
        <time>2019-05-22T21:35:16Z</time>
      </trkpt>
      <trkpt lat="44.30727" lon="3.19107">
        <ele>896</ele>
        <time>2019-05-22T21:35:34Z</time>
      </trkpt>
      <trkpt lat="44.30735" lon="3.19025">
        <ele>889</ele>
        <time>2019-05-22T21:35:45Z</time>
      </trkpt>
      <trkpt lat="44.30736" lon="3.18997">
        <ele>887</ele>
        <time>2019-05-22T21:35:48Z</time>
      </trkpt>
      <trkpt lat="44.3074" lon="3.18968">
        <ele>885</ele>
        <time>2019-05-22T21:35:52Z</time>
      </trkpt>
      <trkpt lat="44.3075" lon="3.18932">
        <ele>882</ele>
        <time>2019-05-22T21:35:57Z</time>
      </trkpt>
      <trkpt lat="44.30756" lon="3.18899">
        <ele>881</ele>
        <time>2019-05-22T21:36:01Z</time>
      </trkpt>
      <trkpt lat="44.30757" lon="3.18854">
        <ele>881</ele>
        <time>2019-05-22T21:36:07Z</time>
      </trkpt>
      <trkpt lat="44.30747" lon="3.18757">
        <ele>881</ele>
        <time>2019-05-22T21:36:19Z</time>
      </trkpt>
      <trkpt lat="44.30742" lon="3.18693">
        <ele>880</ele>
        <time>2019-05-22T21:36:28Z</time>
      </trkpt>
      <trkpt lat="44.30744" lon="3.18651">
        <ele>879</ele>
        <time>2019-05-22T21:36:33Z</time>
      </trkpt>
      <trkpt lat="44.30743" lon="3.18615">
        <ele>877</ele>
        <time>2019-05-22T21:36:38Z</time>
      </trkpt>
      <trkpt lat="44.30727" lon="3.1853">
        <ele>873</ele>
        <time>2019-05-22T21:36:49Z</time>
      </trkpt>
      <trkpt lat="44.30705" lon="3.18298">
        <ele>867</ele>
        <time>2019-05-22T21:37:19Z</time>
      </trkpt>
      <trkpt lat="44.30705" lon="3.18199">
        <ele>867</ele>
        <time>2019-05-22T21:37:31Z</time>
      </trkpt>
      <trkpt lat="44.30698" lon="3.18147">
        <ele>867</ele>
        <time>2019-05-22T21:37:38Z</time>
      </trkpt>
      <trkpt lat="44.30699" lon="3.18031">
        <ele>867</ele>
        <time>2019-05-22T21:37:53Z</time>
      </trkpt>
      <trkpt lat="44.30688" lon="3.18016">
        <ele>867</ele>
        <time>2019-05-22T21:37:55Z</time>
      </trkpt>
      <trkpt lat="44.30695" lon="3.18001">
        <ele>867</ele>
        <time>2019-05-22T21:37:58Z</time>
      </trkpt>
      <trkpt lat="44.30705" lon="3.17932">
        <ele>869</ele>
        <time>2019-05-22T21:38:07Z</time>
      </trkpt>
      <trkpt lat="44.30713" lon="3.17896">
        <ele>869</ele>
        <time>2019-05-22T21:38:11Z</time>
      </trkpt>
      <trkpt lat="44.30744" lon="3.17819">
        <ele>868</ele>
        <time>2019-05-22T21:38:23Z</time>
      </trkpt>
      <trkpt lat="44.30812" lon="3.17724">
        <ele>866</ele>
        <time>2019-05-22T21:38:40Z</time>
      </trkpt>
      <trkpt lat="44.30836" lon="3.17649">
        <ele>865</ele>
        <time>2019-05-22T21:38:50Z</time>
      </trkpt>
      <trkpt lat="44.30846" lon="3.1761">
        <ele>866</ele>
        <time>2019-05-22T21:38:56Z</time>
      </trkpt>
      <trkpt lat="44.30842" lon="3.1746">
        <ele>870</ele>
        <time>2019-05-22T21:39:15Z</time>
      </trkpt>
      <trkpt lat="44.30838" lon="3.17422">
        <ele>870</ele>
        <time>2019-05-22T21:39:20Z</time>
      </trkpt>
      <trkpt lat="44.30802" lon="3.17335">
        <ele>867</ele>
        <time>2019-05-22T21:39:32Z</time>
      </trkpt>
      <trkpt lat="44.3078" lon="3.17272">
        <ele>865</ele>
        <time>2019-05-22T21:39:41Z</time>
      </trkpt>
      <trkpt lat="44.30772" lon="3.17246">
        <ele>866</ele>
        <time>2019-05-22T21:39:45Z</time>
      </trkpt>
      <trkpt lat="44.30776" lon="3.17237">
        <ele>866</ele>
        <time>2019-05-22T21:39:46Z</time>
      </trkpt>
      <trkpt lat="44.30772" lon="3.17227">
        <ele>866</ele>
        <time>2019-05-22T21:39:48Z</time>
      </trkpt>
      <trkpt lat="44.30767" lon="3.17225">
        <ele>865</ele>
        <time>2019-05-22T21:39:49Z</time>
      </trkpt>
      <trkpt lat="44.30768" lon="3.17204">
        <ele>866</ele>
        <time>2019-05-22T21:39:51Z</time>
      </trkpt>
      <trkpt lat="44.3076" lon="3.1713">
        <ele>865</ele>
        <time>2019-05-22T21:40:01Z</time>
      </trkpt>
      <trkpt lat="44.3075" lon="3.17011">
        <ele>862</ele>
        <time>2019-05-22T21:40:16Z</time>
      </trkpt>
      <trkpt lat="44.30748" lon="3.16871">
        <ele>861</ele>
        <time>2019-05-22T21:40:34Z</time>
      </trkpt>
      <trkpt lat="44.30745" lon="3.16823">
        <ele>860</ele>
        <time>2019-05-22T21:40:40Z</time>
      </trkpt>
      <trkpt lat="44.30736" lon="3.16763">
        <ele>860</ele>
        <time>2019-05-22T21:40:48Z</time>
      </trkpt>
      <trkpt lat="44.30714" lon="3.16648">
        <ele>857</ele>
        <time>2019-05-22T21:41:03Z</time>
      </trkpt>
      <trkpt lat="44.30693" lon="3.16573">
        <ele>855</ele>
        <time>2019-05-22T21:41:13Z</time>
      </trkpt>
      <trkpt lat="44.30649" lon="3.16436">
        <ele>854</ele>
        <time>2019-05-22T21:41:32Z</time>
      </trkpt>
      <trkpt lat="44.30632" lon="3.16355">
        <ele>853</ele>
        <time>2019-05-22T21:41:43Z</time>
      </trkpt>
      <trkpt lat="44.30632" lon="3.16268">
        <ele>851</ele>
        <time>2019-05-22T21:41:54Z</time>
      </trkpt>
      <trkpt lat="44.30645" lon="3.16168">
        <ele>851</ele>
        <time>2019-05-22T21:42:07Z</time>
      </trkpt>
      <trkpt lat="44.30684" lon="3.1598">
        <ele>849</ele>
        <time>2019-05-22T21:42:32Z</time>
      </trkpt>
      <trkpt lat="44.30694" lon="3.15822">
        <ele>849</ele>
        <time>2019-05-22T21:42:52Z</time>
      </trkpt>
      <trkpt lat="44.30703" lon="3.15648">
        <ele>850</ele>
        <time>2019-05-22T21:43:14Z</time>
      </trkpt>
      <trkpt lat="44.30741" lon="3.15226">
        <ele>853</ele>
        <time>2019-05-22T21:44:09Z</time>
      </trkpt>
      <trkpt lat="44.30762" lon="3.15116">
        <ele>856</ele>
        <time>2019-05-22T21:44:23Z</time>
      </trkpt>
      <trkpt lat="44.30842" lon="3.14773">
        <ele>857</ele>
        <time>2019-05-22T21:45:09Z</time>
      </trkpt>
      <trkpt lat="44.30854" lon="3.14708">
        <ele>859</ele>
        <time>2019-05-22T21:45:18Z</time>
      </trkpt>
      <trkpt lat="44.30863" lon="3.14529">
        <ele>859</ele>
        <time>2019-05-22T21:45:40Z</time>
      </trkpt>
      <trkpt lat="44.30868" lon="3.1449">
        <ele>858</ele>
        <time>2019-05-22T21:45:45Z</time>
      </trkpt>
      <trkpt lat="44.30938" lon="3.14163">
        <ele>857</ele>
        <time>2019-05-22T21:46:29Z</time>
      </trkpt>
      <trkpt lat="44.30965" lon="3.14053">
        <ele>857</ele>
        <time>2019-05-22T21:46:44Z</time>
      </trkpt>
      <trkpt lat="44.30995" lon="3.13969">
        <ele>855</ele>
        <time>2019-05-22T21:46:56Z</time>
      </trkpt>
      <trkpt lat="44.31103" lon="3.13767">
        <ele>858</ele>
        <time>2019-05-22T21:47:28Z</time>
      </trkpt>
      <trkpt lat="44.31116" lon="3.13727">
        <ele>859</ele>
        <time>2019-05-22T21:47:33Z</time>
      </trkpt>
      <trkpt lat="44.31125" lon="3.13693">
        <ele>861</ele>
        <time>2019-05-22T21:47:38Z</time>
      </trkpt>
      <trkpt lat="44.31138" lon="3.13613">
        <ele>861</ele>
        <time>2019-05-22T21:47:48Z</time>
      </trkpt>
      <trkpt lat="44.31153" lon="3.13494">
        <ele>856</ele>
        <time>2019-05-22T21:48:04Z</time>
      </trkpt>
      <trkpt lat="44.31171" lon="3.13381">
        <ele>848</ele>
        <time>2019-05-22T21:48:19Z</time>
      </trkpt>
      <trkpt lat="44.31212" lon="3.13254">
        <ele>840</ele>
        <time>2019-05-22T21:48:36Z</time>
      </trkpt>
      <trkpt lat="44.3123" lon="3.1319">
        <ele>836</ele>
        <time>2019-05-22T21:48:45Z</time>
      </trkpt>
      <trkpt lat="44.3124" lon="3.13113">
        <ele>831</ele>
        <time>2019-05-22T21:48:55Z</time>
      </trkpt>
      <trkpt lat="44.31245" lon="3.13032">
        <ele>827</ele>
        <time>2019-05-22T21:49:05Z</time>
      </trkpt>
      <trkpt lat="44.31243" lon="3.12728">
        <ele>822</ele>
        <time>2019-05-22T21:49:44Z</time>
      </trkpt>
      <trkpt lat="44.31246" lon="3.12673">
        <ele>821</ele>
        <time>2019-05-22T21:49:51Z</time>
      </trkpt>
      <trkpt lat="44.31253" lon="3.12628">
        <ele>820</ele>
        <time>2019-05-22T21:49:57Z</time>
      </trkpt>
      <trkpt lat="44.31253" lon="3.12628">
        <ele>820</ele>
        <time>2019-05-22T21:49:57Z</time>
      </trkpt>
      <trkpt lat="44.31307" lon="3.12413">
        <ele>821</ele>
        <time>2019-05-22T21:50:26Z</time>
      </trkpt>
      <trkpt lat="44.3134" lon="3.12245">
        <ele>819</ele>
        <time>2019-05-22T21:50:48Z</time>
      </trkpt>
      <trkpt lat="44.31362" lon="3.12157">
        <ele>817</ele>
        <time>2019-05-22T21:51:00Z</time>
      </trkpt>
      <trkpt lat="44.31401" lon="3.12036">
        <ele>811</ele>
        <time>2019-05-22T21:51:17Z</time>
      </trkpt>
      <trkpt lat="44.31416" lon="3.11986">
        <ele>809</ele>
        <time>2019-05-22T21:51:24Z</time>
      </trkpt>
      <trkpt lat="44.3142" lon="3.11937">
        <ele>809</ele>
        <time>2019-05-22T21:51:30Z</time>
      </trkpt>
      <trkpt lat="44.31418" lon="3.11878">
        <ele>810</ele>
        <time>2019-05-22T21:51:38Z</time>
      </trkpt>
      <trkpt lat="44.31408" lon="3.11836">
        <ele>810</ele>
        <time>2019-05-22T21:51:43Z</time>
      </trkpt>
      <trkpt lat="44.31371" lon="3.11765">
        <ele>811</ele>
        <time>2019-05-22T21:51:54Z</time>
      </trkpt>
      <trkpt lat="44.31362" lon="3.11742">
        <ele>810</ele>
        <time>2019-05-22T21:51:58Z</time>
      </trkpt>
      <trkpt lat="44.31356" lon="3.117">
        <ele>810</ele>
        <time>2019-05-22T21:52:03Z</time>
      </trkpt>
      <trkpt lat="44.31361" lon="3.11654">
        <ele>811</ele>
        <time>2019-05-22T21:52:09Z</time>
      </trkpt>
      <trkpt lat="44.31371" lon="3.11595">
        <ele>810</ele>
        <time>2019-05-22T21:52:17Z</time>
      </trkpt>
      <trkpt lat="44.31396" lon="3.11513">
        <ele>807</ele>
        <time>2019-05-22T21:52:28Z</time>
      </trkpt>
      <trkpt lat="44.31466" lon="3.11355">
        <ele>799</ele>
        <time>2019-05-22T21:52:52Z</time>
      </trkpt>
      <trkpt lat="44.31479" lon="3.11318">
        <ele>797</ele>
        <time>2019-05-22T21:52:57Z</time>
      </trkpt>
      <trkpt lat="44.31498" lon="3.11237">
        <ele>792</ele>
        <time>2019-05-22T21:53:08Z</time>
      </trkpt>
      <trkpt lat="44.31537" lon="3.11164">
        <ele>789</ele>
        <time>2019-05-22T21:53:20Z</time>
      </trkpt>
      <trkpt lat="44.31547" lon="3.11131">
        <ele>788</ele>
        <time>2019-05-22T21:53:24Z</time>
      </trkpt>
      <trkpt lat="44.31547" lon="3.11093">
        <ele>788</ele>
        <time>2019-05-22T21:53:29Z</time>
      </trkpt>
      <trkpt lat="44.3154" lon="3.11042">
        <ele>790</ele>
        <time>2019-05-22T21:53:36Z</time>
      </trkpt>
      <trkpt lat="44.31529" lon="3.10923">
        <ele>790</ele>
        <time>2019-05-22T21:53:51Z</time>
      </trkpt>
      <trkpt lat="44.31528" lon="3.10837">
        <ele>785</ele>
        <time>2019-05-22T21:54:02Z</time>
      </trkpt>
      <trkpt lat="44.31525" lon="3.10786">
        <ele>783</ele>
        <time>2019-05-22T21:54:08Z</time>
      </trkpt>
      <trkpt lat="44.31515" lon="3.10747">
        <ele>781</ele>
        <time>2019-05-22T21:54:14Z</time>
      </trkpt>
      <trkpt lat="44.31506" lon="3.10722">
        <ele>779</ele>
        <time>2019-05-22T21:54:17Z</time>
      </trkpt>
      <trkpt lat="44.31467" lon="3.10651">
        <ele>780</ele>
        <time>2019-05-22T21:54:29Z</time>
      </trkpt>
      <trkpt lat="44.31427" lon="3.10583">
        <ele>775</ele>
        <time>2019-05-22T21:54:40Z</time>
      </trkpt>
      <trkpt lat="44.314" lon="3.10557">
        <ele>777</ele>
        <time>2019-05-22T21:54:46Z</time>
      </trkpt>
      <trkpt lat="44.31335" lon="3.10516">
        <ele>774</ele>
        <time>2019-05-22T21:54:58Z</time>
      </trkpt>
      <trkpt lat="44.31309" lon="3.10491">
        <ele>773</ele>
        <time>2019-05-22T21:55:04Z</time>
      </trkpt>
      <trkpt lat="44.3129" lon="3.10457">
        <ele>772</ele>
        <time>2019-05-22T21:55:09Z</time>
      </trkpt>
      <trkpt lat="44.31281" lon="3.10424">
        <ele>770</ele>
        <time>2019-05-22T21:55:14Z</time>
      </trkpt>
      <trkpt lat="44.31279" lon="3.10407">
        <ele>770</ele>
        <time>2019-05-22T21:55:16Z</time>
      </trkpt>
      <trkpt lat="44.3128" lon="3.10386">
        <ele>770</ele>
        <time>2019-05-22T21:55:19Z</time>
      </trkpt>
      <trkpt lat="44.31281" lon="3.10367">
        <ele>769</ele>
        <time>2019-05-22T21:55:21Z</time>
      </trkpt>
      <trkpt lat="44.31286" lon="3.10337">
        <ele>770</ele>
        <time>2019-05-22T21:55:25Z</time>
      </trkpt>
      <trkpt lat="44.31308" lon="3.10269">
        <ele>768</ele>
        <time>2019-05-22T21:55:35Z</time>
      </trkpt>
      <trkpt lat="44.31318" lon="3.10225">
        <ele>767</ele>
        <time>2019-05-22T21:55:40Z</time>
      </trkpt>
      <trkpt lat="44.31322" lon="3.10197">
        <ele>767</ele>
        <time>2019-05-22T21:55:44Z</time>
      </trkpt>
      <trkpt lat="44.31325" lon="3.1016">
        <ele>767</ele>
        <time>2019-05-22T21:55:49Z</time>
      </trkpt>
      <trkpt lat="44.31325" lon="3.10023">
        <ele>765</ele>
        <time>2019-05-22T21:56:06Z</time>
      </trkpt>
      <trkpt lat="44.31328" lon="3.09964">
        <ele>762</ele>
        <time>2019-05-22T21:56:14Z</time>
      </trkpt>
      <trkpt lat="44.31333" lon="3.09929">
        <ele>760</ele>
        <time>2019-05-22T21:56:18Z</time>
      </trkpt>
      <trkpt lat="44.31343" lon="3.09891">
        <ele>761</ele>
        <time>2019-05-22T21:56:24Z</time>
      </trkpt>
      <trkpt lat="44.31366" lon="3.09853">
        <ele>760</ele>
        <time>2019-05-22T21:56:30Z</time>
      </trkpt>
      <trkpt lat="44.31391" lon="3.09815">
        <ele>758</ele>
        <time>2019-05-22T21:56:36Z</time>
      </trkpt>
      <trkpt lat="44.31524" lon="3.09654">
        <ele>748</ele>
        <time>2019-05-22T21:57:08Z</time>
      </trkpt>
      <trkpt lat="44.31673" lon="3.09461">
        <ele>746</ele>
        <time>2019-05-22T21:57:44Z</time>
      </trkpt>
      <trkpt lat="44.31702" lon="3.09425">
        <ele>744</ele>
        <time>2019-05-22T21:57:51Z</time>
      </trkpt>
      <trkpt lat="44.31726" lon="3.09389">
        <ele>743</ele>
        <time>2019-05-22T21:57:57Z</time>
      </trkpt>
      <trkpt lat="44.31755" lon="3.09331">
        <ele>743</ele>
        <time>2019-05-22T21:58:06Z</time>
      </trkpt>
      <trkpt lat="44.31883" lon="3.09142">
        <ele>740</ele>
        <time>2019-05-22T21:58:39Z</time>
      </trkpt>
      <trkpt lat="44.319" lon="3.09109">
        <ele>739</ele>
        <time>2019-05-22T21:58:44Z</time>
      </trkpt>
      <trkpt lat="44.31924" lon="3.09052">
        <ele>737</ele>
        <time>2019-05-22T21:58:53Z</time>
      </trkpt>
      <trkpt lat="44.31973" lon="3.08917">
        <ele>734</ele>
        <time>2019-05-22T21:59:12Z</time>
      </trkpt>
      <trkpt lat="44.31993" lon="3.08872">
        <ele>735</ele>
        <time>2019-05-22T21:59:19Z</time>
      </trkpt>
      <trkpt lat="44.32014" lon="3.08834">
        <ele>735</ele>
        <time>2019-05-22T21:59:25Z</time>
      </trkpt>
      <trkpt lat="44.3205" lon="3.08781">
        <ele>735</ele>
        <time>2019-05-22T21:59:34Z</time>
      </trkpt>
      <trkpt lat="44.32087" lon="3.08719">
        <ele>734</ele>
        <time>2019-05-22T21:59:45Z</time>
      </trkpt>
      <trkpt lat="44.32111" lon="3.08635">
        <ele>734</ele>
        <time>2019-05-22T21:59:56Z</time>
      </trkpt>
      <trkpt lat="44.32118" lon="3.08598">
        <ele>734</ele>
        <time>2019-05-22T22:00:01Z</time>
      </trkpt>
      <trkpt lat="44.32124" lon="3.08461">
        <ele>730</ele>
        <time>2019-05-22T22:00:18Z</time>
      </trkpt>
      <trkpt lat="44.32154" lon="3.08057">
        <ele>726</ele>
        <time>2019-05-22T22:01:10Z</time>
      </trkpt>
      <trkpt lat="44.32151" lon="3.07977">
        <ele>726</ele>
        <time>2019-05-22T22:01:20Z</time>
      </trkpt>
      <trkpt lat="44.32121" lon="3.07894">
        <ele>727</ele>
        <time>2019-05-22T22:01:32Z</time>
      </trkpt>
      <trkpt lat="44.32108" lon="3.07853">
        <ele>728</ele>
        <time>2019-05-22T22:01:38Z</time>
      </trkpt>
      <trkpt lat="44.32103" lon="3.07812">
        <ele>728</ele>
        <time>2019-05-22T22:01:43Z</time>
      </trkpt>
      <trkpt lat="44.32103" lon="3.07514">
        <ele>728</ele>
        <time>2019-05-22T22:02:21Z</time>
      </trkpt>
      <trkpt lat="44.32098" lon="3.07502">
        <ele>728</ele>
        <time>2019-05-22T22:02:23Z</time>
      </trkpt>
      <trkpt lat="44.32068" lon="3.07474">
        <ele>729</ele>
        <time>2019-05-22T22:02:29Z</time>
      </trkpt>
      <trkpt lat="44.32066" lon="3.07462">
        <ele>729</ele>
        <time>2019-05-22T22:02:31Z</time>
      </trkpt>
      <trkpt lat="44.32065" lon="3.07449">
        <ele>728</ele>
        <time>2019-05-22T22:02:32Z</time>
      </trkpt>
      <trkpt lat="44.3207" lon="3.07435">
        <ele>728</ele>
        <time>2019-05-22T22:02:34Z</time>
      </trkpt>
      <trkpt lat="44.32036" lon="3.07468">
        <ele>728</ele>
        <time>2019-05-22T22:02:42Z</time>
      </trkpt>
      <trkpt lat="44.32036" lon="3.07468">
        <ele>728</ele>
        <time>2019-05-22T22:02:42Z</time>
      </trkpt>
      <trkpt lat="44.3202" lon="3.07474">
        <ele>728</ele>
        <time>2019-05-22T22:02:45Z</time>
      </trkpt>
      <trkpt lat="44.32002" lon="3.07471">
        <ele>728</ele>
        <time>2019-05-22T22:02:48Z</time>
      </trkpt>
      <trkpt lat="44.31923" lon="3.0741">
        <ele>725</ele>
        <time>2019-05-22T22:03:04Z</time>
      </trkpt>
      <trkpt lat="44.3186" lon="3.07381">
        <ele>723</ele>
        <time>2019-05-22T22:03:16Z</time>
      </trkpt>
      <trkpt lat="44.31844" lon="3.07377">
        <ele>722</ele>
        <time>2019-05-22T22:03:19Z</time>
      </trkpt>
      <trkpt lat="44.31824" lon="3.07374">
        <ele>721</ele>
        <time>2019-05-22T22:03:22Z</time>
      </trkpt>
      <trkpt lat="44.31721" lon="3.0737">
        <ele>712</ele>
        <time>2019-05-22T22:03:41Z</time>
      </trkpt>
      <trkpt lat="44.3165" lon="3.07364">
        <ele>707</ele>
        <time>2019-05-22T22:03:53Z</time>
      </trkpt>
      <trkpt lat="44.31594" lon="3.07353">
        <ele>705</ele>
        <time>2019-05-22T22:04:03Z</time>
      </trkpt>
      <trkpt lat="44.31357" lon="3.07293">
        <ele>699</ele>
        <time>2019-05-22T22:04:46Z</time>
      </trkpt>
      <trkpt lat="44.31325" lon="3.07282">
        <ele>698</ele>
        <time>2019-05-22T22:04:52Z</time>
      </trkpt>
      <trkpt lat="44.31298" lon="3.07269">
        <ele>697</ele>
        <time>2019-05-22T22:04:57Z</time>
      </trkpt>
      <trkpt lat="44.3128" lon="3.07258">
        <ele>696</ele>
        <time>2019-05-22T22:05:01Z</time>
      </trkpt>
      <trkpt lat="44.31256" lon="3.07238">
        <ele>694</ele>
        <time>2019-05-22T22:05:06Z</time>
      </trkpt>
      <trkpt lat="44.31227" lon="3.07202">
        <ele>693</ele>
        <time>2019-05-22T22:05:13Z</time>
      </trkpt>
      <trkpt lat="44.31205" lon="3.07165">
        <ele>693</ele>
        <time>2019-05-22T22:05:19Z</time>
      </trkpt>
      <trkpt lat="44.31191" lon="3.07131">
        <ele>693</ele>
        <time>2019-05-22T22:05:24Z</time>
      </trkpt>
      <trkpt lat="44.3118" lon="3.07092">
        <ele>692</ele>
        <time>2019-05-22T22:05:29Z</time>
      </trkpt>
      <trkpt lat="44.31174" lon="3.07062">
        <ele>692</ele>
        <time>2019-05-22T22:05:33Z</time>
      </trkpt>
      <trkpt lat="44.31169" lon="3.07029">
        <ele>691</ele>
        <time>2019-05-22T22:05:37Z</time>
      </trkpt>
      <trkpt lat="44.3116" lon="3.06939">
        <ele>693</ele>
        <time>2019-05-22T22:05:49Z</time>
      </trkpt>
      <trkpt lat="44.31151" lon="3.06876">
        <ele>693</ele>
        <time>2019-05-22T22:05:57Z</time>
      </trkpt>
      <trkpt lat="44.31141" lon="3.06834">
        <ele>693</ele>
        <time>2019-05-22T22:06:03Z</time>
      </trkpt>
      <trkpt lat="44.31134" lon="3.06812">
        <ele>693</ele>
        <time>2019-05-22T22:06:06Z</time>
      </trkpt>
      <trkpt lat="44.31117" lon="3.06773">
        <ele>693</ele>
        <time>2019-05-22T22:06:12Z</time>
      </trkpt>
      <trkpt lat="44.31095" lon="3.06738">
        <ele>693</ele>
        <time>2019-05-22T22:06:17Z</time>
      </trkpt>
      <trkpt lat="44.31084" lon="3.06725">
        <ele>693</ele>
        <time>2019-05-22T22:06:20Z</time>
      </trkpt>
      <trkpt lat="44.31061" lon="3.06701">
        <ele>693</ele>
        <time>2019-05-22T22:06:25Z</time>
      </trkpt>
      <trkpt lat="44.31047" lon="3.0669">
        <ele>693</ele>
        <time>2019-05-22T22:06:28Z</time>
      </trkpt>
      <trkpt lat="44.3102" lon="3.06674">
        <ele>693</ele>
        <time>2019-05-22T22:06:33Z</time>
      </trkpt>
      <trkpt lat="44.30988" lon="3.06663">
        <ele>692</ele>
        <time>2019-05-22T22:06:39Z</time>
      </trkpt>
      <trkpt lat="44.3097" lon="3.0666">
        <ele>691</ele>
        <time>2019-05-22T22:06:42Z</time>
      </trkpt>
      <trkpt lat="44.3094" lon="3.06661">
        <ele>691</ele>
        <time>2019-05-22T22:06:48Z</time>
      </trkpt>
      <trkpt lat="44.30909" lon="3.06668">
        <ele>690</ele>
        <time>2019-05-22T22:06:53Z</time>
      </trkpt>
      <trkpt lat="44.3088" lon="3.0668">
        <ele>692</ele>
        <time>2019-05-22T22:06:59Z</time>
      </trkpt>
      <trkpt lat="44.30855" lon="3.06694">
        <ele>693</ele>
        <time>2019-05-22T22:07:03Z</time>
      </trkpt>
      <trkpt lat="44.30747" lon="3.06761">
        <ele>693</ele>
        <time>2019-05-22T22:07:24Z</time>
      </trkpt>
      <trkpt lat="44.30704" lon="3.06791">
        <ele>697</ele>
        <time>2019-05-22T22:07:33Z</time>
      </trkpt>
      <trkpt lat="44.30472" lon="3.06978">
        <ele>707</ele>
        <time>2019-05-22T22:08:21Z</time>
      </trkpt>
      <trkpt lat="44.30451" lon="3.06997">
        <ele>707</ele>
        <time>2019-05-22T22:08:25Z</time>
      </trkpt>
      <trkpt lat="44.30426" lon="3.07022">
        <ele>709</ele>
        <time>2019-05-22T22:08:31Z</time>
      </trkpt>
      <trkpt lat="44.3037" lon="3.07089">
        <ele>713</ele>
        <time>2019-05-22T22:08:44Z</time>
      </trkpt>
      <trkpt lat="44.30354" lon="3.07107">
        <ele>714</ele>
        <time>2019-05-22T22:08:47Z</time>
      </trkpt>
      <trkpt lat="44.30336" lon="3.07122">
        <ele>713</ele>
        <time>2019-05-22T22:08:51Z</time>
      </trkpt>
      <trkpt lat="44.30284" lon="3.0716">
        <ele>712</ele>
        <time>2019-05-22T22:09:01Z</time>
      </trkpt>
      <trkpt lat="44.30253" lon="3.07176">
        <ele>708</ele>
        <time>2019-05-22T22:09:07Z</time>
      </trkpt>
      <trkpt lat="44.30224" lon="3.07182">
        <ele>710</ele>
        <time>2019-05-22T22:09:13Z</time>
      </trkpt>
      <trkpt lat="44.30185" lon="3.0718">
        <ele>711</ele>
        <time>2019-05-22T22:09:20Z</time>
      </trkpt>
      <trkpt lat="44.30108" lon="3.07168">
        <ele>710</ele>
        <time>2019-05-22T22:09:33Z</time>
      </trkpt>
      <trkpt lat="44.30093" lon="3.07165">
        <ele>710</ele>
        <time>2019-05-22T22:09:36Z</time>
      </trkpt>
      <trkpt lat="44.30069" lon="3.07157">
        <ele>713</ele>
        <time>2019-05-22T22:09:40Z</time>
      </trkpt>
      <trkpt lat="44.30003" lon="3.07121">
        <ele>718</ele>
        <time>2019-05-22T22:09:53Z</time>
      </trkpt>
      <trkpt lat="44.29967" lon="3.07108">
        <ele>717</ele>
        <time>2019-05-22T22:10:00Z</time>
      </trkpt>
      <trkpt lat="44.2992" lon="3.071">
        <ele>719</ele>
        <time>2019-05-22T22:10:08Z</time>
      </trkpt>
      <trkpt lat="44.29884" lon="3.07098">
        <ele>717</ele>
        <time>2019-05-22T22:10:14Z</time>
      </trkpt>
      <trkpt lat="44.29855" lon="3.07102">
        <ele>718</ele>
        <time>2019-05-22T22:10:20Z</time>
      </trkpt>
      <trkpt lat="44.29785" lon="3.07125">
        <ele>720</ele>
        <time>2019-05-22T22:10:32Z</time>
      </trkpt>
      <trkpt lat="44.29751" lon="3.07145">
        <ele>720</ele>
        <time>2019-05-22T22:10:39Z</time>
      </trkpt>
      <trkpt lat="44.29733" lon="3.07159">
        <ele>720</ele>
        <time>2019-05-22T22:10:43Z</time>
      </trkpt>
      <trkpt lat="44.29676" lon="3.07211">
        <ele>722</ele>
        <time>2019-05-22T22:10:55Z</time>
      </trkpt>
      <trkpt lat="44.29607" lon="3.07277">
        <ele>727</ele>
        <time>2019-05-22T22:11:10Z</time>
      </trkpt>
      <trkpt lat="44.29572" lon="3.07306">
        <ele>727</ele>
        <time>2019-05-22T22:11:17Z</time>
      </trkpt>
      <trkpt lat="44.29517" lon="3.07346">
        <ele>727</ele>
        <time>2019-05-22T22:11:28Z</time>
      </trkpt>
      <trkpt lat="44.29477" lon="3.07371">
        <ele>731</ele>
        <time>2019-05-22T22:11:36Z</time>
      </trkpt>
      <trkpt lat="44.29449" lon="3.0738">
        <ele>733</ele>
        <time>2019-05-22T22:11:41Z</time>
      </trkpt>
      <trkpt lat="44.29426" lon="3.07385">
        <ele>733</ele>
        <time>2019-05-22T22:11:45Z</time>
      </trkpt>
      <trkpt lat="44.29337" lon="3.07393">
        <ele>730</ele>
        <time>2019-05-22T22:12:01Z</time>
      </trkpt>
      <trkpt lat="44.2925" lon="3.07425">
        <ele>729</ele>
        <time>2019-05-22T22:12:17Z</time>
      </trkpt>
      <trkpt lat="44.29207" lon="3.07434">
        <ele>734</ele>
        <time>2019-05-22T22:12:25Z</time>
      </trkpt>
      <trkpt lat="44.29085" lon="3.07443">
        <ele>741</ele>
        <time>2019-05-22T22:12:46Z</time>
      </trkpt>
      <trkpt lat="44.29033" lon="3.07454">
        <ele>741</ele>
        <time>2019-05-22T22:12:56Z</time>
      </trkpt>
      <trkpt lat="44.29015" lon="3.0746">
        <ele>740</ele>
        <time>2019-05-22T22:12:59Z</time>
      </trkpt>
      <trkpt lat="44.28991" lon="3.07472">
        <ele>741</ele>
        <time>2019-05-22T22:13:04Z</time>
      </trkpt>
      <trkpt lat="44.28856" lon="3.07565">
        <ele>738</ele>
        <time>2019-05-22T22:13:30Z</time>
      </trkpt>
      <trkpt lat="44.28836" lon="3.07576">
        <ele>735</ele>
        <time>2019-05-22T22:13:34Z</time>
      </trkpt>
      <trkpt lat="44.28808" lon="3.07587">
        <ele>736</ele>
        <time>2019-05-22T22:13:39Z</time>
      </trkpt>
      <trkpt lat="44.28774" lon="3.07594">
        <ele>739</ele>
        <time>2019-05-22T22:13:45Z</time>
      </trkpt>
      <trkpt lat="44.28734" lon="3.07596">
        <ele>743</ele>
        <time>2019-05-22T22:13:53Z</time>
      </trkpt>
      <trkpt lat="44.28631" lon="3.07586">
        <ele>747</ele>
        <time>2019-05-22T22:14:11Z</time>
      </trkpt>
      <trkpt lat="44.28608" lon="3.07585">
        <ele>746</ele>
        <time>2019-05-22T22:14:15Z</time>
      </trkpt>
      <trkpt lat="44.28581" lon="3.07587">
        <ele>748</ele>
        <time>2019-05-22T22:14:20Z</time>
      </trkpt>
      <trkpt lat="44.28435" lon="3.07621">
        <ele>757</ele>
        <time>2019-05-22T22:14:46Z</time>
      </trkpt>
      <trkpt lat="44.28414" lon="3.07625">
        <ele>756</ele>
        <time>2019-05-22T22:14:50Z</time>
      </trkpt>
      <trkpt lat="44.28377" lon="3.07625">
        <ele>755</ele>
        <time>2019-05-22T22:14:56Z</time>
      </trkpt>
      <trkpt lat="44.28356" lon="3.07622">
        <ele>755</ele>
        <time>2019-05-22T22:15:00Z</time>
      </trkpt>
      <trkpt lat="44.28319" lon="3.0761">
        <ele>758</ele>
        <time>2019-05-22T22:15:07Z</time>
      </trkpt>
      <trkpt lat="44.283" lon="3.07602">
        <ele>761</ele>
        <time>2019-05-22T22:15:11Z</time>
      </trkpt>
      <trkpt lat="44.28263" lon="3.07579">
        <ele>764</ele>
        <time>2019-05-22T22:15:18Z</time>
      </trkpt>
      <trkpt lat="44.28105" lon="3.07452">
        <ele>776</ele>
        <time>2019-05-22T22:15:50Z</time>
      </trkpt>
      <trkpt lat="44.28046" lon="3.07423">
        <ele>770</ele>
        <time>2019-05-22T22:16:01Z</time>
      </trkpt>
      <trkpt lat="44.28019" lon="3.07418">
        <ele>769</ele>
        <time>2019-05-22T22:16:06Z</time>
      </trkpt>
      <trkpt lat="44.27962" lon="3.07416">
        <ele>770</ele>
        <time>2019-05-22T22:16:16Z</time>
      </trkpt>
      <trkpt lat="44.27935" lon="3.07414">
        <ele>770</ele>
        <time>2019-05-22T22:16:21Z</time>
      </trkpt>
      <trkpt lat="44.27911" lon="3.07406">
        <ele>771</ele>
        <time>2019-05-22T22:16:26Z</time>
      </trkpt>
      <trkpt lat="44.27889" lon="3.07393">
        <ele>774</ele>
        <time>2019-05-22T22:16:30Z</time>
      </trkpt>
      <trkpt lat="44.2787" lon="3.07375">
        <ele>776</ele>
        <time>2019-05-22T22:16:34Z</time>
      </trkpt>
      <trkpt lat="44.27852" lon="3.0735">
        <ele>777</ele>
        <time>2019-05-22T22:16:38Z</time>
      </trkpt>
      <trkpt lat="44.27776" lon="3.07209">
        <ele>783</ele>
        <time>2019-05-22T22:17:01Z</time>
      </trkpt>
      <trkpt lat="44.27741" lon="3.07156">
        <ele>783</ele>
        <time>2019-05-22T22:17:10Z</time>
      </trkpt>
      <trkpt lat="44.27689" lon="3.07091">
        <ele>786</ele>
        <time>2019-05-22T22:17:22Z</time>
      </trkpt>
      <trkpt lat="44.27655" lon="3.07053">
        <ele>785</ele>
        <time>2019-05-22T22:17:30Z</time>
      </trkpt>
      <trkpt lat="44.27633" lon="3.07034">
        <ele>784</ele>
        <time>2019-05-22T22:17:35Z</time>
      </trkpt>
      <trkpt lat="44.27621" lon="3.07026">
        <ele>785</ele>
        <time>2019-05-22T22:17:37Z</time>
      </trkpt>
      <trkpt lat="44.27599" lon="3.07017">
        <ele>786</ele>
        <time>2019-05-22T22:17:41Z</time>
      </trkpt>
      <trkpt lat="44.27588" lon="3.07016">
        <ele>787</ele>
        <time>2019-05-22T22:17:43Z</time>
      </trkpt>
      <trkpt lat="44.27568" lon="3.07017">
        <ele>789</ele>
        <time>2019-05-22T22:17:47Z</time>
      </trkpt>
      <trkpt lat="44.27545" lon="3.07026">
        <ele>792</ele>
        <time>2019-05-22T22:17:51Z</time>
      </trkpt>
      <trkpt lat="44.27516" lon="3.07044">
        <ele>797</ele>
        <time>2019-05-22T22:17:57Z</time>
      </trkpt>
      <trkpt lat="44.27398" lon="3.07137">
        <ele>814</ele>
        <time>2019-05-22T22:18:21Z</time>
      </trkpt>
      <trkpt lat="44.27378" lon="3.07147">
        <ele>815</ele>
        <time>2019-05-22T22:18:25Z</time>
      </trkpt>
      <trkpt lat="44.27363" lon="3.07148">
        <ele>815</ele>
        <time>2019-05-22T22:18:27Z</time>
      </trkpt>
      <trkpt lat="44.27354" lon="3.07144">
        <ele>813</ele>
        <time>2019-05-22T22:18:29Z</time>
      </trkpt>
      <trkpt lat="44.27341" lon="3.07132">
        <ele>811</ele>
        <time>2019-05-22T22:18:32Z</time>
      </trkpt>
      <trkpt lat="44.27335" lon="3.07122">
        <ele>809</ele>
        <time>2019-05-22T22:18:33Z</time>
      </trkpt>
      <trkpt lat="44.27331" lon="3.07112">
        <ele>808</ele>
        <time>2019-05-22T22:18:35Z</time>
      </trkpt>
      <trkpt lat="44.27328" lon="3.07095">
        <ele>807</ele>
        <time>2019-05-22T22:18:37Z</time>
      </trkpt>
      <trkpt lat="44.2733" lon="3.07072">
        <ele>806</ele>
        <time>2019-05-22T22:18:40Z</time>
      </trkpt>
      <trkpt lat="44.27336" lon="3.07058">
        <ele>807</ele>
        <time>2019-05-22T22:18:42Z</time>
      </trkpt>
      <trkpt lat="44.27343" lon="3.07047">
        <ele>807</ele>
        <time>2019-05-22T22:18:44Z</time>
      </trkpt>
      <trkpt lat="44.27356" lon="3.07033">
        <ele>807</ele>
        <time>2019-05-22T22:18:47Z</time>
      </trkpt>
      <trkpt lat="44.27421" lon="3.06974">
        <ele>804</ele>
        <time>2019-05-22T22:19:01Z</time>
      </trkpt>
      <trkpt lat="44.27442" lon="3.06948">
        <ele>805</ele>
        <time>2019-05-22T22:19:06Z</time>
      </trkpt>
      <trkpt lat="44.27452" lon="3.06934">
        <ele>806</ele>
        <time>2019-05-22T22:19:08Z</time>
      </trkpt>
      <trkpt lat="44.27464" lon="3.06909">
        <ele>807</ele>
        <time>2019-05-22T22:19:12Z</time>
      </trkpt>
      <trkpt lat="44.27473" lon="3.06884">
        <ele>807</ele>
        <time>2019-05-22T22:19:16Z</time>
      </trkpt>
      <trkpt lat="44.27479" lon="3.0685">
        <ele>808</ele>
        <time>2019-05-22T22:19:20Z</time>
      </trkpt>
      <trkpt lat="44.27481" lon="3.06816">
        <ele>807</ele>
        <time>2019-05-22T22:19:24Z</time>
      </trkpt>
      <trkpt lat="44.27478" lon="3.06783">
        <ele>806</ele>
        <time>2019-05-22T22:19:29Z</time>
      </trkpt>
      <trkpt lat="44.27469" lon="3.06746">
        <ele>807</ele>
        <time>2019-05-22T22:19:34Z</time>
      </trkpt>
      <trkpt lat="44.27458" lon="3.0672">
        <ele>807</ele>
        <time>2019-05-22T22:19:37Z</time>
      </trkpt>
      <trkpt lat="44.2744" lon="3.06693">
        <ele>810</ele>
        <time>2019-05-22T22:19:42Z</time>
      </trkpt>
      <trkpt lat="44.27414" lon="3.06665">
        <ele>814</ele>
        <time>2019-05-22T22:19:48Z</time>
      </trkpt>
      <trkpt lat="44.27312" lon="3.06593">
        <ele>816</ele>
        <time>2019-05-22T22:20:08Z</time>
      </trkpt>
      <trkpt lat="44.27273" lon="3.06571">
        <ele>817</ele>
        <time>2019-05-22T22:20:16Z</time>
      </trkpt>
      <trkpt lat="44.27258" lon="3.06566">
        <ele>818</ele>
        <time>2019-05-22T22:20:19Z</time>
      </trkpt>
      <trkpt lat="44.27234" lon="3.06563">
        <ele>819</ele>
        <time>2019-05-22T22:20:23Z</time>
      </trkpt>
      <trkpt lat="44.27193" lon="3.06569">
        <ele>819</ele>
        <time>2019-05-22T22:20:30Z</time>
      </trkpt>
      <trkpt lat="44.27114" lon="3.0659">
        <ele>819</ele>
        <time>2019-05-22T22:20:44Z</time>
      </trkpt>
      <trkpt lat="44.27066" lon="3.06594">
        <ele>820</ele>
        <time>2019-05-22T22:20:53Z</time>
      </trkpt>
      <trkpt lat="44.27031" lon="3.0659">
        <ele>825</ele>
        <time>2019-05-22T22:20:59Z</time>
      </trkpt>
      <trkpt lat="44.26996" lon="3.0658">
        <ele>828</ele>
        <time>2019-05-22T22:21:06Z</time>
      </trkpt>
      <trkpt lat="44.26973" lon="3.0657">
        <ele>830</ele>
        <time>2019-05-22T22:21:10Z</time>
      </trkpt>
      <trkpt lat="44.2692" lon="3.0654">
        <ele>832</ele>
        <time>2019-05-22T22:21:20Z</time>
      </trkpt>
      <trkpt lat="44.26619" lon="3.06361">
        <ele>838</ele>
        <time>2019-05-22T22:22:18Z</time>
      </trkpt>
      <trkpt lat="44.26576" lon="3.06339">
        <ele>840</ele>
        <time>2019-05-22T22:22:26Z</time>
      </trkpt>
      <trkpt lat="44.26532" lon="3.06325">
        <ele>842</ele>
        <time>2019-05-22T22:22:34Z</time>
      </trkpt>
      <trkpt lat="44.2651" lon="3.06321">
        <ele>843</ele>
        <time>2019-05-22T22:22:38Z</time>
      </trkpt>
      <trkpt lat="44.26489" lon="3.06321">
        <ele>844</ele>
        <time>2019-05-22T22:22:42Z</time>
      </trkpt>
      <trkpt lat="44.26465" lon="3.06323">
        <ele>845</ele>
        <time>2019-05-22T22:22:46Z</time>
      </trkpt>
      <trkpt lat="44.26431" lon="3.0633">
        <ele>846</ele>
        <time>2019-05-22T22:22:53Z</time>
      </trkpt>
      <trkpt lat="44.26366" lon="3.06351">
        <ele>849</ele>
        <time>2019-05-22T22:23:04Z</time>
      </trkpt>
      <trkpt lat="44.26309" lon="3.06366">
        <ele>850</ele>
        <time>2019-05-22T22:23:15Z</time>
      </trkpt>
      <trkpt lat="44.26289" lon="3.06368">
        <ele>851</ele>
        <time>2019-05-22T22:23:18Z</time>
      </trkpt>
      <trkpt lat="44.26272" lon="3.06367">
        <ele>852</ele>
        <time>2019-05-22T22:23:21Z</time>
      </trkpt>
      <trkpt lat="44.26238" lon="3.0636">
        <ele>852</ele>
        <time>2019-05-22T22:23:27Z</time>
      </trkpt>
      <trkpt lat="44.26217" lon="3.06351">
        <ele>854</ele>
        <time>2019-05-22T22:23:31Z</time>
      </trkpt>
      <trkpt lat="44.26193" lon="3.06338">
        <ele>855</ele>
        <time>2019-05-22T22:23:36Z</time>
      </trkpt>
      <trkpt lat="44.2615" lon="3.06308">
        <ele>858</ele>
        <time>2019-05-22T22:23:44Z</time>
      </trkpt>
      <trkpt lat="44.25972" lon="3.06163">
        <ele>869</ele>
        <time>2019-05-22T22:24:21Z</time>
      </trkpt>
      <trkpt lat="44.25934" lon="3.06122">
        <ele>871</ele>
        <time>2019-05-22T22:24:30Z</time>
      </trkpt>
      <trkpt lat="44.259" lon="3.06072">
        <ele>870</ele>
        <time>2019-05-22T22:24:38Z</time>
      </trkpt>
      <trkpt lat="44.25886" lon="3.06047">
        <ele>872</ele>
        <time>2019-05-22T22:24:43Z</time>
      </trkpt>
      <trkpt lat="44.25794" lon="3.05849">
        <ele>877</ele>
        <time>2019-05-22T22:25:13Z</time>
      </trkpt>
      <trkpt lat="44.25774" lon="3.05814">
        <ele>878</ele>
        <time>2019-05-22T22:25:18Z</time>
      </trkpt>
      <trkpt lat="44.25765" lon="3.05803">
        <ele>878</ele>
        <time>2019-05-22T22:25:20Z</time>
      </trkpt>
      <trkpt lat="44.25745" lon="3.05785">
        <ele>879</ele>
        <time>2019-05-22T22:25:25Z</time>
      </trkpt>
      <trkpt lat="44.25732" lon="3.05777">
        <ele>880</ele>
        <time>2019-05-22T22:25:27Z</time>
      </trkpt>
      <trkpt lat="44.25705" lon="3.0577">
        <ele>880</ele>
        <time>2019-05-22T22:25:32Z</time>
      </trkpt>
      <trkpt lat="44.25693" lon="3.05769">
        <ele>880</ele>
        <time>2019-05-22T22:25:34Z</time>
      </trkpt>
      <trkpt lat="44.25671" lon="3.05773">
        <ele>880</ele>
        <time>2019-05-22T22:25:38Z</time>
      </trkpt>
      <trkpt lat="44.25652" lon="3.05782">
        <ele>881</ele>
        <time>2019-05-22T22:25:42Z</time>
      </trkpt>
      <trkpt lat="44.25637" lon="3.05793">
        <ele>881</ele>
        <time>2019-05-22T22:25:45Z</time>
      </trkpt>
      <trkpt lat="44.25613" lon="3.05824">
        <ele>881</ele>
        <time>2019-05-22T22:25:51Z</time>
      </trkpt>
      <trkpt lat="44.25601" lon="3.05851">
        <ele>881</ele>
        <time>2019-05-22T22:25:55Z</time>
      </trkpt>
      <trkpt lat="44.25565" lon="3.05958">
        <ele>882</ele>
        <time>2019-05-22T22:26:10Z</time>
      </trkpt>
      <trkpt lat="44.25551" lon="3.05991">
        <ele>881</ele>
        <time>2019-05-22T22:26:15Z</time>
      </trkpt>
      <trkpt lat="44.25525" lon="3.06024">
        <ele>881</ele>
        <time>2019-05-22T22:26:21Z</time>
      </trkpt>
      <trkpt lat="44.25522" lon="3.06032">
        <ele>881</ele>
        <time>2019-05-22T22:26:22Z</time>
      </trkpt>
      <trkpt lat="44.255" lon="3.06053">
        <ele>880</ele>
        <time>2019-05-22T22:26:27Z</time>
      </trkpt>
      <trkpt lat="44.25469" lon="3.06076">
        <ele>879</ele>
        <time>2019-05-22T22:26:33Z</time>
      </trkpt>
      <trkpt lat="44.25457" lon="3.06076">
        <ele>879</ele>
        <time>2019-05-22T22:26:35Z</time>
      </trkpt>
      <trkpt lat="44.25424" lon="3.06088">
        <ele>877</ele>
        <time>2019-05-22T22:26:41Z</time>
      </trkpt>
      <trkpt lat="44.25406" lon="3.06088">
        <ele>877</ele>
        <time>2019-05-22T22:26:44Z</time>
      </trkpt>
      <trkpt lat="44.25373" lon="3.06084">
        <ele>876</ele>
        <time>2019-05-22T22:26:50Z</time>
      </trkpt>
      <trkpt lat="44.25332" lon="3.06064">
        <ele>878</ele>
        <time>2019-05-22T22:26:58Z</time>
      </trkpt>
      <trkpt lat="44.25316" lon="3.06052">
        <ele>879</ele>
        <time>2019-05-22T22:27:01Z</time>
      </trkpt>
      <trkpt lat="44.24818" lon="3.05641">
        <ele>889</ele>
        <time>2019-05-22T22:28:44Z</time>
      </trkpt>
      <trkpt lat="44.2478" lon="3.05616">
        <ele>888</ele>
        <time>2019-05-22T22:28:52Z</time>
      </trkpt>
      <trkpt lat="44.24752" lon="3.05603">
        <ele>887</ele>
        <time>2019-05-22T22:28:57Z</time>
      </trkpt>
      <trkpt lat="44.24657" lon="3.05571">
        <ele>883</ele>
        <time>2019-05-22T22:29:14Z</time>
      </trkpt>
      <trkpt lat="44.24593" lon="3.05553">
        <ele>881</ele>
        <time>2019-05-22T22:29:26Z</time>
      </trkpt>
      <trkpt lat="44.24536" lon="3.05545">
        <ele>879</ele>
        <time>2019-05-22T22:29:36Z</time>
      </trkpt>
      <trkpt lat="44.24489" lon="3.05545">
        <ele>877</ele>
        <time>2019-05-22T22:29:44Z</time>
      </trkpt>
      <trkpt lat="44.24453" lon="3.05548">
        <ele>874</ele>
        <time>2019-05-22T22:29:51Z</time>
      </trkpt>
      <trkpt lat="44.2439" lon="3.05562">
        <ele>869</ele>
        <time>2019-05-22T22:30:02Z</time>
      </trkpt>
      <trkpt lat="44.2433" lon="3.05587">
        <ele>862</ele>
        <time>2019-05-22T22:30:13Z</time>
      </trkpt>
      <trkpt lat="44.24293" lon="3.05607">
        <ele>858</ele>
        <time>2019-05-22T22:30:20Z</time>
      </trkpt>
      <trkpt lat="44.24264" lon="3.05627">
        <ele>855</ele>
        <time>2019-05-22T22:30:26Z</time>
      </trkpt>
      <trkpt lat="44.24187" lon="3.05684">
        <ele>847</ele>
        <time>2019-05-22T22:30:42Z</time>
      </trkpt>
      <trkpt lat="44.2392" lon="3.05892">
        <ele>827</ele>
        <time>2019-05-22T22:31:36Z</time>
      </trkpt>
      <trkpt lat="44.23809" lon="3.05964">
        <ele>817</ele>
        <time>2019-05-22T22:31:58Z</time>
      </trkpt>
      <trkpt lat="44.2354" lon="3.06159">
        <ele>809</ele>
        <time>2019-05-22T22:32:52Z</time>
      </trkpt>
      <trkpt lat="44.23485" lon="3.06203">
        <ele>804</ele>
        <time>2019-05-22T22:33:03Z</time>
      </trkpt>
      <trkpt lat="44.23431" lon="3.0626">
        <ele>801</ele>
        <time>2019-05-22T22:33:15Z</time>
      </trkpt>
      <trkpt lat="44.23314" lon="3.06396">
        <ele>784</ele>
        <time>2019-05-22T22:33:42Z</time>
      </trkpt>
      <trkpt lat="44.23225" lon="3.06494">
        <ele>767</ele>
        <time>2019-05-22T22:34:02Z</time>
      </trkpt>
      <trkpt lat="44.23193" lon="3.06524">
        <ele>767</ele>
        <time>2019-05-22T22:34:09Z</time>
      </trkpt>
      <trkpt lat="44.23144" lon="3.0656">
        <ele>766</ele>
        <time>2019-05-22T22:34:19Z</time>
      </trkpt>
      <trkpt lat="44.23009" lon="3.06631">
        <ele>761</ele>
        <time>2019-05-22T22:34:45Z</time>
      </trkpt>
      <trkpt lat="44.22966" lon="3.06662">
        <ele>758</ele>
        <time>2019-05-22T22:34:53Z</time>
      </trkpt>
      <trkpt lat="44.22923" lon="3.06705">
        <ele>756</ele>
        <time>2019-05-22T22:35:03Z</time>
      </trkpt>
      <trkpt lat="44.22877" lon="3.0676">
        <ele>753</ele>
        <time>2019-05-22T22:35:14Z</time>
      </trkpt>
      <trkpt lat="44.22803" lon="3.06853">
        <ele>747</ele>
        <time>2019-05-22T22:35:31Z</time>
      </trkpt>
      <trkpt lat="44.22767" lon="3.06893">
        <ele>745</ele>
        <time>2019-05-22T22:35:39Z</time>
      </trkpt>
      <trkpt lat="44.22728" lon="3.06926">
        <ele>742</ele>
        <time>2019-05-22T22:35:48Z</time>
      </trkpt>
      <trkpt lat="44.22683" lon="3.06958">
        <ele>736</ele>
        <time>2019-05-22T22:35:57Z</time>
      </trkpt>
      <trkpt lat="44.22631" lon="3.06984">
        <ele>731</ele>
        <time>2019-05-22T22:36:06Z</time>
      </trkpt>
      <trkpt lat="44.22098" lon="3.07236">
        <ele>694</ele>
        <time>2019-05-22T22:37:47Z</time>
      </trkpt>
      <trkpt lat="44.22068" lon="3.07254">
        <ele>692</ele>
        <time>2019-05-22T22:37:52Z</time>
      </trkpt>
      <trkpt lat="44.21984" lon="3.07321">
        <ele>687</ele>
        <time>2019-05-22T22:38:10Z</time>
      </trkpt>
      <trkpt lat="44.21941" lon="3.07368">
        <ele>685</ele>
        <time>2019-05-22T22:38:19Z</time>
      </trkpt>
      <trkpt lat="44.21905" lon="3.07415">
        <ele>683</ele>
        <time>2019-05-22T22:38:28Z</time>
      </trkpt>
      <trkpt lat="44.21788" lon="3.0762">
        <ele>667</ele>
        <time>2019-05-22T22:39:01Z</time>
      </trkpt>
      <trkpt lat="44.21752" lon="3.07671">
        <ele>662</ele>
        <time>2019-05-22T22:39:11Z</time>
      </trkpt>
      <trkpt lat="44.21723" lon="3.07705">
        <ele>661</ele>
        <time>2019-05-22T22:39:17Z</time>
      </trkpt>
      <trkpt lat="44.21693" lon="3.07733">
        <ele>658</ele>
        <time>2019-05-22T22:39:24Z</time>
      </trkpt>
      <trkpt lat="44.21656" lon="3.07761">
        <ele>656</ele>
        <time>2019-05-22T22:39:31Z</time>
      </trkpt>
      <trkpt lat="44.21618" lon="3.07782">
        <ele>655</ele>
        <time>2019-05-22T22:39:39Z</time>
      </trkpt>
      <trkpt lat="44.21583" lon="3.07797">
        <ele>654</ele>
        <time>2019-05-22T22:39:45Z</time>
      </trkpt>
      <trkpt lat="44.21543" lon="3.07807">
        <ele>653</ele>
        <time>2019-05-22T22:39:52Z</time>
      </trkpt>
      <trkpt lat="44.21506" lon="3.07813">
        <ele>652</ele>
        <time>2019-05-22T22:39:59Z</time>
      </trkpt>
      <trkpt lat="44.21469" lon="3.07814">
        <ele>650</ele>
        <time>2019-05-22T22:40:05Z</time>
      </trkpt>
      <trkpt lat="44.2143" lon="3.07808">
        <ele>648</ele>
        <time>2019-05-22T22:40:12Z</time>
      </trkpt>
      <trkpt lat="44.21389" lon="3.07797">
        <ele>646</ele>
        <time>2019-05-22T22:40:20Z</time>
      </trkpt>
      <trkpt lat="44.21354" lon="3.07784">
        <ele>644</ele>
        <time>2019-05-22T22:40:26Z</time>
      </trkpt>
      <trkpt lat="44.2127" lon="3.07734">
        <ele>638</ele>
        <time>2019-05-22T22:40:43Z</time>
      </trkpt>
      <trkpt lat="44.21227" lon="3.07702">
        <ele>633</ele>
        <time>2019-05-22T22:40:51Z</time>
      </trkpt>
      <trkpt lat="44.2118" lon="3.07671">
        <ele>629</ele>
        <time>2019-05-22T22:41:01Z</time>
      </trkpt>
      <trkpt lat="44.21132" lon="3.07651">
        <ele>626</ele>
        <time>2019-05-22T22:41:09Z</time>
      </trkpt>
      <trkpt lat="44.21074" lon="3.07643">
        <ele>624</ele>
        <time>2019-05-22T22:41:20Z</time>
      </trkpt>
      <trkpt lat="44.21036" lon="3.07647">
        <ele>623</ele>
        <time>2019-05-22T22:41:27Z</time>
      </trkpt>
      <trkpt lat="44.20994" lon="3.0766">
        <ele>620</ele>
        <time>2019-05-22T22:41:34Z</time>
      </trkpt>
      <trkpt lat="44.20942" lon="3.07689">
        <ele>617</ele>
        <time>2019-05-22T22:41:44Z</time>
      </trkpt>
      <trkpt lat="44.20776" lon="3.07795">
        <ele>602</ele>
        <time>2019-05-22T22:42:17Z</time>
      </trkpt>
      <trkpt lat="44.20739" lon="3.07831">
        <ele>601</ele>
        <time>2019-05-22T22:42:25Z</time>
      </trkpt>
      <trkpt lat="44.20715" lon="3.07869">
        <ele>599</ele>
        <time>2019-05-22T22:42:31Z</time>
      </trkpt>
      <trkpt lat="44.20698" lon="3.07919">
        <ele>598</ele>
        <time>2019-05-22T22:42:38Z</time>
      </trkpt>
      <trkpt lat="44.20693" lon="3.07975">
        <ele>597</ele>
        <time>2019-05-22T22:42:45Z</time>
      </trkpt>
      <trkpt lat="44.20697" lon="3.08045">
        <ele>595</ele>
        <time>2019-05-22T22:42:54Z</time>
      </trkpt>
      <trkpt lat="44.20704" lon="3.08101">
        <ele>591</ele>
        <time>2019-05-22T22:43:02Z</time>
      </trkpt>
      <trkpt lat="44.20717" lon="3.08158">
        <ele>587</ele>
        <time>2019-05-22T22:43:09Z</time>
      </trkpt>
      <trkpt lat="44.20735" lon="3.08194">
        <ele>587</ele>
        <time>2019-05-22T22:43:15Z</time>
      </trkpt>
      <trkpt lat="44.20763" lon="3.08229">
        <ele>588</ele>
        <time>2019-05-22T22:43:22Z</time>
      </trkpt>
      <trkpt lat="44.20811" lon="3.08266">
        <ele>586</ele>
        <time>2019-05-22T22:43:31Z</time>
      </trkpt>
      <trkpt lat="44.20919" lon="3.08346">
        <ele>579</ele>
        <time>2019-05-22T22:43:53Z</time>
      </trkpt>
      <trkpt lat="44.20956" lon="3.08379">
        <ele>578</ele>
        <time>2019-05-22T22:44:01Z</time>
      </trkpt>
      <trkpt lat="44.20972" lon="3.08402">
        <ele>575</ele>
        <time>2019-05-22T22:44:05Z</time>
      </trkpt>
      <trkpt lat="44.21011" lon="3.08494">
        <ele>573</ele>
        <time>2019-05-22T22:44:19Z</time>
      </trkpt>
      <trkpt lat="44.21031" lon="3.08523">
        <ele>579</ele>
        <time>2019-05-22T22:44:24Z</time>
      </trkpt>
      <trkpt lat="44.21067" lon="3.08563">
        <ele>581</ele>
        <time>2019-05-22T22:44:32Z</time>
      </trkpt>
      <trkpt lat="44.21074" lon="3.08581">
        <ele>578</ele>
        <time>2019-05-22T22:44:35Z</time>
      </trkpt>
      <trkpt lat="44.21075" lon="3.08597">
        <ele>579</ele>
        <time>2019-05-22T22:44:37Z</time>
      </trkpt>
      <trkpt lat="44.2107" lon="3.08614">
        <ele>582</ele>
        <time>2019-05-22T22:44:39Z</time>
      </trkpt>
      <trkpt lat="44.21059" lon="3.08624">
        <ele>584</ele>
        <time>2019-05-22T22:44:41Z</time>
      </trkpt>
      <trkpt lat="44.21047" lon="3.08627">
        <ele>586</ele>
        <time>2019-05-22T22:44:43Z</time>
      </trkpt>
      <trkpt lat="44.21021" lon="3.08607">
        <ele>583</ele>
        <time>2019-05-22T22:44:49Z</time>
      </trkpt>
      <trkpt lat="44.20943" lon="3.08519">
        <ele>568</ele>
        <time>2019-05-22T22:45:07Z</time>
      </trkpt>
      <trkpt lat="44.20914" lon="3.08495">
        <ele>560</ele>
        <time>2019-05-22T22:45:13Z</time>
      </trkpt>
      <trkpt lat="44.20882" lon="3.08477">
        <ele>559</ele>
        <time>2019-05-22T22:45:19Z</time>
      </trkpt>
      <trkpt lat="44.20852" lon="3.08469">
        <ele>557</ele>
        <time>2019-05-22T22:45:24Z</time>
      </trkpt>
      <trkpt lat="44.20799" lon="3.08464">
        <ele>552</ele>
        <time>2019-05-22T22:45:34Z</time>
      </trkpt>
      <trkpt lat="44.20701" lon="3.08466">
        <ele>540</ele>
        <time>2019-05-22T22:45:51Z</time>
      </trkpt>
      <trkpt lat="44.2067" lon="3.08472">
        <ele>537</ele>
        <time>2019-05-22T22:45:57Z</time>
      </trkpt>
      <trkpt lat="44.20648" lon="3.08485">
        <ele>535</ele>
        <time>2019-05-22T22:46:01Z</time>
      </trkpt>
      <trkpt lat="44.20628" lon="3.08509">
        <ele>535</ele>
        <time>2019-05-22T22:46:06Z</time>
      </trkpt>
      <trkpt lat="44.20556" lon="3.08671">
        <ele>538</ele>
        <time>2019-05-22T22:46:30Z</time>
      </trkpt>
      <trkpt lat="44.20544" lon="3.08708">
        <ele>538</ele>
        <time>2019-05-22T22:46:35Z</time>
      </trkpt>
      <trkpt lat="44.2054" lon="3.08746">
        <ele>539</ele>
        <time>2019-05-22T22:46:40Z</time>
      </trkpt>
      <trkpt lat="44.2054" lon="3.088">
        <ele>542</ele>
        <time>2019-05-22T22:46:47Z</time>
      </trkpt>
      <trkpt lat="44.20538" lon="3.0882">
        <ele>543</ele>
        <time>2019-05-22T22:46:49Z</time>
      </trkpt>
      <trkpt lat="44.20531" lon="3.08831">
        <ele>543</ele>
        <time>2019-05-22T22:46:51Z</time>
      </trkpt>
      <trkpt lat="44.20521" lon="3.08838">
        <ele>542</ele>
        <time>2019-05-22T22:46:53Z</time>
      </trkpt>
      <trkpt lat="44.20511" lon="3.08836">
        <ele>540</ele>
        <time>2019-05-22T22:46:55Z</time>
      </trkpt>
      <trkpt lat="44.205" lon="3.08829">
        <ele>538</ele>
        <time>2019-05-22T22:46:57Z</time>
      </trkpt>
      <trkpt lat="44.20494" lon="3.08813">
        <ele>539</ele>
        <time>2019-05-22T22:46:59Z</time>
      </trkpt>
      <trkpt lat="44.20493" lon="3.08783">
        <ele>537</ele>
        <time>2019-05-22T22:47:03Z</time>
      </trkpt>
      <trkpt lat="44.20505" lon="3.08686">
        <ele>530</ele>
        <time>2019-05-22T22:47:16Z</time>
      </trkpt>
      <trkpt lat="44.2054" lon="3.08459">
        <ele>523</ele>
        <time>2019-05-22T22:47:45Z</time>
      </trkpt>
      <trkpt lat="44.20542" lon="3.08415">
        <ele>519</ele>
        <time>2019-05-22T22:47:51Z</time>
      </trkpt>
      <trkpt lat="44.20539" lon="3.08364">
        <ele>516</ele>
        <time>2019-05-22T22:47:58Z</time>
      </trkpt>
      <trkpt lat="44.20528" lon="3.08311">
        <ele>515</ele>
        <time>2019-05-22T22:48:05Z</time>
      </trkpt>
      <trkpt lat="44.20513" lon="3.08259">
        <ele>511</ele>
        <time>2019-05-22T22:48:12Z</time>
      </trkpt>
      <trkpt lat="44.20493" lon="3.08213">
        <ele>506</ele>
        <time>2019-05-22T22:48:19Z</time>
      </trkpt>
      <trkpt lat="44.20465" lon="3.0817">
        <ele>507</ele>
        <time>2019-05-22T22:48:26Z</time>
      </trkpt>
      <trkpt lat="44.20211" lon="3.07832">
        <ele>480</ele>
        <time>2019-05-22T22:49:29Z</time>
      </trkpt>
      <trkpt lat="44.2018" lon="3.07795">
        <ele>478</ele>
        <time>2019-05-22T22:49:36Z</time>
      </trkpt>
      <trkpt lat="44.20141" lon="3.07756">
        <ele>471</ele>
        <time>2019-05-22T22:49:44Z</time>
      </trkpt>
      <trkpt lat="44.20061" lon="3.07691">
        <ele>470</ele>
        <time>2019-05-22T22:50:01Z</time>
      </trkpt>
      <trkpt lat="44.20016" lon="3.07662">
        <ele>471</ele>
        <time>2019-05-22T22:50:10Z</time>
      </trkpt>
      <trkpt lat="44.1993" lon="3.07623">
        <ele>473</ele>
        <time>2019-05-22T22:50:26Z</time>
      </trkpt>
      <trkpt lat="44.19828" lon="3.07585">
        <ele>465</ele>
        <time>2019-05-22T22:50:45Z</time>
      </trkpt>
      <trkpt lat="44.19791" lon="3.07577">
        <ele>464</ele>
        <time>2019-05-22T22:50:51Z</time>
      </trkpt>
      <trkpt lat="44.19745" lon="3.07575">
        <ele>463</ele>
        <time>2019-05-22T22:50:59Z</time>
      </trkpt>
      <trkpt lat="44.1962" lon="3.07581">
        <ele>459</ele>
        <time>2019-05-22T22:51:22Z</time>
      </trkpt>
      <trkpt lat="44.19588" lon="3.07578">
        <ele>458</ele>
        <time>2019-05-22T22:51:27Z</time>
      </trkpt>
      <trkpt lat="44.19555" lon="3.07568">
        <ele>461</ele>
        <time>2019-05-22T22:51:33Z</time>
      </trkpt>
      <trkpt lat="44.19526" lon="3.07551">
        <ele>462</ele>
        <time>2019-05-22T22:51:39Z</time>
      </trkpt>
      <trkpt lat="44.19441" lon="3.07494">
        <ele>455</ele>
        <time>2019-05-22T22:51:56Z</time>
      </trkpt>
      <trkpt lat="44.19344" lon="3.07439">
        <ele>455</ele>
        <time>2019-05-22T22:52:14Z</time>
      </trkpt>
      <trkpt lat="44.19323" lon="3.07422">
        <ele>455</ele>
        <time>2019-05-22T22:52:19Z</time>
      </trkpt>
      <trkpt lat="44.1922" lon="3.07322">
        <ele>448</ele>
        <time>2019-05-22T22:52:41Z</time>
      </trkpt>
      <trkpt lat="44.19198" lon="3.07305">
        <ele>447</ele>
        <time>2019-05-22T22:52:45Z</time>
      </trkpt>
      <trkpt lat="44.19176" lon="3.07295">
        <ele>446</ele>
        <time>2019-05-22T22:52:50Z</time>
      </trkpt>
      <trkpt lat="44.19143" lon="3.07287">
        <ele>444</ele>
        <time>2019-05-22T22:52:56Z</time>
      </trkpt>
      <trkpt lat="44.19106" lon="3.07288">
        <ele>442</ele>
        <time>2019-05-22T22:53:02Z</time>
      </trkpt>
      <trkpt lat="44.19088" lon="3.07293">
        <ele>443</ele>
        <time>2019-05-22T22:53:05Z</time>
      </trkpt>
      <trkpt lat="44.19067" lon="3.07303">
        <ele>443</ele>
        <time>2019-05-22T22:53:09Z</time>
      </trkpt>
      <trkpt lat="44.19028" lon="3.07327">
        <ele>441</ele>
        <time>2019-05-22T22:53:17Z</time>
      </trkpt>
      <trkpt lat="44.18764" lon="3.07563">
        <ele>443</ele>
        <time>2019-05-22T22:54:13Z</time>
      </trkpt>
      <trkpt lat="44.18722" lon="3.07593">
        <ele>440</ele>
        <time>2019-05-22T22:54:21Z</time>
      </trkpt>
      <trkpt lat="44.18693" lon="3.0761">
        <ele>441</ele>
        <time>2019-05-22T22:54:27Z</time>
      </trkpt>
      <trkpt lat="44.18597" lon="3.07651">
        <ele>436</ele>
        <time>2019-05-22T22:54:45Z</time>
      </trkpt>
      <trkpt lat="44.18549" lon="3.07675">
        <ele>434</ele>
        <time>2019-05-22T22:54:54Z</time>
      </trkpt>
      <trkpt lat="44.1853" lon="3.07689">
        <ele>435</ele>
        <time>2019-05-22T22:54:57Z</time>
      </trkpt>
      <trkpt lat="44.1853" lon="3.07689">
        <ele>435</ele>
        <time>2019-05-22T22:54:57Z</time>
      </trkpt>
      <trkpt lat="44.18377" lon="3.07804">
        <ele>428</ele>
        <time>2019-05-22T22:55:28Z</time>
      </trkpt>
      <trkpt lat="44.18329" lon="3.07844">
        <ele>428</ele>
        <time>2019-05-22T22:55:38Z</time>
      </trkpt>
      <trkpt lat="44.18299" lon="3.07875">
        <ele>431</ele>
        <time>2019-05-22T22:55:45Z</time>
      </trkpt>
      <trkpt lat="44.18266" lon="3.07918">
        <ele>429</ele>
        <time>2019-05-22T22:55:53Z</time>
      </trkpt>
      <trkpt lat="44.18209" lon="3.07999">
        <ele>427</ele>
        <time>2019-05-22T22:56:08Z</time>
      </trkpt>
      <trkpt lat="44.18157" lon="3.08057">
        <ele>426</ele>
        <time>2019-05-22T22:56:19Z</time>
      </trkpt>
      <trkpt lat="44.18117" lon="3.08088">
        <ele>426</ele>
        <time>2019-05-22T22:56:28Z</time>
      </trkpt>
      <trkpt lat="44.18073" lon="3.0811">
        <ele>426</ele>
        <time>2019-05-22T22:56:36Z</time>
      </trkpt>
      <trkpt lat="44.17996" lon="3.08142">
        <ele>426</ele>
        <time>2019-05-22T22:56:50Z</time>
      </trkpt>
      <trkpt lat="44.17914" lon="3.08167">
        <ele>420</ele>
        <time>2019-05-22T22:57:05Z</time>
      </trkpt>
      <trkpt lat="44.17768" lon="3.08203">
        <ele>425</ele>
        <time>2019-05-22T22:57:31Z</time>
      </trkpt>
      <trkpt lat="44.17455" lon="3.08318">
        <ele>417</ele>
        <time>2019-05-22T22:58:29Z</time>
      </trkpt>
      <trkpt lat="44.17366" lon="3.08344">
        <ele>415</ele>
        <time>2019-05-22T22:58:45Z</time>
      </trkpt>
      <trkpt lat="44.17248" lon="3.08373">
        <ele>417</ele>
        <time>2019-05-22T22:59:07Z</time>
      </trkpt>
      <trkpt lat="44.17189" lon="3.08395">
        <ele>415</ele>
        <time>2019-05-22T22:59:17Z</time>
      </trkpt>
      <trkpt lat="44.17096" lon="3.08446">
        <ele>416</ele>
        <time>2019-05-22T22:59:35Z</time>
      </trkpt>
      <trkpt lat="44.17045" lon="3.0847">
        <ele>415</ele>
        <time>2019-05-22T22:59:45Z</time>
      </trkpt>
      <trkpt lat="44.16863" lon="3.08548">
        <ele>407</ele>
        <time>2019-05-22T23:00:19Z</time>
      </trkpt>
      <trkpt lat="44.16808" lon="3.08568">
        <ele>404</ele>
        <time>2019-05-22T23:00:29Z</time>
      </trkpt>
      <trkpt lat="44.16787" lon="3.08573">
        <ele>404</ele>
        <time>2019-05-22T23:00:33Z</time>
      </trkpt>
      <trkpt lat="44.16767" lon="3.08573">
        <ele>404</ele>
        <time>2019-05-22T23:00:36Z</time>
      </trkpt>
      <trkpt lat="44.16689" lon="3.08558">
        <ele>405</ele>
        <time>2019-05-22T23:00:50Z</time>
      </trkpt>
      <trkpt lat="44.16659" lon="3.08555">
        <ele>405</ele>
        <time>2019-05-22T23:00:55Z</time>
      </trkpt>
      <trkpt lat="44.16562" lon="3.08564">
        <ele>407</ele>
        <time>2019-05-22T23:01:13Z</time>
      </trkpt>
      <trkpt lat="44.16524" lon="3.08573">
        <ele>409</ele>
        <time>2019-05-22T23:01:20Z</time>
      </trkpt>
      <trkpt lat="44.16503" lon="3.08583">
        <ele>408</ele>
        <time>2019-05-22T23:01:24Z</time>
      </trkpt>
      <trkpt lat="44.1646" lon="3.08617">
        <ele>406</ele>
        <time>2019-05-22T23:01:32Z</time>
      </trkpt>
      <trkpt lat="44.16449" lon="3.08619">
        <ele>406</ele>
        <time>2019-05-22T23:01:34Z</time>
      </trkpt>
      <trkpt lat="44.16441" lon="3.08609">
        <ele>408</ele>
        <time>2019-05-22T23:01:36Z</time>
      </trkpt>
      <trkpt lat="44.16433" lon="3.08591">
        <ele>412</ele>
        <time>2019-05-22T23:01:39Z</time>
      </trkpt>
      <trkpt lat="44.16427" lon="3.08583">
        <ele>414</ele>
        <time>2019-05-22T23:01:40Z</time>
      </trkpt>
      <trkpt lat="44.16379" lon="3.08631">
        <ele>413</ele>
        <time>2019-05-22T23:01:51Z</time>
      </trkpt>
      <trkpt lat="44.16327" lon="3.08686">
        <ele>409</ele>
        <time>2019-05-22T23:02:03Z</time>
      </trkpt>
      <trkpt lat="44.16287" lon="3.08726">
        <ele>404</ele>
        <time>2019-05-22T23:02:11Z</time>
      </trkpt>
      <trkpt lat="44.16206" lon="3.08837">
        <ele>392</ele>
        <time>2019-05-22T23:02:32Z</time>
      </trkpt>
      <trkpt lat="44.16148" lon="3.08927">
        <ele>389</ele>
        <time>2019-05-22T23:02:47Z</time>
      </trkpt>
      <trkpt lat="44.16134" lon="3.08959">
        <ele>390</ele>
        <time>2019-05-22T23:02:52Z</time>
      </trkpt>
      <trkpt lat="44.16129" lon="3.08976">
        <ele>390</ele>
        <time>2019-05-22T23:02:54Z</time>
      </trkpt>
      <trkpt lat="44.16117" lon="3.09046">
        <ele>391</ele>
        <time>2019-05-22T23:03:03Z</time>
      </trkpt>
      <trkpt lat="44.16106" lon="3.09082">
        <ele>392</ele>
        <time>2019-05-22T23:03:08Z</time>
      </trkpt>
      <trkpt lat="44.16073" lon="3.09158">
        <ele>389</ele>
        <time>2019-05-22T23:03:20Z</time>
      </trkpt>
      <trkpt lat="44.16016" lon="3.09278">
        <ele>387</ele>
        <time>2019-05-22T23:03:38Z</time>
      </trkpt>
      <trkpt lat="44.16006" lon="3.09293">
        <ele>387</ele>
        <time>2019-05-22T23:03:41Z</time>
      </trkpt>
      <trkpt lat="44.15967" lon="3.09341">
        <ele>387</ele>
        <time>2019-05-22T23:03:50Z</time>
      </trkpt>
      <trkpt lat="44.15933" lon="3.09391">
        <ele>386</ele>
        <time>2019-05-22T23:03:59Z</time>
      </trkpt>
      <trkpt lat="44.15867" lon="3.09522">
        <ele>385</ele>
        <time>2019-05-22T23:04:19Z</time>
      </trkpt>
      <trkpt lat="44.15831" lon="3.09617">
        <ele>383</ele>
        <time>2019-05-22T23:04:33Z</time>
      </trkpt>
      <trkpt lat="44.15815" lon="3.09651">
        <ele>383</ele>
        <time>2019-05-22T23:04:38Z</time>
      </trkpt>
      <trkpt lat="44.15769" lon="3.09736">
        <ele>383</ele>
        <time>2019-05-22T23:04:52Z</time>
      </trkpt>
      <trkpt lat="44.15763" lon="3.09744">
        <ele>383</ele>
        <time>2019-05-22T23:04:53Z</time>
      </trkpt>
      <trkpt lat="44.15748" lon="3.09759">
        <ele>383</ele>
        <time>2019-05-22T23:04:56Z</time>
      </trkpt>
      <trkpt lat="44.15697" lon="3.09786">
        <ele>381</ele>
        <time>2019-05-22T23:05:06Z</time>
      </trkpt>
      <trkpt lat="44.15679" lon="3.09794">
        <ele>381</ele>
        <time>2019-05-22T23:05:09Z</time>
      </trkpt>
      <trkpt lat="44.15695" lon="3.09856">
        <ele>377</ele>
        <time>2019-05-22T23:05:18Z</time>
      </trkpt>
      <trkpt lat="44.15695" lon="3.09866">
        <ele>376</ele>
        <time>2019-05-22T23:05:19Z</time>
      </trkpt>
      <trkpt lat="44.15718" lon="3.09905">
        <ele>374</ele>
        <time>2019-05-22T23:05:26Z</time>
      </trkpt>
      <trkpt lat="44.15757" lon="3.09963">
        <ele>372</ele>
        <time>2019-05-22T23:05:36Z</time>
      </trkpt>
      <trkpt lat="44.15774" lon="3.10004">
        <ele>374</ele>
        <time>2019-05-22T23:05:42Z</time>
      </trkpt>
      <trkpt lat="44.15779" lon="3.10023">
        <ele>374</ele>
        <time>2019-05-22T23:05:44Z</time>
      </trkpt>
      <trkpt lat="44.15785" lon="3.10055">
        <ele>375</ele>
        <time>2019-05-22T23:05:49Z</time>
      </trkpt>
      <trkpt lat="44.1583" lon="3.10379">
        <ele>370</ele>
        <time>2019-05-22T23:06:31Z</time>
      </trkpt>
      <trkpt lat="44.15842" lon="3.10429">
        <ele>372</ele>
        <time>2019-05-22T23:06:37Z</time>
      </trkpt>
      <trkpt lat="44.15867" lon="3.10498">
        <ele>375</ele>
        <time>2019-05-22T23:06:47Z</time>
      </trkpt>
      <trkpt lat="44.15882" lon="3.10562">
        <ele>375</ele>
        <time>2019-05-22T23:06:56Z</time>
      </trkpt>
      <trkpt lat="44.1591" lon="3.10689">
        <ele>374</ele>
        <time>2019-05-22T23:07:13Z</time>
      </trkpt>
      <trkpt lat="44.15933" lon="3.10804">
        <ele>376</ele>
        <time>2019-05-22T23:07:28Z</time>
      </trkpt>
      <trkpt lat="44.15957" lon="3.10929">
        <ele>375</ele>
        <time>2019-05-22T23:07:45Z</time>
      </trkpt>
      <trkpt lat="44.15968" lon="3.10979">
        <ele>375</ele>
        <time>2019-05-22T23:07:51Z</time>
      </trkpt>
      <trkpt lat="44.15996" lon="3.11058">
        <ele>374</ele>
        <time>2019-05-22T23:08:02Z</time>
      </trkpt>
      <trkpt lat="44.16082" lon="3.11236">
        <ele>378</ele>
        <time>2019-05-22T23:08:30Z</time>
      </trkpt>
      <trkpt lat="44.16127" lon="3.11322">
        <ele>380</ele>
        <time>2019-05-22T23:08:43Z</time>
      </trkpt>
      <trkpt lat="44.16148" lon="3.11349">
        <ele>380</ele>
        <time>2019-05-22T23:08:49Z</time>
      </trkpt>
      <trkpt lat="44.16168" lon="3.11366">
        <ele>379</ele>
        <time>2019-05-22T23:08:53Z</time>
      </trkpt>
      <trkpt lat="44.16185" lon="3.11375">
        <ele>379</ele>
        <time>2019-05-22T23:08:56Z</time>
      </trkpt>
      <trkpt lat="44.16213" lon="3.1138">
        <ele>380</ele>
        <time>2019-05-22T23:09:01Z</time>
      </trkpt>
      <trkpt lat="44.16248" lon="3.11375">
        <ele>382</ele>
        <time>2019-05-22T23:09:07Z</time>
      </trkpt>
      <trkpt lat="44.16403" lon="3.11328">
        <ele>381</ele>
        <time>2019-05-22T23:09:35Z</time>
      </trkpt>
      <trkpt lat="44.16454" lon="3.11322">
        <ele>379</ele>
        <time>2019-05-22T23:09:45Z</time>
      </trkpt>
      <trkpt lat="44.16487" lon="3.11314">
        <ele>380</ele>
        <time>2019-05-22T23:09:51Z</time>
      </trkpt>
      <trkpt lat="44.16514" lon="3.11313">
        <ele>381</ele>
        <time>2019-05-22T23:09:55Z</time>
      </trkpt>
      <trkpt lat="44.16533" lon="3.1132">
        <ele>381</ele>
        <time>2019-05-22T23:09:59Z</time>
      </trkpt>
      <trkpt lat="44.16543" lon="3.11327">
        <ele>380</ele>
        <time>2019-05-22T23:10:01Z</time>
      </trkpt>
      <trkpt lat="44.1656" lon="3.11342">
        <ele>380</ele>
        <time>2019-05-22T23:10:04Z</time>
      </trkpt>
      <trkpt lat="44.16598" lon="3.11382">
        <ele>379</ele>
        <time>2019-05-22T23:10:13Z</time>
      </trkpt>
      <trkpt lat="44.16728" lon="3.11477">
        <ele>383</ele>
        <time>2019-05-22T23:10:39Z</time>
      </trkpt>
      <trkpt lat="44.16738" lon="3.11488">
        <ele>382</ele>
        <time>2019-05-22T23:10:41Z</time>
      </trkpt>
      <trkpt lat="44.16755" lon="3.11521">
        <ele>382</ele>
        <time>2019-05-22T23:10:46Z</time>
      </trkpt>
      <trkpt lat="44.16762" lon="3.11543">
        <ele>382</ele>
        <time>2019-05-22T23:10:50Z</time>
      </trkpt>
      <trkpt lat="44.16769" lon="3.11573">
        <ele>382</ele>
        <time>2019-05-22T23:10:54Z</time>
      </trkpt>
      <trkpt lat="44.16773" lon="3.1162">
        <ele>382</ele>
        <time>2019-05-22T23:11:00Z</time>
      </trkpt>
      <trkpt lat="44.16777" lon="3.11642">
        <ele>382</ele>
        <time>2019-05-22T23:11:02Z</time>
      </trkpt>
      <trkpt lat="44.16815" lon="3.11779">
        <ele>385</ele>
        <time>2019-05-22T23:11:21Z</time>
      </trkpt>
      <trkpt lat="44.16823" lon="3.11878">
        <ele>385</ele>
        <time>2019-05-22T23:11:34Z</time>
      </trkpt>
      <trkpt lat="44.16827" lon="3.11899">
        <ele>385</ele>
        <time>2019-05-22T23:11:37Z</time>
      </trkpt>
      <trkpt lat="44.16832" lon="3.11918">
        <ele>385</ele>
        <time>2019-05-22T23:11:39Z</time>
      </trkpt>
      <trkpt lat="44.16969" lon="3.12289">
        <ele>384</ele>
        <time>2019-05-22T23:12:33Z</time>
      </trkpt>
      <trkpt lat="44.16988" lon="3.12316">
        <ele>384</ele>
        <time>2019-05-22T23:12:37Z</time>
      </trkpt>
      <trkpt lat="44.17014" lon="3.12337">
        <ele>385</ele>
        <time>2019-05-22T23:12:43Z</time>
      </trkpt>
      <trkpt lat="44.1711" lon="3.1239">
        <ele>390</ele>
        <time>2019-05-22T23:13:01Z</time>
      </trkpt>
      <trkpt lat="44.17147" lon="3.12418">
        <ele>388</ele>
        <time>2019-05-22T23:13:09Z</time>
      </trkpt>
      <trkpt lat="44.17187" lon="3.12435">
        <ele>388</ele>
        <time>2019-05-22T23:13:16Z</time>
      </trkpt>
      <trkpt lat="44.17272" lon="3.12454">
        <ele>389</ele>
        <time>2019-05-22T23:13:31Z</time>
      </trkpt>
      <trkpt lat="44.17316" lon="3.12457">
        <ele>390</ele>
        <time>2019-05-22T23:13:39Z</time>
      </trkpt>
      <trkpt lat="44.17339" lon="3.1245">
        <ele>391</ele>
        <time>2019-05-22T23:13:43Z</time>
      </trkpt>
      <trkpt lat="44.17392" lon="3.12421">
        <ele>393</ele>
        <time>2019-05-22T23:13:54Z</time>
      </trkpt>
      <trkpt lat="44.17431" lon="3.12408">
        <ele>394</ele>
        <time>2019-05-22T23:14:01Z</time>
      </trkpt>
      <trkpt lat="44.17452" lon="3.12406">
        <ele>394</ele>
        <time>2019-05-22T23:14:04Z</time>
      </trkpt>
      <trkpt lat="44.17479" lon="3.12407">
        <ele>393</ele>
        <time>2019-05-22T23:14:09Z</time>
      </trkpt>
      <trkpt lat="44.17502" lon="3.12414">
        <ele>392</ele>
        <time>2019-05-22T23:14:13Z</time>
      </trkpt>
      <trkpt lat="44.17551" lon="3.12439">
        <ele>390</ele>
        <time>2019-05-22T23:14:23Z</time>
      </trkpt>
      <trkpt lat="44.1757" lon="3.12447">
        <ele>389</ele>
        <time>2019-05-22T23:14:26Z</time>
      </trkpt>
      <trkpt lat="44.17588" lon="3.12448">
        <ele>390</ele>
        <time>2019-05-22T23:14:29Z</time>
      </trkpt>
      <trkpt lat="44.17657" lon="3.12449">
        <ele>393</ele>
        <time>2019-05-22T23:14:42Z</time>
      </trkpt>
      <trkpt lat="44.17783" lon="3.12437">
        <ele>394</ele>
        <time>2019-05-22T23:15:04Z</time>
      </trkpt>
      <trkpt lat="44.17848" lon="3.12426">
        <ele>395</ele>
        <time>2019-05-22T23:15:16Z</time>
      </trkpt>
      <trkpt lat="44.17883" lon="3.12428">
        <ele>396</ele>
        <time>2019-05-22T23:15:22Z</time>
      </trkpt>
      <trkpt lat="44.17911" lon="3.12436">
        <ele>396</ele>
        <time>2019-05-22T23:15:27Z</time>
      </trkpt>
      <trkpt lat="44.17963" lon="3.12457">
        <ele>395</ele>
        <time>2019-05-22T23:15:37Z</time>
      </trkpt>
      <trkpt lat="44.18111" lon="3.12527">
        <ele>394</ele>
        <time>2019-05-22T23:16:05Z</time>
      </trkpt>
      <trkpt lat="44.1819" lon="3.12574">
        <ele>390</ele>
        <time>2019-05-22T23:16:20Z</time>
      </trkpt>
      <trkpt lat="44.18226" lon="3.12603">
        <ele>387</ele>
        <time>2019-05-22T23:16:27Z</time>
      </trkpt>
      <trkpt lat="44.18262" lon="3.12641">
        <ele>384</ele>
        <time>2019-05-22T23:16:35Z</time>
      </trkpt>
      <trkpt lat="44.18298" lon="3.12664">
        <ele>383</ele>
        <time>2019-05-22T23:16:42Z</time>
      </trkpt>
      <trkpt lat="44.18354" lon="3.12685">
        <ele>384</ele>
        <time>2019-05-22T23:16:53Z</time>
      </trkpt>
      <trkpt lat="44.18415" lon="3.12704">
        <ele>382</ele>
        <time>2019-05-22T23:17:04Z</time>
      </trkpt>
      <trkpt lat="44.1844" lon="3.12718">
        <ele>382</ele>
        <time>2019-05-22T23:17:09Z</time>
      </trkpt>
      <trkpt lat="44.18472" lon="3.12743">
        <ele>381</ele>
        <time>2019-05-22T23:17:15Z</time>
      </trkpt>
      <trkpt lat="44.1878" lon="3.13008">
        <ele>384</ele>
        <time>2019-05-22T23:18:19Z</time>
      </trkpt>
      <trkpt lat="44.18799" lon="3.1303">
        <ele>384</ele>
        <time>2019-05-22T23:18:24Z</time>
      </trkpt>
      <trkpt lat="44.18803" lon="3.13039">
        <ele>383</ele>
        <time>2019-05-22T23:18:25Z</time>
      </trkpt>
      <trkpt lat="44.18811" lon="3.1308">
        <ele>382</ele>
        <time>2019-05-22T23:18:31Z</time>
      </trkpt>
      <trkpt lat="44.18883" lon="3.13379">
        <ele>381</ele>
        <time>2019-05-22T23:19:11Z</time>
      </trkpt>
      <trkpt lat="44.18892" lon="3.13423">
        <ele>381</ele>
        <time>2019-05-22T23:19:17Z</time>
      </trkpt>
      <trkpt lat="44.18945" lon="3.13636">
        <ele>380</ele>
        <time>2019-05-22T23:19:45Z</time>
      </trkpt>
      <trkpt lat="44.1902" lon="3.13959">
        <ele>377</ele>
        <time>2019-05-22T23:20:29Z</time>
      </trkpt>
      <trkpt lat="44.19035" lon="3.14018">
        <ele>378</ele>
        <time>2019-05-22T23:20:37Z</time>
      </trkpt>
      <trkpt lat="44.19057" lon="3.14122">
        <ele>380</ele>
        <time>2019-05-22T23:20:51Z</time>
      </trkpt>
      <trkpt lat="44.19061" lon="3.14163">
        <ele>381</ele>
        <time>2019-05-22T23:20:56Z</time>
      </trkpt>
      <trkpt lat="44.19064" lon="3.14259">
        <ele>383</ele>
        <time>2019-05-22T23:21:08Z</time>
      </trkpt>
      <trkpt lat="44.19076" lon="3.14332">
        <ele>384</ele>
        <time>2019-05-22T23:21:18Z</time>
      </trkpt>
      <trkpt lat="44.19128" lon="3.14623">
        <ele>388</ele>
        <time>2019-05-22T23:21:56Z</time>
      </trkpt>
      <trkpt lat="44.19132" lon="3.1466">
        <ele>387</ele>
        <time>2019-05-22T23:22:01Z</time>
      </trkpt>
      <trkpt lat="44.19132" lon="3.14729">
        <ele>389</ele>
        <time>2019-05-22T23:22:10Z</time>
      </trkpt>
      <trkpt lat="44.19129" lon="3.14763">
        <ele>389</ele>
        <time>2019-05-22T23:22:14Z</time>
      </trkpt>
      <trkpt lat="44.19114" lon="3.14825">
        <ele>388</ele>
        <time>2019-05-22T23:22:22Z</time>
      </trkpt>
      <trkpt lat="44.19058" lon="3.15028">
        <ele>389</ele>
        <time>2019-05-22T23:22:50Z</time>
      </trkpt>
      <trkpt lat="44.1904" lon="3.15087">
        <ele>390</ele>
        <time>2019-05-22T23:22:58Z</time>
      </trkpt>
      <trkpt lat="44.18993" lon="3.1521">
        <ele>391</ele>
        <time>2019-05-22T23:23:16Z</time>
      </trkpt>
      <trkpt lat="44.18968" lon="3.15296">
        <ele>394</ele>
        <time>2019-05-22T23:23:28Z</time>
      </trkpt>
      <trkpt lat="44.18947" lon="3.15379">
        <ele>393</ele>
        <time>2019-05-22T23:23:39Z</time>
      </trkpt>
      <trkpt lat="44.1894" lon="3.15423">
        <ele>392</ele>
        <time>2019-05-22T23:23:45Z</time>
      </trkpt>
      <trkpt lat="44.1894" lon="3.15449">
        <ele>392</ele>
        <time>2019-05-22T23:23:48Z</time>
      </trkpt>
      <trkpt lat="44.18944" lon="3.15485">
        <ele>392</ele>
        <time>2019-05-22T23:23:53Z</time>
      </trkpt>
      <trkpt lat="44.18958" lon="3.15534">
        <ele>393</ele>
        <time>2019-05-22T23:23:59Z</time>
      </trkpt>
      <trkpt lat="44.18971" lon="3.1556">
        <ele>393</ele>
        <time>2019-05-22T23:24:04Z</time>
      </trkpt>
      <trkpt lat="44.18978" lon="3.15571">
        <ele>393</ele>
        <time>2019-05-22T23:24:05Z</time>
      </trkpt>
    </trkseg>
  </trk>
</gpx>